<?xml version="1.0" encoding="UTF-8" standalone="no" ?>
<gpx xmlns="http://www.topografix.com/GPX/1/1" xmlns:xsi="http://www.w3.org/2001/XMLSchema-instance" xsi:schemaLocation="http://www.topografix.com/GPX/1/1 http://www.topografix.com/GPX/1/1/gpx.xsd" version="1.1" creator="VisuGPX - https://www.visugpx.com">
  <metadata>
    <name>Tour de Belchamp</name>
    <desc><![CDATA[tour classique de Belchamp]]></desc>
  </metadata>
  <trk>
    <name><![CDATA[2013-11-11]]></name>
    <trkseg>
      <trkpt lat="47.47372" lon="6.77229">
        <ele>371</ele>
        <time>2013-11-11T08:21:04.044Z</time>
      </trkpt>
      <trkpt lat="47.47375" lon="6.77227">
        <ele>371</ele>
        <time>2013-11-11T08:21:09.122Z</time>
      </trkpt>
      <trkpt lat="47.47373" lon="6.77223">
        <ele>371</ele>
        <time>2013-11-11T08:21:14.068Z</time>
      </trkpt>
      <trkpt lat="47.47373" lon="6.77223">
        <ele>372</ele>
        <time>2013-11-11T08:21:19.126Z</time>
      </trkpt>
      <trkpt lat="47.4737" lon="6.77221">
        <ele>375</ele>
        <time>2013-11-11T08:21:24.061Z</time>
      </trkpt>
      <trkpt lat="47.4737" lon="6.77221">
        <ele>375</ele>
        <time>2013-11-11T08:21:29.117Z</time>
      </trkpt>
      <trkpt lat="47.4737" lon="6.77217">
        <ele>376</ele>
        <time>2013-11-11T08:21:34.062Z</time>
      </trkpt>
      <trkpt lat="47.4737" lon="6.77217">
        <ele>376</ele>
        <time>2013-11-11T08:21:39.142Z</time>
      </trkpt>
      <trkpt lat="47.4737" lon="6.77217">
        <ele>377</ele>
        <time>2013-11-11T08:21:44.077Z</time>
      </trkpt>
      <trkpt lat="47.47369" lon="6.77215">
        <ele>378</ele>
        <time>2013-11-11T08:21:49.143Z</time>
      </trkpt>
      <trkpt lat="47.47368" lon="6.77216">
        <ele>378</ele>
        <time>2013-11-11T08:21:54.071Z</time>
      </trkpt>
      <trkpt lat="47.47371" lon="6.77222">
        <ele>379</ele>
        <time>2013-11-11T08:21:59.107Z</time>
      </trkpt>
      <trkpt lat="47.47373" lon="6.77226">
        <ele>377</ele>
        <time>2013-11-11T08:22:04.141Z</time>
      </trkpt>
      <trkpt lat="47.47374" lon="6.77228">
        <ele>376</ele>
        <time>2013-11-11T08:22:09.071Z</time>
      </trkpt>
      <trkpt lat="47.47376" lon="6.77228">
        <ele>375</ele>
        <time>2013-11-11T08:22:14.113Z</time>
      </trkpt>
      <trkpt lat="47.47375" lon="6.77228">
        <ele>375</ele>
        <time>2013-11-11T08:22:19.071Z</time>
      </trkpt>
      <trkpt lat="47.47375" lon="6.77228">
        <ele>375</ele>
        <time>2013-11-11T08:22:24.140Z</time>
      </trkpt>
      <trkpt lat="47.47375" lon="6.77228">
        <ele>375</ele>
        <time>2013-11-11T08:22:29.068Z</time>
      </trkpt>
      <trkpt lat="47.47374" lon="6.77229">
        <ele>376</ele>
        <time>2013-11-11T08:22:34.140Z</time>
      </trkpt>
      <trkpt lat="47.47374" lon="6.77228">
        <ele>375</ele>
        <time>2013-11-11T08:22:39.068Z</time>
      </trkpt>
      <trkpt lat="47.47372" lon="6.77225">
        <ele>375</ele>
        <time>2013-11-11T08:22:44.141Z</time>
      </trkpt>
      <trkpt lat="47.47371" lon="6.77224">
        <ele>375</ele>
        <time>2013-11-11T08:22:49.068Z</time>
      </trkpt>
      <trkpt lat="47.47371" lon="6.77223">
        <ele>375</ele>
        <time>2013-11-11T08:22:54.143Z</time>
      </trkpt>
      <trkpt lat="47.47368" lon="6.77222">
        <ele>375</ele>
        <time>2013-11-11T08:23:14.144Z</time>
      </trkpt>
      <trkpt lat="47.47371" lon="6.77221">
        <ele>375</ele>
        <time>2013-11-11T08:23:19.063Z</time>
      </trkpt>
      <trkpt lat="47.4737" lon="6.7722">
        <ele>375</ele>
        <time>2013-11-11T08:23:24.144Z</time>
      </trkpt>
      <trkpt lat="47.4737" lon="6.7722">
        <ele>375</ele>
        <time>2013-11-11T08:23:29.063Z</time>
      </trkpt>
      <trkpt lat="47.4737" lon="6.7722">
        <ele>375</ele>
        <time>2013-11-11T08:23:34.109Z</time>
      </trkpt>
      <trkpt lat="47.47369" lon="6.7722">
        <ele>375</ele>
        <time>2013-11-11T08:23:39.063Z</time>
      </trkpt>
      <trkpt lat="47.47371" lon="6.77222">
        <ele>375</ele>
        <time>2013-11-11T08:23:44.118Z</time>
      </trkpt>
      <trkpt lat="47.47372" lon="6.77224">
        <ele>376</ele>
        <time>2013-11-11T08:23:49.062Z</time>
      </trkpt>
      <trkpt lat="47.47372" lon="6.77224">
        <ele>375</ele>
        <time>2013-11-11T08:23:54.141Z</time>
      </trkpt>
      <trkpt lat="47.47372" lon="6.77224">
        <ele>375</ele>
        <time>2013-11-11T08:23:59.064Z</time>
      </trkpt>
      <trkpt lat="47.47372" lon="6.77226">
        <ele>374</ele>
        <time>2013-11-11T08:24:09.069Z</time>
      </trkpt>
      <trkpt lat="47.47372" lon="6.77227">
        <ele>373</ele>
        <time>2013-11-11T08:24:14.142Z</time>
      </trkpt>
      <trkpt lat="47.47374" lon="6.77225">
        <ele>374</ele>
        <time>2013-11-11T08:24:19.067Z</time>
      </trkpt>
      <trkpt lat="47.47373" lon="6.77224">
        <ele>374</ele>
        <time>2013-11-11T08:24:24.105Z</time>
      </trkpt>
      <trkpt lat="47.47372" lon="6.77223">
        <ele>374</ele>
        <time>2013-11-11T08:24:29.063Z</time>
      </trkpt>
      <trkpt lat="47.47371" lon="6.77223">
        <ele>374</ele>
        <time>2013-11-11T08:24:34.142Z</time>
      </trkpt>
      <trkpt lat="47.47371" lon="6.77225">
        <ele>374</ele>
        <time>2013-11-11T08:24:39.063Z</time>
      </trkpt>
      <trkpt lat="47.47371" lon="6.77225">
        <ele>374</ele>
        <time>2013-11-11T08:24:44.141Z</time>
      </trkpt>
      <trkpt lat="47.47371" lon="6.77224">
        <ele>374</ele>
        <time>2013-11-11T08:24:49.063Z</time>
      </trkpt>
      <trkpt lat="47.47372" lon="6.77225">
        <ele>374</ele>
        <time>2013-11-11T08:24:54.139Z</time>
      </trkpt>
      <trkpt lat="47.47371" lon="6.77222">
        <ele>375</ele>
        <time>2013-11-11T08:24:59.049Z</time>
      </trkpt>
      <trkpt lat="47.47373" lon="6.77224">
        <ele>375</ele>
        <time>2013-11-11T08:25:04.141Z</time>
      </trkpt>
      <trkpt lat="47.47373" lon="6.77224">
        <ele>375</ele>
        <time>2013-11-11T08:25:09.062Z</time>
      </trkpt>
      <trkpt lat="47.47375" lon="6.77226">
        <ele>374</ele>
        <time>2013-11-11T08:25:14.140Z</time>
      </trkpt>
      <trkpt lat="47.47377" lon="6.7723">
        <ele>373</ele>
        <time>2013-11-11T08:25:19.067Z</time>
      </trkpt>
      <trkpt lat="47.47373" lon="6.77232">
        <ele>373</ele>
        <time>2013-11-11T08:25:24.135Z</time>
      </trkpt>
      <trkpt lat="47.4737" lon="6.77229">
        <ele>372</ele>
        <time>2013-11-11T08:25:29.067Z</time>
      </trkpt>
      <trkpt lat="47.47374" lon="6.7722">
        <ele>372</ele>
        <time>2013-11-11T08:25:34.138Z</time>
      </trkpt>
      <trkpt lat="47.47386" lon="6.77219">
        <ele>373</ele>
        <time>2013-11-11T08:25:39.062Z</time>
      </trkpt>
      <trkpt lat="47.47403" lon="6.77221">
        <ele>373</ele>
        <time>2013-11-11T08:25:44.143Z</time>
      </trkpt>
      <trkpt lat="47.4742" lon="6.77228">
        <ele>374</ele>
        <time>2013-11-11T08:25:49.067Z</time>
      </trkpt>
      <trkpt lat="47.47436" lon="6.77241">
        <ele>375</ele>
        <time>2013-11-11T08:25:54.142Z</time>
      </trkpt>
      <trkpt lat="47.47452" lon="6.77259">
        <ele>376</ele>
        <time>2013-11-11T08:25:59.067Z</time>
      </trkpt>
      <trkpt lat="47.47468" lon="6.77278">
        <ele>377</ele>
        <time>2013-11-11T08:26:05.374Z</time>
      </trkpt>
      <trkpt lat="47.47483" lon="6.77293">
        <ele>378</ele>
        <time>2013-11-11T08:26:09.048Z</time>
      </trkpt>
      <trkpt lat="47.47491" lon="6.77306">
        <ele>380</ele>
        <time>2013-11-11T08:26:14.057Z</time>
      </trkpt>
      <trkpt lat="47.47503" lon="6.77323">
        <ele>380</ele>
        <time>2013-11-11T08:26:19.121Z</time>
      </trkpt>
      <trkpt lat="47.47515" lon="6.77341">
        <ele>382</ele>
        <time>2013-11-11T08:26:24.062Z</time>
      </trkpt>
      <trkpt lat="47.47529" lon="6.77363">
        <ele>382</ele>
        <time>2013-11-11T08:26:29.137Z</time>
      </trkpt>
      <trkpt lat="47.47544" lon="6.77388">
        <ele>381</ele>
        <time>2013-11-11T08:26:34.062Z</time>
      </trkpt>
      <trkpt lat="47.47556" lon="6.77411">
        <ele>381</ele>
        <time>2013-11-11T08:26:39.141Z</time>
      </trkpt>
      <trkpt lat="47.47574" lon="6.77432">
        <ele>383</ele>
        <time>2013-11-11T08:26:44.069Z</time>
      </trkpt>
      <trkpt lat="47.47592" lon="6.77456">
        <ele>382</ele>
        <time>2013-11-11T08:26:49.149Z</time>
      </trkpt>
      <trkpt lat="47.4761" lon="6.77475">
        <ele>382</ele>
        <time>2013-11-11T08:26:54.063Z</time>
      </trkpt>
      <trkpt lat="47.47664" lon="6.77539">
        <ele>383</ele>
        <time>2013-11-11T08:27:09.141Z</time>
      </trkpt>
      <trkpt lat="47.47678" lon="6.77561">
        <ele>383</ele>
        <time>2013-11-11T08:27:14.066Z</time>
      </trkpt>
      <trkpt lat="47.47695" lon="6.77584">
        <ele>383</ele>
        <time>2013-11-11T08:27:19.130Z</time>
      </trkpt>
      <trkpt lat="47.47704" lon="6.77614">
        <ele>382</ele>
        <time>2013-11-11T08:27:24.061Z</time>
      </trkpt>
      <trkpt lat="47.47708" lon="6.77642">
        <ele>382</ele>
        <time>2013-11-11T08:27:29.141Z</time>
      </trkpt>
      <trkpt lat="47.47719" lon="6.77672">
        <ele>381</ele>
        <time>2013-11-11T08:27:34.076Z</time>
      </trkpt>
      <trkpt lat="47.47725" lon="6.77699">
        <ele>380</ele>
        <time>2013-11-11T08:27:39.137Z</time>
      </trkpt>
      <trkpt lat="47.47724" lon="6.77726">
        <ele>378</ele>
        <time>2013-11-11T08:27:44.068Z</time>
      </trkpt>
      <trkpt lat="47.47722" lon="6.77753">
        <ele>377</ele>
        <time>2013-11-11T08:27:49.149Z</time>
      </trkpt>
      <trkpt lat="47.4772" lon="6.77779">
        <ele>377</ele>
        <time>2013-11-11T08:27:54.066Z</time>
      </trkpt>
      <trkpt lat="47.47717" lon="6.77805">
        <ele>378</ele>
        <time>2013-11-11T08:27:59.134Z</time>
      </trkpt>
      <trkpt lat="47.47714" lon="6.77832">
        <ele>378</ele>
        <time>2013-11-11T08:28:04.135Z</time>
      </trkpt>
      <trkpt lat="47.4771" lon="6.77861">
        <ele>378</ele>
        <time>2013-11-11T08:28:09.103Z</time>
      </trkpt>
      <trkpt lat="47.47713" lon="6.77891">
        <ele>378</ele>
        <time>2013-11-11T08:28:14.051Z</time>
      </trkpt>
      <trkpt lat="47.4772" lon="6.77945">
        <ele>378</ele>
        <time>2013-11-11T08:28:24.064Z</time>
      </trkpt>
      <trkpt lat="47.4772" lon="6.77945">
        <ele>378</ele>
        <time>2013-11-11T08:28:24.064Z</time>
      </trkpt>
      <trkpt lat="47.47729" lon="6.77998">
        <ele>379</ele>
        <time>2013-11-11T08:28:34.064Z</time>
      </trkpt>
      <trkpt lat="47.47734" lon="6.78022">
        <ele>379</ele>
        <time>2013-11-11T08:28:39.122Z</time>
      </trkpt>
      <trkpt lat="47.47743" lon="6.78046">
        <ele>379</ele>
        <time>2013-11-11T08:28:44.066Z</time>
      </trkpt>
      <trkpt lat="47.47743" lon="6.78072">
        <ele>377</ele>
        <time>2013-11-11T08:28:49.140Z</time>
      </trkpt>
      <trkpt lat="47.47739" lon="6.78096">
        <ele>374</ele>
        <time>2013-11-11T08:28:54.063Z</time>
      </trkpt>
      <trkpt lat="47.47734" lon="6.78113">
        <ele>373</ele>
        <time>2013-11-11T08:28:59.139Z</time>
      </trkpt>
      <trkpt lat="47.47719" lon="6.78155">
        <ele>374</ele>
        <time>2013-11-11T08:29:14.048Z</time>
      </trkpt>
      <trkpt lat="47.47716" lon="6.78168">
        <ele>375</ele>
        <time>2013-11-11T08:29:19.099Z</time>
      </trkpt>
      <trkpt lat="47.47714" lon="6.78182">
        <ele>376</ele>
        <time>2013-11-11T08:29:24.061Z</time>
      </trkpt>
      <trkpt lat="47.47709" lon="6.78194">
        <ele>376</ele>
        <time>2013-11-11T08:29:29.141Z</time>
      </trkpt>
      <trkpt lat="47.47701" lon="6.78208">
        <ele>379</ele>
        <time>2013-11-11T08:29:34.062Z</time>
      </trkpt>
      <trkpt lat="47.47704" lon="6.78222">
        <ele>380</ele>
        <time>2013-11-11T08:29:39.147Z</time>
      </trkpt>
      <trkpt lat="47.4771" lon="6.78233">
        <ele>383</ele>
        <time>2013-11-11T08:29:44.059Z</time>
      </trkpt>
      <trkpt lat="47.47713" lon="6.78247">
        <ele>384</ele>
        <time>2013-11-11T08:29:49.141Z</time>
      </trkpt>
      <trkpt lat="47.47715" lon="6.7826">
        <ele>386</ele>
        <time>2013-11-11T08:29:54.059Z</time>
      </trkpt>
      <trkpt lat="47.47719" lon="6.78272">
        <ele>388</ele>
        <time>2013-11-11T08:29:59.102Z</time>
      </trkpt>
      <trkpt lat="47.47724" lon="6.78287">
        <ele>389</ele>
        <time>2013-11-11T08:30:04.061Z</time>
      </trkpt>
      <trkpt lat="47.47734" lon="6.78302">
        <ele>389</ele>
        <time>2013-11-11T08:30:09.139Z</time>
      </trkpt>
      <trkpt lat="47.47738" lon="6.78318">
        <ele>387</ele>
        <time>2013-11-11T08:30:14.062Z</time>
      </trkpt>
      <trkpt lat="47.47737" lon="6.78335">
        <ele>386</ele>
        <time>2013-11-11T08:30:19.063Z</time>
      </trkpt>
      <trkpt lat="47.47733" lon="6.78352">
        <ele>385</ele>
        <time>2013-11-11T08:30:24.049Z</time>
      </trkpt>
      <trkpt lat="47.47736" lon="6.78369">
        <ele>386</ele>
        <time>2013-11-11T08:30:29.062Z</time>
      </trkpt>
      <trkpt lat="47.47748" lon="6.78381">
        <ele>386</ele>
        <time>2013-11-11T08:30:34.142Z</time>
      </trkpt>
      <trkpt lat="47.47756" lon="6.78375">
        <ele>387</ele>
        <time>2013-11-11T08:30:39.050Z</time>
      </trkpt>
      <trkpt lat="47.47739" lon="6.78405">
        <ele>384</ele>
        <time>2013-11-11T08:30:44.136Z</time>
      </trkpt>
      <trkpt lat="47.4773" lon="6.78422">
        <ele>383</ele>
        <time>2013-11-11T08:30:49.058Z</time>
      </trkpt>
      <trkpt lat="47.47722" lon="6.78421">
        <ele>383</ele>
        <time>2013-11-11T08:30:54.123Z</time>
      </trkpt>
      <trkpt lat="47.47676" lon="6.7841">
        <ele>388</ele>
        <time>2013-11-11T08:31:14.140Z</time>
      </trkpt>
      <trkpt lat="47.47672" lon="6.78405">
        <ele>390</ele>
        <time>2013-11-11T08:31:19.060Z</time>
      </trkpt>
      <trkpt lat="47.47667" lon="6.78401">
        <ele>392</ele>
        <time>2013-11-11T08:31:24.139Z</time>
      </trkpt>
      <trkpt lat="47.47659" lon="6.78398">
        <ele>394</ele>
        <time>2013-11-11T08:31:29.063Z</time>
      </trkpt>
      <trkpt lat="47.47654" lon="6.78396">
        <ele>396</ele>
        <time>2013-11-11T08:31:34.115Z</time>
      </trkpt>
      <trkpt lat="47.47649" lon="6.78395">
        <ele>397</ele>
        <time>2013-11-11T08:31:39.071Z</time>
      </trkpt>
      <trkpt lat="47.47642" lon="6.78392">
        <ele>398</ele>
        <time>2013-11-11T08:31:44.144Z</time>
      </trkpt>
      <trkpt lat="47.47635" lon="6.78383">
        <ele>399</ele>
        <time>2013-11-11T08:31:49.071Z</time>
      </trkpt>
      <trkpt lat="47.47628" lon="6.78371">
        <ele>399</ele>
        <time>2013-11-11T08:31:54.144Z</time>
      </trkpt>
      <trkpt lat="47.47624" lon="6.78355">
        <ele>399</ele>
        <time>2013-11-11T08:31:59.078Z</time>
      </trkpt>
      <trkpt lat="47.47616" lon="6.78339">
        <ele>400</ele>
        <time>2013-11-11T08:32:04.144Z</time>
      </trkpt>
      <trkpt lat="47.4761" lon="6.78324">
        <ele>401</ele>
        <time>2013-11-11T08:32:09.071Z</time>
      </trkpt>
      <trkpt lat="47.476" lon="6.7831">
        <ele>402</ele>
        <time>2013-11-11T08:32:14.144Z</time>
      </trkpt>
      <trkpt lat="47.47587" lon="6.78294">
        <ele>403</ele>
        <time>2013-11-11T08:32:19.070Z</time>
      </trkpt>
      <trkpt lat="47.47572" lon="6.78278">
        <ele>403</ele>
        <time>2013-11-11T08:32:24.144Z</time>
      </trkpt>
      <trkpt lat="47.4755" lon="6.78251">
        <ele>405</ele>
        <time>2013-11-11T08:32:29.071Z</time>
      </trkpt>
      <trkpt lat="47.47533" lon="6.78225">
        <ele>406</ele>
        <time>2013-11-11T08:32:34.143Z</time>
      </trkpt>
      <trkpt lat="47.47516" lon="6.78199">
        <ele>406</ele>
        <time>2013-11-11T08:32:39.144Z</time>
      </trkpt>
      <trkpt lat="47.475" lon="6.78173">
        <ele>406</ele>
        <time>2013-11-11T08:32:44.074Z</time>
      </trkpt>
      <trkpt lat="47.47483" lon="6.78147">
        <ele>406</ele>
        <time>2013-11-11T08:32:49.145Z</time>
      </trkpt>
      <trkpt lat="47.47466" lon="6.78121">
        <ele>406</ele>
        <time>2013-11-11T08:32:54.071Z</time>
      </trkpt>
      <trkpt lat="47.47393" lon="6.7802">
        <ele>404</ele>
        <time>2013-11-11T08:33:14.074Z</time>
      </trkpt>
      <trkpt lat="47.47384" lon="6.77996">
        <ele>403</ele>
        <time>2013-11-11T08:33:19.143Z</time>
      </trkpt>
      <trkpt lat="47.47379" lon="6.78005">
        <ele>402</ele>
        <time>2013-11-11T08:33:24.075Z</time>
      </trkpt>
      <trkpt lat="47.47373" lon="6.78018">
        <ele>402</ele>
        <time>2013-11-11T08:33:29.144Z</time>
      </trkpt>
      <trkpt lat="47.47364" lon="6.78032">
        <ele>401</ele>
        <time>2013-11-11T08:33:34.104Z</time>
      </trkpt>
      <trkpt lat="47.47364" lon="6.7805">
        <ele>401</ele>
        <time>2013-11-11T08:33:39.142Z</time>
      </trkpt>
      <trkpt lat="47.4736" lon="6.78068">
        <ele>400</ele>
        <time>2013-11-11T08:33:44.074Z</time>
      </trkpt>
      <trkpt lat="47.47359" lon="6.78088">
        <ele>400</ele>
        <time>2013-11-11T08:33:49.115Z</time>
      </trkpt>
      <trkpt lat="47.47355" lon="6.78103">
        <ele>401</ele>
        <time>2013-11-11T08:33:54.144Z</time>
      </trkpt>
      <trkpt lat="47.47347" lon="6.78116">
        <ele>403</ele>
        <time>2013-11-11T08:33:59.071Z</time>
      </trkpt>
      <trkpt lat="47.47344" lon="6.78134">
        <ele>404</ele>
        <time>2013-11-11T08:34:04.143Z</time>
      </trkpt>
      <trkpt lat="47.4734" lon="6.78156">
        <ele>404</ele>
        <time>2013-11-11T08:34:09.070Z</time>
      </trkpt>
      <trkpt lat="47.47332" lon="6.78178">
        <ele>406</ele>
        <time>2013-11-11T08:34:14.130Z</time>
      </trkpt>
      <trkpt lat="47.4733" lon="6.78199">
        <ele>407</ele>
        <time>2013-11-11T08:34:19.076Z</time>
      </trkpt>
      <trkpt lat="47.47327" lon="6.78219">
        <ele>408</ele>
        <time>2013-11-11T08:34:24.258Z</time>
      </trkpt>
      <trkpt lat="47.47317" lon="6.78237">
        <ele>410</ele>
        <time>2013-11-11T08:34:29.067Z</time>
      </trkpt>
      <trkpt lat="47.47304" lon="6.78251">
        <ele>411</ele>
        <time>2013-11-11T08:34:34.369Z</time>
      </trkpt>
      <trkpt lat="47.47296" lon="6.78261">
        <ele>412</ele>
        <time>2013-11-11T08:34:39.070Z</time>
      </trkpt>
      <trkpt lat="47.4729" lon="6.78273">
        <ele>412</ele>
        <time>2013-11-11T08:34:44.136Z</time>
      </trkpt>
      <trkpt lat="47.4729" lon="6.7829">
        <ele>412</ele>
        <time>2013-11-11T08:34:49.068Z</time>
      </trkpt>
      <trkpt lat="47.47287" lon="6.78303">
        <ele>413</ele>
        <time>2013-11-11T08:34:54.143Z</time>
      </trkpt>
      <trkpt lat="47.47283" lon="6.78316">
        <ele>412</ele>
        <time>2013-11-11T08:34:59.067Z</time>
      </trkpt>
      <trkpt lat="47.47279" lon="6.7833">
        <ele>412</ele>
        <time>2013-11-11T08:35:04.144Z</time>
      </trkpt>
      <trkpt lat="47.47275" lon="6.78348">
        <ele>413</ele>
        <time>2013-11-11T08:35:09.067Z</time>
      </trkpt>
      <trkpt lat="47.47274" lon="6.78364">
        <ele>414</ele>
        <time>2013-11-11T08:35:14.148Z</time>
      </trkpt>
      <trkpt lat="47.47272" lon="6.78376">
        <ele>414</ele>
        <time>2013-11-11T08:35:19.066Z</time>
      </trkpt>
      <trkpt lat="47.4727" lon="6.78388">
        <ele>414</ele>
        <time>2013-11-11T08:35:24.129Z</time>
      </trkpt>
      <trkpt lat="47.47266" lon="6.78402">
        <ele>415</ele>
        <time>2013-11-11T08:35:29.052Z</time>
      </trkpt>
      <trkpt lat="47.47266" lon="6.78415">
        <ele>416</ele>
        <time>2013-11-11T08:35:34.126Z</time>
      </trkpt>
      <trkpt lat="47.47261" lon="6.7843">
        <ele>417</ele>
        <time>2013-11-11T08:35:39.051Z</time>
      </trkpt>
      <trkpt lat="47.47256" lon="6.78445">
        <ele>418</ele>
        <time>2013-11-11T08:35:44.148Z</time>
      </trkpt>
      <trkpt lat="47.47251" lon="6.7846">
        <ele>419</ele>
        <time>2013-11-11T08:35:49.068Z</time>
      </trkpt>
      <trkpt lat="47.47254" lon="6.78479">
        <ele>417</ele>
        <time>2013-11-11T08:35:54.144Z</time>
      </trkpt>
      <trkpt lat="47.47246" lon="6.78484">
        <ele>417</ele>
        <time>2013-11-11T08:35:59.066Z</time>
      </trkpt>
      <trkpt lat="47.47235" lon="6.78479">
        <ele>417</ele>
        <time>2013-11-11T08:36:04.117Z</time>
      </trkpt>
      <trkpt lat="47.47225" lon="6.78475">
        <ele>417</ele>
        <time>2013-11-11T08:36:09.068Z</time>
      </trkpt>
      <trkpt lat="47.47207" lon="6.7847">
        <ele>418</ele>
        <time>2013-11-11T08:36:14.131Z</time>
      </trkpt>
      <trkpt lat="47.47184" lon="6.78462">
        <ele>418</ele>
        <time>2013-11-11T08:36:19.067Z</time>
      </trkpt>
      <trkpt lat="47.47167" lon="6.78454">
        <ele>418</ele>
        <time>2013-11-11T08:36:24.142Z</time>
      </trkpt>
      <trkpt lat="47.47156" lon="6.78447">
        <ele>418</ele>
        <time>2013-11-11T08:36:29.065Z</time>
      </trkpt>
      <trkpt lat="47.4714" lon="6.78438">
        <ele>417</ele>
        <time>2013-11-11T08:36:34.136Z</time>
      </trkpt>
      <trkpt lat="47.47126" lon="6.78439">
        <ele>416</ele>
        <time>2013-11-11T08:36:39.063Z</time>
      </trkpt>
      <trkpt lat="47.47107" lon="6.78442">
        <ele>415</ele>
        <time>2013-11-11T08:36:44.141Z</time>
      </trkpt>
      <trkpt lat="47.47087" lon="6.78435">
        <ele>415</ele>
        <time>2013-11-11T08:36:49.063Z</time>
      </trkpt>
      <trkpt lat="47.47055" lon="6.78413">
        <ele>413</ele>
        <time>2013-11-11T08:36:54.133Z</time>
      </trkpt>
      <trkpt lat="47.46998" lon="6.78401">
        <ele>404</ele>
        <time>2013-11-11T08:37:14.053Z</time>
      </trkpt>
      <trkpt lat="47.46993" lon="6.78417">
        <ele>404</ele>
        <time>2013-11-11T08:37:19.105Z</time>
      </trkpt>
      <trkpt lat="47.46988" lon="6.78433">
        <ele>403</ele>
        <time>2013-11-11T08:37:24.059Z</time>
      </trkpt>
      <trkpt lat="47.46988" lon="6.78455">
        <ele>403</ele>
        <time>2013-11-11T08:37:29.124Z</time>
      </trkpt>
      <trkpt lat="47.46993" lon="6.78476">
        <ele>404</ele>
        <time>2013-11-11T08:37:34.060Z</time>
      </trkpt>
      <trkpt lat="47.47002" lon="6.78496">
        <ele>404</ele>
        <time>2013-11-11T08:37:39.142Z</time>
      </trkpt>
      <trkpt lat="47.47012" lon="6.78518">
        <ele>404</ele>
        <time>2013-11-11T08:37:44.063Z</time>
      </trkpt>
      <trkpt lat="47.47028" lon="6.78544">
        <ele>404</ele>
        <time>2013-11-11T08:37:49.143Z</time>
      </trkpt>
      <trkpt lat="47.47039" lon="6.78571">
        <ele>399</ele>
        <time>2013-11-11T08:37:54.064Z</time>
      </trkpt>
      <trkpt lat="47.47034" lon="6.78586">
        <ele>394</ele>
        <time>2013-11-11T08:37:59.141Z</time>
      </trkpt>
      <trkpt lat="47.47034" lon="6.78588">
        <ele>393</ele>
        <time>2013-11-11T08:38:04.063Z</time>
      </trkpt>
      <trkpt lat="47.47026" lon="6.78592">
        <ele>395</ele>
        <time>2013-11-11T08:38:09.141Z</time>
      </trkpt>
      <trkpt lat="47.47033" lon="6.78594">
        <ele>395</ele>
        <time>2013-11-11T08:38:14.049Z</time>
      </trkpt>
      <trkpt lat="47.47034" lon="6.78593">
        <ele>397</ele>
        <time>2013-11-11T08:38:19.044Z</time>
      </trkpt>
      <trkpt lat="47.47014" lon="6.78588">
        <ele>400</ele>
        <time>2013-11-11T08:38:29.052Z</time>
      </trkpt>
      <trkpt lat="47.47014" lon="6.78588">
        <ele>400</ele>
        <time>2013-11-11T08:38:29.052Z</time>
      </trkpt>
      <trkpt lat="47.47" lon="6.786">
        <ele>399</ele>
        <time>2013-11-11T08:38:39.056Z</time>
      </trkpt>
      <trkpt lat="47.46986" lon="6.78599">
        <ele>399</ele>
        <time>2013-11-11T08:38:44.134Z</time>
      </trkpt>
      <trkpt lat="47.4697" lon="6.786">
        <ele>399</ele>
        <time>2013-11-11T08:38:49.056Z</time>
      </trkpt>
      <trkpt lat="47.46961" lon="6.78601">
        <ele>399</ele>
        <time>2013-11-11T08:38:54.146Z</time>
      </trkpt>
      <trkpt lat="47.46951" lon="6.78604">
        <ele>400</ele>
        <time>2013-11-11T08:38:59.057Z</time>
      </trkpt>
      <trkpt lat="47.46937" lon="6.78614">
        <ele>404</ele>
        <time>2013-11-11T08:39:14.142Z</time>
      </trkpt>
      <trkpt lat="47.46939" lon="6.7862">
        <ele>406</ele>
        <time>2013-11-11T08:39:19.064Z</time>
      </trkpt>
      <trkpt lat="47.46932" lon="6.78624">
        <ele>408</ele>
        <time>2013-11-11T08:39:24.136Z</time>
      </trkpt>
      <trkpt lat="47.46924" lon="6.78625">
        <ele>409</ele>
        <time>2013-11-11T08:39:29.063Z</time>
      </trkpt>
      <trkpt lat="47.46908" lon="6.78626">
        <ele>411</ele>
        <time>2013-11-11T08:39:34.137Z</time>
      </trkpt>
      <trkpt lat="47.46897" lon="6.78624">
        <ele>414</ele>
        <time>2013-11-11T08:39:39.063Z</time>
      </trkpt>
      <trkpt lat="47.46885" lon="6.78623">
        <ele>415</ele>
        <time>2013-11-11T08:39:44.237Z</time>
      </trkpt>
      <trkpt lat="47.46872" lon="6.78622">
        <ele>416</ele>
        <time>2013-11-11T08:39:49.144Z</time>
      </trkpt>
      <trkpt lat="47.46863" lon="6.78627">
        <ele>417</ele>
        <time>2013-11-11T08:39:54.062Z</time>
      </trkpt>
      <trkpt lat="47.46856" lon="6.78634">
        <ele>419</ele>
        <time>2013-11-11T08:39:59.110Z</time>
      </trkpt>
      <trkpt lat="47.46849" lon="6.78641">
        <ele>419</ele>
        <time>2013-11-11T08:40:04.064Z</time>
      </trkpt>
      <trkpt lat="47.4684" lon="6.78646">
        <ele>421</ele>
        <time>2013-11-11T08:40:09.143Z</time>
      </trkpt>
      <trkpt lat="47.46821" lon="6.78652">
        <ele>422</ele>
        <time>2013-11-11T08:40:14.062Z</time>
      </trkpt>
      <trkpt lat="47.46803" lon="6.78652">
        <ele>423</ele>
        <time>2013-11-11T08:40:19.136Z</time>
      </trkpt>
      <trkpt lat="47.46795" lon="6.78652">
        <ele>424</ele>
        <time>2013-11-11T08:40:24.064Z</time>
      </trkpt>
      <trkpt lat="47.46779" lon="6.78648">
        <ele>425</ele>
        <time>2013-11-11T08:40:29.144Z</time>
      </trkpt>
      <trkpt lat="47.46779" lon="6.78651">
        <ele>426</ele>
        <time>2013-11-11T08:40:34.062Z</time>
      </trkpt>
      <trkpt lat="47.46775" lon="6.78654">
        <ele>428</ele>
        <time>2013-11-11T08:40:39.142Z</time>
      </trkpt>
      <trkpt lat="47.46772" lon="6.78658">
        <ele>430</ele>
        <time>2013-11-11T08:40:44.068Z</time>
      </trkpt>
      <trkpt lat="47.46769" lon="6.78666">
        <ele>431</ele>
        <time>2013-11-11T08:40:49.048Z</time>
      </trkpt>
      <trkpt lat="47.46767" lon="6.78674">
        <ele>433</ele>
        <time>2013-11-11T08:40:54.136Z</time>
      </trkpt>
      <trkpt lat="47.46765" lon="6.78696">
        <ele>428</ele>
        <time>2013-11-11T08:41:09.047Z</time>
      </trkpt>
      <trkpt lat="47.46763" lon="6.78697">
        <ele>428</ele>
        <time>2013-11-11T08:41:14.148Z</time>
      </trkpt>
      <trkpt lat="47.4676" lon="6.78699">
        <ele>427</ele>
        <time>2013-11-11T08:41:19.063Z</time>
      </trkpt>
      <trkpt lat="47.46756" lon="6.78702">
        <ele>428</ele>
        <time>2013-11-11T08:41:24.106Z</time>
      </trkpt>
      <trkpt lat="47.46751" lon="6.78703">
        <ele>429</ele>
        <time>2013-11-11T08:41:29.049Z</time>
      </trkpt>
      <trkpt lat="47.46742" lon="6.78701">
        <ele>430</ele>
        <time>2013-11-11T08:41:39.063Z</time>
      </trkpt>
      <trkpt lat="47.46742" lon="6.78701">
        <ele>430</ele>
        <time>2013-11-11T08:41:39.063Z</time>
      </trkpt>
      <trkpt lat="47.4673" lon="6.78698">
        <ele>431</ele>
        <time>2013-11-11T08:41:49.067Z</time>
      </trkpt>
      <trkpt lat="47.46723" lon="6.78696">
        <ele>431</ele>
        <time>2013-11-11T08:41:54.142Z</time>
      </trkpt>
      <trkpt lat="47.46715" lon="6.78696">
        <ele>432</ele>
        <time>2013-11-11T08:41:59.069Z</time>
      </trkpt>
      <trkpt lat="47.46709" lon="6.78699">
        <ele>432</ele>
        <time>2013-11-11T08:42:04.142Z</time>
      </trkpt>
      <trkpt lat="47.46706" lon="6.78701">
        <ele>432</ele>
        <time>2013-11-11T08:42:09.073Z</time>
      </trkpt>
      <trkpt lat="47.46704" lon="6.78702">
        <ele>432</ele>
        <time>2013-11-11T08:42:14.132Z</time>
      </trkpt>
      <trkpt lat="47.46706" lon="6.78703">
        <ele>432</ele>
        <time>2013-11-11T08:42:19.096Z</time>
      </trkpt>
      <trkpt lat="47.46705" lon="6.78702">
        <ele>431</ele>
        <time>2013-11-11T08:42:24.138Z</time>
      </trkpt>
      <trkpt lat="47.46693" lon="6.78699">
        <ele>432</ele>
        <time>2013-11-11T08:42:29.064Z</time>
      </trkpt>
      <trkpt lat="47.4668" lon="6.78698">
        <ele>433</ele>
        <time>2013-11-11T08:42:34.147Z</time>
      </trkpt>
      <trkpt lat="47.4667" lon="6.78697">
        <ele>434</ele>
        <time>2013-11-11T08:42:39.068Z</time>
      </trkpt>
      <trkpt lat="47.46662" lon="6.78698">
        <ele>435</ele>
        <time>2013-11-11T08:42:44.143Z</time>
      </trkpt>
      <trkpt lat="47.46653" lon="6.78698">
        <ele>436</ele>
        <time>2013-11-11T08:42:49.068Z</time>
      </trkpt>
      <trkpt lat="47.4664" lon="6.78697">
        <ele>437</ele>
        <time>2013-11-11T08:42:54.130Z</time>
      </trkpt>
      <trkpt lat="47.46638" lon="6.78699">
        <ele>437</ele>
        <time>2013-11-11T08:42:59.066Z</time>
      </trkpt>
      <trkpt lat="47.4663" lon="6.78699">
        <ele>437</ele>
        <time>2013-11-11T08:43:04.069Z</time>
      </trkpt>
      <trkpt lat="47.46625" lon="6.787">
        <ele>438</ele>
        <time>2013-11-11T08:43:09.143Z</time>
      </trkpt>
      <trkpt lat="47.4662" lon="6.78699">
        <ele>439</ele>
        <time>2013-11-11T08:43:14.066Z</time>
      </trkpt>
      <trkpt lat="47.46617" lon="6.78699">
        <ele>439</ele>
        <time>2013-11-11T08:43:19.143Z</time>
      </trkpt>
      <trkpt lat="47.46619" lon="6.78701">
        <ele>439</ele>
        <time>2013-11-11T08:43:24.072Z</time>
      </trkpt>
      <trkpt lat="47.46618" lon="6.787">
        <ele>439</ele>
        <time>2013-11-11T08:43:29.143Z</time>
      </trkpt>
      <trkpt lat="47.46611" lon="6.78699">
        <ele>440</ele>
        <time>2013-11-11T08:43:34.070Z</time>
      </trkpt>
      <trkpt lat="47.46609" lon="6.78698">
        <ele>441</ele>
        <time>2013-11-11T08:43:39.108Z</time>
      </trkpt>
      <trkpt lat="47.46602" lon="6.78696">
        <ele>441</ele>
        <time>2013-11-11T08:43:44.072Z</time>
      </trkpt>
      <trkpt lat="47.46597" lon="6.78696">
        <ele>442</ele>
        <time>2013-11-11T08:43:49.143Z</time>
      </trkpt>
      <trkpt lat="47.46588" lon="6.78696">
        <ele>443</ele>
        <time>2013-11-11T08:43:54.134Z</time>
      </trkpt>
      <trkpt lat="47.46579" lon="6.78695">
        <ele>442</ele>
        <time>2013-11-11T08:43:59.066Z</time>
      </trkpt>
      <trkpt lat="47.46575" lon="6.78698">
        <ele>441</ele>
        <time>2013-11-11T08:44:04.141Z</time>
      </trkpt>
      <trkpt lat="47.46569" lon="6.78699">
        <ele>441</ele>
        <time>2013-11-11T08:44:09.065Z</time>
      </trkpt>
      <trkpt lat="47.46565" lon="6.78699">
        <ele>441</ele>
        <time>2013-11-11T08:44:14.144Z</time>
      </trkpt>
      <trkpt lat="47.46563" lon="6.78698">
        <ele>441</ele>
        <time>2013-11-11T08:44:19.064Z</time>
      </trkpt>
      <trkpt lat="47.46558" lon="6.78695">
        <ele>442</ele>
        <time>2013-11-11T08:44:24.146Z</time>
      </trkpt>
      <trkpt lat="47.46556" lon="6.78689">
        <ele>443</ele>
        <time>2013-11-11T08:44:29.062Z</time>
      </trkpt>
      <trkpt lat="47.46556" lon="6.78683">
        <ele>444</ele>
        <time>2013-11-11T08:44:34.129Z</time>
      </trkpt>
      <trkpt lat="47.46555" lon="6.78671">
        <ele>444</ele>
        <time>2013-11-11T08:44:39.074Z</time>
      </trkpt>
      <trkpt lat="47.46554" lon="6.78642">
        <ele>445</ele>
        <time>2013-11-11T08:44:49.067Z</time>
      </trkpt>
      <trkpt lat="47.46554" lon="6.78629">
        <ele>445</ele>
        <time>2013-11-11T08:44:54.138Z</time>
      </trkpt>
      <trkpt lat="47.46554" lon="6.78617">
        <ele>444</ele>
        <time>2013-11-11T08:44:59.066Z</time>
      </trkpt>
      <trkpt lat="47.46554" lon="6.78605">
        <ele>445</ele>
        <time>2013-11-11T08:45:04.146Z</time>
      </trkpt>
      <trkpt lat="47.46553" lon="6.78593">
        <ele>445</ele>
        <time>2013-11-11T08:45:09.069Z</time>
      </trkpt>
      <trkpt lat="47.46552" lon="6.78578">
        <ele>444</ele>
        <time>2013-11-11T08:45:14.121Z</time>
      </trkpt>
      <trkpt lat="47.46551" lon="6.78564">
        <ele>444</ele>
        <time>2013-11-11T08:45:19.068Z</time>
      </trkpt>
      <trkpt lat="47.46552" lon="6.78547">
        <ele>445</ele>
        <time>2013-11-11T08:45:24.144Z</time>
      </trkpt>
      <trkpt lat="47.46554" lon="6.7853">
        <ele>445</ele>
        <time>2013-11-11T08:45:29.067Z</time>
      </trkpt>
      <trkpt lat="47.46555" lon="6.78516">
        <ele>444</ele>
        <time>2013-11-11T08:45:34.143Z</time>
      </trkpt>
      <trkpt lat="47.46555" lon="6.78501">
        <ele>443</ele>
        <time>2013-11-11T08:45:39.069Z</time>
      </trkpt>
      <trkpt lat="47.46557" lon="6.78487">
        <ele>443</ele>
        <time>2013-11-11T08:45:44.141Z</time>
      </trkpt>
      <trkpt lat="47.46559" lon="6.78469">
        <ele>442</ele>
        <time>2013-11-11T08:45:49.065Z</time>
      </trkpt>
      <trkpt lat="47.46563" lon="6.78444">
        <ele>439</ele>
        <time>2013-11-11T08:45:54.110Z</time>
      </trkpt>
      <trkpt lat="47.4656" lon="6.78418">
        <ele>437</ele>
        <time>2013-11-11T08:45:59.064Z</time>
      </trkpt>
      <trkpt lat="47.46554" lon="6.78395">
        <ele>436</ele>
        <time>2013-11-11T08:46:04.128Z</time>
      </trkpt>
      <trkpt lat="47.46551" lon="6.7839">
        <ele>436</ele>
        <time>2013-11-11T08:46:09.058Z</time>
      </trkpt>
      <trkpt lat="47.4654" lon="6.78386">
        <ele>437</ele>
        <time>2013-11-11T08:46:14.142Z</time>
      </trkpt>
      <trkpt lat="47.46535" lon="6.78381">
        <ele>438</ele>
        <time>2013-11-11T08:46:19.063Z</time>
      </trkpt>
      <trkpt lat="47.4653" lon="6.78377">
        <ele>438</ele>
        <time>2013-11-11T08:46:24.147Z</time>
      </trkpt>
      <trkpt lat="47.46518" lon="6.78368">
        <ele>439</ele>
        <time>2013-11-11T08:46:29.066Z</time>
      </trkpt>
      <trkpt lat="47.46511" lon="6.7836">
        <ele>439</ele>
        <time>2013-11-11T08:46:34.148Z</time>
      </trkpt>
      <trkpt lat="47.4651" lon="6.78355">
        <ele>441</ele>
        <time>2013-11-11T08:46:39.063Z</time>
      </trkpt>
      <trkpt lat="47.46507" lon="6.78346">
        <ele>440</ele>
        <time>2013-11-11T08:46:44.148Z</time>
      </trkpt>
      <trkpt lat="47.46497" lon="6.78337">
        <ele>441</ele>
        <time>2013-11-11T08:46:49.066Z</time>
      </trkpt>
      <trkpt lat="47.46487" lon="6.78328">
        <ele>442</ele>
        <time>2013-11-11T08:46:54.101Z</time>
      </trkpt>
      <trkpt lat="47.46476" lon="6.78327">
        <ele>440</ele>
        <time>2013-11-11T08:46:59.064Z</time>
      </trkpt>
      <trkpt lat="47.46475" lon="6.78333">
        <ele>441</ele>
        <time>2013-11-11T08:47:04.064Z</time>
      </trkpt>
      <trkpt lat="47.46471" lon="6.78337">
        <ele>440</ele>
        <time>2013-11-11T08:47:09.131Z</time>
      </trkpt>
      <trkpt lat="47.46463" lon="6.78342">
        <ele>441</ele>
        <time>2013-11-11T08:47:14.063Z</time>
      </trkpt>
      <trkpt lat="47.46457" lon="6.78346">
        <ele>441</ele>
        <time>2013-11-11T08:47:19.142Z</time>
      </trkpt>
      <trkpt lat="47.46452" lon="6.78351">
        <ele>442</ele>
        <time>2013-11-11T08:47:24.063Z</time>
      </trkpt>
      <trkpt lat="47.46447" lon="6.78356">
        <ele>443</ele>
        <time>2013-11-11T08:47:29.143Z</time>
      </trkpt>
      <trkpt lat="47.46439" lon="6.78361">
        <ele>443</ele>
        <time>2013-11-11T08:47:34.068Z</time>
      </trkpt>
      <trkpt lat="47.46433" lon="6.78367">
        <ele>444</ele>
        <time>2013-11-11T08:47:39.145Z</time>
      </trkpt>
      <trkpt lat="47.46428" lon="6.7837">
        <ele>445</ele>
        <time>2013-11-11T08:47:44.070Z</time>
      </trkpt>
      <trkpt lat="47.46428" lon="6.78375">
        <ele>448</ele>
        <time>2013-11-11T08:47:49.122Z</time>
      </trkpt>
      <trkpt lat="47.46426" lon="6.78381">
        <ele>450</ele>
        <time>2013-11-11T08:47:54.077Z</time>
      </trkpt>
      <trkpt lat="47.46421" lon="6.78388">
        <ele>451</ele>
        <time>2013-11-11T08:47:59.109Z</time>
      </trkpt>
      <trkpt lat="47.46421" lon="6.78396">
        <ele>453</ele>
        <time>2013-11-11T08:48:04.074Z</time>
      </trkpt>
      <trkpt lat="47.46423" lon="6.78404">
        <ele>455</ele>
        <time>2013-11-11T08:48:09.071Z</time>
      </trkpt>
      <trkpt lat="47.46427" lon="6.78409">
        <ele>458</ele>
        <time>2013-11-11T08:48:14.144Z</time>
      </trkpt>
      <trkpt lat="47.46428" lon="6.78415">
        <ele>458</ele>
        <time>2013-11-11T08:48:19.069Z</time>
      </trkpt>
      <trkpt lat="47.46429" lon="6.78422">
        <ele>458</ele>
        <time>2013-11-11T08:48:24.121Z</time>
      </trkpt>
      <trkpt lat="47.46432" lon="6.78426">
        <ele>458</ele>
        <time>2013-11-11T08:48:29.064Z</time>
      </trkpt>
      <trkpt lat="47.46429" lon="6.78427">
        <ele>459</ele>
        <time>2013-11-11T08:48:34.145Z</time>
      </trkpt>
      <trkpt lat="47.46427" lon="6.78427">
        <ele>458</ele>
        <time>2013-11-11T08:48:39.069Z</time>
      </trkpt>
      <trkpt lat="47.46424" lon="6.78425">
        <ele>459</ele>
        <time>2013-11-11T08:48:44.143Z</time>
      </trkpt>
      <trkpt lat="47.46421" lon="6.78425">
        <ele>460</ele>
        <time>2013-11-11T08:48:49.052Z</time>
      </trkpt>
      <trkpt lat="47.46411" lon="6.78435">
        <ele>459</ele>
        <time>2013-11-11T08:48:59.062Z</time>
      </trkpt>
      <trkpt lat="47.46411" lon="6.78435">
        <ele>459</ele>
        <time>2013-11-11T08:48:59.062Z</time>
      </trkpt>
      <trkpt lat="47.46406" lon="6.78451">
        <ele>458</ele>
        <time>2013-11-11T08:49:09.068Z</time>
      </trkpt>
      <trkpt lat="47.46405" lon="6.78459">
        <ele>458</ele>
        <time>2013-11-11T08:49:14.144Z</time>
      </trkpt>
      <trkpt lat="47.46404" lon="6.78466">
        <ele>458</ele>
        <time>2013-11-11T08:49:19.071Z</time>
      </trkpt>
      <trkpt lat="47.46407" lon="6.78475">
        <ele>458</ele>
        <time>2013-11-11T08:49:24.130Z</time>
      </trkpt>
      <trkpt lat="47.46407" lon="6.78484">
        <ele>459</ele>
        <time>2013-11-11T08:49:29.070Z</time>
      </trkpt>
      <trkpt lat="47.46401" lon="6.78494">
        <ele>460</ele>
        <time>2013-11-11T08:49:34.145Z</time>
      </trkpt>
      <trkpt lat="47.464" lon="6.78503">
        <ele>462</ele>
        <time>2013-11-11T08:49:39.071Z</time>
      </trkpt>
      <trkpt lat="47.46396" lon="6.7851">
        <ele>464</ele>
        <time>2013-11-11T08:49:44.145Z</time>
      </trkpt>
      <trkpt lat="47.46395" lon="6.78519">
        <ele>466</ele>
        <time>2013-11-11T08:49:49.070Z</time>
      </trkpt>
      <trkpt lat="47.46396" lon="6.7853">
        <ele>467</ele>
        <time>2013-11-11T08:49:54.145Z</time>
      </trkpt>
      <trkpt lat="47.46399" lon="6.7854">
        <ele>468</ele>
        <time>2013-11-11T08:49:59.075Z</time>
      </trkpt>
      <trkpt lat="47.46402" lon="6.78549">
        <ele>469</ele>
        <time>2013-11-11T08:50:04.122Z</time>
      </trkpt>
      <trkpt lat="47.46401" lon="6.78558">
        <ele>470</ele>
        <time>2013-11-11T08:50:09.077Z</time>
      </trkpt>
      <trkpt lat="47.46403" lon="6.78569">
        <ele>471</ele>
        <time>2013-11-11T08:50:14.145Z</time>
      </trkpt>
      <trkpt lat="47.46404" lon="6.78578">
        <ele>471</ele>
        <time>2013-11-11T08:50:19.071Z</time>
      </trkpt>
      <trkpt lat="47.46406" lon="6.78588">
        <ele>472</ele>
        <time>2013-11-11T08:50:24.144Z</time>
      </trkpt>
      <trkpt lat="47.4641" lon="6.78598">
        <ele>473</ele>
        <time>2013-11-11T08:50:29.070Z</time>
      </trkpt>
      <trkpt lat="47.46416" lon="6.78609">
        <ele>473</ele>
        <time>2013-11-11T08:50:34.145Z</time>
      </trkpt>
      <trkpt lat="47.46419" lon="6.7862">
        <ele>474</ele>
        <time>2013-11-11T08:50:39.070Z</time>
      </trkpt>
      <trkpt lat="47.46422" lon="6.78633">
        <ele>474</ele>
        <time>2013-11-11T08:50:44.114Z</time>
      </trkpt>
      <trkpt lat="47.46422" lon="6.78645">
        <ele>473</ele>
        <time>2013-11-11T08:50:49.066Z</time>
      </trkpt>
      <trkpt lat="47.46426" lon="6.78657">
        <ele>471</ele>
        <time>2013-11-11T08:50:54.144Z</time>
      </trkpt>
      <trkpt lat="47.46428" lon="6.7867">
        <ele>471</ele>
        <time>2013-11-11T08:50:59.072Z</time>
      </trkpt>
      <trkpt lat="47.46429" lon="6.78681">
        <ele>471</ele>
        <time>2013-11-11T08:51:04.144Z</time>
      </trkpt>
      <trkpt lat="47.4643" lon="6.78692">
        <ele>472</ele>
        <time>2013-11-11T08:51:09.068Z</time>
      </trkpt>
      <trkpt lat="47.46429" lon="6.787">
        <ele>471</ele>
        <time>2013-11-11T08:51:14.140Z</time>
      </trkpt>
      <trkpt lat="47.46427" lon="6.78706">
        <ele>471</ele>
        <time>2013-11-11T08:51:19.068Z</time>
      </trkpt>
      <trkpt lat="47.46431" lon="6.78713">
        <ele>472</ele>
        <time>2013-11-11T08:51:24.152Z</time>
      </trkpt>
      <trkpt lat="47.4643" lon="6.78718">
        <ele>472</ele>
        <time>2013-11-11T08:51:29.072Z</time>
      </trkpt>
      <trkpt lat="47.4642" lon="6.78721">
        <ele>473</ele>
        <time>2013-11-11T08:51:34.146Z</time>
      </trkpt>
      <trkpt lat="47.46411" lon="6.78723">
        <ele>473</ele>
        <time>2013-11-11T08:51:39.071Z</time>
      </trkpt>
      <trkpt lat="47.46401" lon="6.78728">
        <ele>473</ele>
        <time>2013-11-11T08:51:44.143Z</time>
      </trkpt>
      <trkpt lat="47.46387" lon="6.78735">
        <ele>473</ele>
        <time>2013-11-11T08:51:49.073Z</time>
      </trkpt>
      <trkpt lat="47.46356" lon="6.78738">
        <ele>473</ele>
        <time>2013-11-11T08:51:54.145Z</time>
      </trkpt>
      <trkpt lat="47.46336" lon="6.78741">
        <ele>473</ele>
        <time>2013-11-11T08:51:59.071Z</time>
      </trkpt>
      <trkpt lat="47.46327" lon="6.78746">
        <ele>474</ele>
        <time>2013-11-11T08:52:04.143Z</time>
      </trkpt>
      <trkpt lat="47.46319" lon="6.78754">
        <ele>474</ele>
        <time>2013-11-11T08:52:09.072Z</time>
      </trkpt>
      <trkpt lat="47.46314" lon="6.78762">
        <ele>473</ele>
        <time>2013-11-11T08:52:14.145Z</time>
      </trkpt>
      <trkpt lat="47.46311" lon="6.78767">
        <ele>473</ele>
        <time>2013-11-11T08:52:19.071Z</time>
      </trkpt>
      <trkpt lat="47.46304" lon="6.78772">
        <ele>476</ele>
        <time>2013-11-11T08:52:24.103Z</time>
      </trkpt>
      <trkpt lat="47.46301" lon="6.78778">
        <ele>477</ele>
        <time>2013-11-11T08:52:29.066Z</time>
      </trkpt>
      <trkpt lat="47.46299" lon="6.78787">
        <ele>478</ele>
        <time>2013-11-11T08:52:34.145Z</time>
      </trkpt>
      <trkpt lat="47.46294" lon="6.78792">
        <ele>480</ele>
        <time>2013-11-11T08:52:39.069Z</time>
      </trkpt>
      <trkpt lat="47.46291" lon="6.78799">
        <ele>481</ele>
        <time>2013-11-11T08:52:44.147Z</time>
      </trkpt>
      <trkpt lat="47.46289" lon="6.78806">
        <ele>482</ele>
        <time>2013-11-11T08:52:49.069Z</time>
      </trkpt>
      <trkpt lat="47.46282" lon="6.7881">
        <ele>482</ele>
        <time>2013-11-11T08:52:54.141Z</time>
      </trkpt>
      <trkpt lat="47.46275" lon="6.78815">
        <ele>482</ele>
        <time>2013-11-11T08:52:59.071Z</time>
      </trkpt>
      <trkpt lat="47.46264" lon="6.78809">
        <ele>483</ele>
        <time>2013-11-11T08:53:04.144Z</time>
      </trkpt>
      <trkpt lat="47.46245" lon="6.78795">
        <ele>483</ele>
        <time>2013-11-11T08:53:09.149Z</time>
      </trkpt>
      <trkpt lat="47.46227" lon="6.7878">
        <ele>482</ele>
        <time>2013-11-11T08:53:14.067Z</time>
      </trkpt>
      <trkpt lat="47.46194" lon="6.78748">
        <ele>480</ele>
        <time>2013-11-11T08:53:24.068Z</time>
      </trkpt>
      <trkpt lat="47.46172" lon="6.78724">
        <ele>479</ele>
        <time>2013-11-11T08:53:29.149Z</time>
      </trkpt>
      <trkpt lat="47.46152" lon="6.78702">
        <ele>478</ele>
        <time>2013-11-11T08:53:34.068Z</time>
      </trkpt>
      <trkpt lat="47.46128" lon="6.78676">
        <ele>478</ele>
        <time>2013-11-11T08:53:39.104Z</time>
      </trkpt>
      <trkpt lat="47.46114" lon="6.78654">
        <ele>480</ele>
        <time>2013-11-11T08:53:44.100Z</time>
      </trkpt>
      <trkpt lat="47.461" lon="6.78633">
        <ele>481</ele>
        <time>2013-11-11T08:53:49.142Z</time>
      </trkpt>
      <trkpt lat="47.46087" lon="6.78611">
        <ele>481</ele>
        <time>2013-11-11T08:53:54.070Z</time>
      </trkpt>
      <trkpt lat="47.4607" lon="6.78589">
        <ele>480</ele>
        <time>2013-11-11T08:53:59.143Z</time>
      </trkpt>
      <trkpt lat="47.46041" lon="6.7857">
        <ele>480</ele>
        <time>2013-11-11T08:54:04.081Z</time>
      </trkpt>
      <trkpt lat="47.46031" lon="6.7855">
        <ele>481</ele>
        <time>2013-11-11T08:54:09.136Z</time>
      </trkpt>
      <trkpt lat="47.46025" lon="6.78523">
        <ele>481</ele>
        <time>2013-11-11T08:54:14.064Z</time>
      </trkpt>
      <trkpt lat="47.46016" lon="6.78499">
        <ele>481</ele>
        <time>2013-11-11T08:54:19.143Z</time>
      </trkpt>
      <trkpt lat="47.46008" lon="6.78487">
        <ele>480</ele>
        <time>2013-11-11T08:54:24.129Z</time>
      </trkpt>
      <trkpt lat="47.46" lon="6.78482">
        <ele>477</ele>
        <time>2013-11-11T08:54:29.068Z</time>
      </trkpt>
      <trkpt lat="47.4599" lon="6.78463">
        <ele>476</ele>
        <time>2013-11-11T08:54:34.138Z</time>
      </trkpt>
      <trkpt lat="47.45978" lon="6.78441">
        <ele>476</ele>
        <time>2013-11-11T08:54:39.068Z</time>
      </trkpt>
      <trkpt lat="47.45975" lon="6.7843">
        <ele>476</ele>
        <time>2013-11-11T08:54:44.144Z</time>
      </trkpt>
      <trkpt lat="47.4597" lon="6.78427">
        <ele>474</ele>
        <time>2013-11-11T08:54:49.068Z</time>
      </trkpt>
      <trkpt lat="47.4597" lon="6.78427">
        <ele>474</ele>
        <time>2013-11-11T08:54:54.143Z</time>
      </trkpt>
      <trkpt lat="47.45968" lon="6.78426">
        <ele>474</ele>
        <time>2013-11-11T08:54:59.063Z</time>
      </trkpt>
      <trkpt lat="47.45961" lon="6.78423">
        <ele>471</ele>
        <time>2013-11-11T08:55:04.159Z</time>
      </trkpt>
      <trkpt lat="47.4596" lon="6.78431">
        <ele>468</ele>
        <time>2013-11-11T08:55:09.063Z</time>
      </trkpt>
      <trkpt lat="47.45957" lon="6.78445">
        <ele>466</ele>
        <time>2013-11-11T08:55:14.148Z</time>
      </trkpt>
      <trkpt lat="47.45957" lon="6.78483">
        <ele>463</ele>
        <time>2013-11-11T08:55:19.064Z</time>
      </trkpt>
      <trkpt lat="47.45946" lon="6.7852">
        <ele>461</ele>
        <time>2013-11-11T08:55:24.149Z</time>
      </trkpt>
      <trkpt lat="47.45917" lon="6.78522">
        <ele>454</ele>
        <time>2013-11-11T08:55:29.122Z</time>
      </trkpt>
      <trkpt lat="47.45879" lon="6.78491">
        <ele>447</ele>
        <time>2013-11-11T08:55:34.069Z</time>
      </trkpt>
      <trkpt lat="47.45839" lon="6.78456">
        <ele>443</ele>
        <time>2013-11-11T08:55:39.143Z</time>
      </trkpt>
      <trkpt lat="47.45813" lon="6.78432">
        <ele>440</ele>
        <time>2013-11-11T08:55:44.064Z</time>
      </trkpt>
      <trkpt lat="47.4581" lon="6.78456">
        <ele>437</ele>
        <time>2013-11-11T08:55:49.144Z</time>
      </trkpt>
      <trkpt lat="47.45814" lon="6.7848">
        <ele>435</ele>
        <time>2013-11-11T08:55:54.068Z</time>
      </trkpt>
      <trkpt lat="47.45821" lon="6.78503">
        <ele>435</ele>
        <time>2013-11-11T08:55:59.144Z</time>
      </trkpt>
      <trkpt lat="47.45828" lon="6.78526">
        <ele>434</ele>
        <time>2013-11-11T08:56:04.056Z</time>
      </trkpt>
      <trkpt lat="47.45837" lon="6.78549">
        <ele>433</ele>
        <time>2013-11-11T08:56:09.144Z</time>
      </trkpt>
      <trkpt lat="47.45847" lon="6.78571">
        <ele>433</ele>
        <time>2013-11-11T08:56:14.071Z</time>
      </trkpt>
      <trkpt lat="47.45864" lon="6.78615">
        <ele>433</ele>
        <time>2013-11-11T08:56:24.065Z</time>
      </trkpt>
      <trkpt lat="47.45871" lon="6.78634">
        <ele>432</ele>
        <time>2013-11-11T08:56:29.143Z</time>
      </trkpt>
      <trkpt lat="47.4588" lon="6.78658">
        <ele>431</ele>
        <time>2013-11-11T08:56:34.066Z</time>
      </trkpt>
      <trkpt lat="47.45886" lon="6.7868">
        <ele>431</ele>
        <time>2013-11-11T08:56:39.143Z</time>
      </trkpt>
      <trkpt lat="47.45893" lon="6.78699">
        <ele>432</ele>
        <time>2013-11-11T08:56:44.070Z</time>
      </trkpt>
      <trkpt lat="47.459" lon="6.7872">
        <ele>432</ele>
        <time>2013-11-11T08:56:49.134Z</time>
      </trkpt>
      <trkpt lat="47.45906" lon="6.7874">
        <ele>432</ele>
        <time>2013-11-11T08:56:54.066Z</time>
      </trkpt>
      <trkpt lat="47.45913" lon="6.78761">
        <ele>433</ele>
        <time>2013-11-11T08:56:59.144Z</time>
      </trkpt>
      <trkpt lat="47.45919" lon="6.78779">
        <ele>434</ele>
        <time>2013-11-11T08:57:04.068Z</time>
      </trkpt>
      <trkpt lat="47.45923" lon="6.78799">
        <ele>434</ele>
        <time>2013-11-11T08:57:09.144Z</time>
      </trkpt>
      <trkpt lat="47.45931" lon="6.78821">
        <ele>434</ele>
        <time>2013-11-11T08:57:14.073Z</time>
      </trkpt>
      <trkpt lat="47.45937" lon="6.78841">
        <ele>435</ele>
        <time>2013-11-11T08:57:19.144Z</time>
      </trkpt>
      <trkpt lat="47.45946" lon="6.78863">
        <ele>435</ele>
        <time>2013-11-11T08:57:24.068Z</time>
      </trkpt>
      <trkpt lat="47.45952" lon="6.78883">
        <ele>435</ele>
        <time>2013-11-11T08:57:29.068Z</time>
      </trkpt>
      <trkpt lat="47.4596" lon="6.78903">
        <ele>436</ele>
        <time>2013-11-11T08:57:34.137Z</time>
      </trkpt>
      <trkpt lat="47.45965" lon="6.78922">
        <ele>436</ele>
        <time>2013-11-11T08:57:39.067Z</time>
      </trkpt>
      <trkpt lat="47.45972" lon="6.78942">
        <ele>436</ele>
        <time>2013-11-11T08:57:44.150Z</time>
      </trkpt>
      <trkpt lat="47.45979" lon="6.78962">
        <ele>437</ele>
        <time>2013-11-11T08:57:49.072Z</time>
      </trkpt>
      <trkpt lat="47.45986" lon="6.7898">
        <ele>437</ele>
        <time>2013-11-11T08:57:54.146Z</time>
      </trkpt>
      <trkpt lat="47.45993" lon="6.78999">
        <ele>437</ele>
        <time>2013-11-11T08:57:59.071Z</time>
      </trkpt>
      <trkpt lat="47.45998" lon="6.79016">
        <ele>439</ele>
        <time>2013-11-11T08:58:04.144Z</time>
      </trkpt>
      <trkpt lat="47.46003" lon="6.79033">
        <ele>440</ele>
        <time>2013-11-11T08:58:09.068Z</time>
      </trkpt>
      <trkpt lat="47.46012" lon="6.79049">
        <ele>442</ele>
        <time>2013-11-11T08:58:14.144Z</time>
      </trkpt>
      <trkpt lat="47.46018" lon="6.79066">
        <ele>442</ele>
        <time>2013-11-11T08:58:19.068Z</time>
      </trkpt>
      <trkpt lat="47.46025" lon="6.79084">
        <ele>444</ele>
        <time>2013-11-11T08:58:24.144Z</time>
      </trkpt>
      <trkpt lat="47.4603" lon="6.79101">
        <ele>444</ele>
        <time>2013-11-11T08:58:29.068Z</time>
      </trkpt>
      <trkpt lat="47.46035" lon="6.79119">
        <ele>444</ele>
        <time>2013-11-11T08:58:34.112Z</time>
      </trkpt>
      <trkpt lat="47.46032" lon="6.79134">
        <ele>444</ele>
        <time>2013-11-11T08:58:39.068Z</time>
      </trkpt>
      <trkpt lat="47.46038" lon="6.79156">
        <ele>445</ele>
        <time>2013-11-11T08:58:44.143Z</time>
      </trkpt>
      <trkpt lat="47.46052" lon="6.79173">
        <ele>447</ele>
        <time>2013-11-11T08:58:49.068Z</time>
      </trkpt>
      <trkpt lat="47.46057" lon="6.79196">
        <ele>448</ele>
        <time>2013-11-11T08:58:54.145Z</time>
      </trkpt>
      <trkpt lat="47.4606" lon="6.79217">
        <ele>449</ele>
        <time>2013-11-11T08:58:59.070Z</time>
      </trkpt>
      <trkpt lat="47.46058" lon="6.79241">
        <ele>449</ele>
        <time>2013-11-11T08:59:04.145Z</time>
      </trkpt>
      <trkpt lat="47.4606" lon="6.79264">
        <ele>448</ele>
        <time>2013-11-11T08:59:09.071Z</time>
      </trkpt>
      <trkpt lat="47.46063" lon="6.79289">
        <ele>448</ele>
        <time>2013-11-11T08:59:14.144Z</time>
      </trkpt>
      <trkpt lat="47.46066" lon="6.79314">
        <ele>448</ele>
        <time>2013-11-11T08:59:19.070Z</time>
      </trkpt>
      <trkpt lat="47.46069" lon="6.7934">
        <ele>448</ele>
        <time>2013-11-11T08:59:24.147Z</time>
      </trkpt>
      <trkpt lat="47.4607" lon="6.79366">
        <ele>448</ele>
        <time>2013-11-11T08:59:29.079Z</time>
      </trkpt>
      <trkpt lat="47.46071" lon="6.79392">
        <ele>448</ele>
        <time>2013-11-11T08:59:34.147Z</time>
      </trkpt>
      <trkpt lat="47.46068" lon="6.79417">
        <ele>449</ele>
        <time>2013-11-11T08:59:39.070Z</time>
      </trkpt>
      <trkpt lat="47.46066" lon="6.79442">
        <ele>450</ele>
        <time>2013-11-11T08:59:44.157Z</time>
      </trkpt>
      <trkpt lat="47.46063" lon="6.79468">
        <ele>451</ele>
        <time>2013-11-11T08:59:49.070Z</time>
      </trkpt>
      <trkpt lat="47.46055" lon="6.79496">
        <ele>451</ele>
        <time>2013-11-11T08:59:54.103Z</time>
      </trkpt>
      <trkpt lat="47.46048" lon="6.79527">
        <ele>451</ele>
        <time>2013-11-11T08:59:59.055Z</time>
      </trkpt>
      <trkpt lat="47.46045" lon="6.79585">
        <ele>450</ele>
        <time>2013-11-11T09:00:09.065Z</time>
      </trkpt>
      <trkpt lat="47.46045" lon="6.79585">
        <ele>450</ele>
        <time>2013-11-11T09:00:09.065Z</time>
      </trkpt>
      <trkpt lat="47.46031" lon="6.79638">
        <ele>450</ele>
        <time>2013-11-11T09:00:19.070Z</time>
      </trkpt>
      <trkpt lat="47.46034" lon="6.79669">
        <ele>450</ele>
        <time>2013-11-11T09:00:24.145Z</time>
      </trkpt>
      <trkpt lat="47.46039" lon="6.79694">
        <ele>450</ele>
        <time>2013-11-11T09:00:29.064Z</time>
      </trkpt>
      <trkpt lat="47.46042" lon="6.79718">
        <ele>450</ele>
        <time>2013-11-11T09:00:34.143Z</time>
      </trkpt>
      <trkpt lat="47.46047" lon="6.79743">
        <ele>450</ele>
        <time>2013-11-11T09:00:39.052Z</time>
      </trkpt>
      <trkpt lat="47.46047" lon="6.79773">
        <ele>450</ele>
        <time>2013-11-11T09:00:44.146Z</time>
      </trkpt>
      <trkpt lat="47.4603" lon="6.79788">
        <ele>450</ele>
        <time>2013-11-11T09:00:49.060Z</time>
      </trkpt>
      <trkpt lat="47.46016" lon="6.798">
        <ele>450</ele>
        <time>2013-11-11T09:00:54.141Z</time>
      </trkpt>
      <trkpt lat="47.45994" lon="6.79814">
        <ele>450</ele>
        <time>2013-11-11T09:00:59.059Z</time>
      </trkpt>
      <trkpt lat="47.45987" lon="6.79829">
        <ele>450</ele>
        <time>2013-11-11T09:01:04.141Z</time>
      </trkpt>
      <trkpt lat="47.4598" lon="6.79847">
        <ele>450</ele>
        <time>2013-11-11T09:01:09.060Z</time>
      </trkpt>
      <trkpt lat="47.45973" lon="6.79862">
        <ele>451</ele>
        <time>2013-11-11T09:01:14.113Z</time>
      </trkpt>
      <trkpt lat="47.45978" lon="6.79883">
        <ele>452</ele>
        <time>2013-11-11T09:01:19.061Z</time>
      </trkpt>
      <trkpt lat="47.45988" lon="6.79906">
        <ele>454</ele>
        <time>2013-11-11T09:01:24.143Z</time>
      </trkpt>
      <trkpt lat="47.4599" lon="6.79924">
        <ele>455</ele>
        <time>2013-11-11T09:01:29.060Z</time>
      </trkpt>
      <trkpt lat="47.45996" lon="6.79944">
        <ele>456</ele>
        <time>2013-11-11T09:01:34.144Z</time>
      </trkpt>
      <trkpt lat="47.45999" lon="6.79963">
        <ele>455</ele>
        <time>2013-11-11T09:01:39.061Z</time>
      </trkpt>
      <trkpt lat="47.45998" lon="6.79976">
        <ele>456</ele>
        <time>2013-11-11T09:01:44.373Z</time>
      </trkpt>
      <trkpt lat="47.45996" lon="6.79991">
        <ele>455</ele>
        <time>2013-11-11T09:01:49.061Z</time>
      </trkpt>
      <trkpt lat="47.45995" lon="6.80003">
        <ele>457</ele>
        <time>2013-11-11T09:01:54.144Z</time>
      </trkpt>
      <trkpt lat="47.46001" lon="6.80021">
        <ele>457</ele>
        <time>2013-11-11T09:01:59.069Z</time>
      </trkpt>
      <trkpt lat="47.45992" lon="6.80035">
        <ele>458</ele>
        <time>2013-11-11T09:02:04.143Z</time>
      </trkpt>
      <trkpt lat="47.45993" lon="6.80052">
        <ele>458</ele>
        <time>2013-11-11T09:02:09.073Z</time>
      </trkpt>
      <trkpt lat="47.45994" lon="6.8007">
        <ele>460</ele>
        <time>2013-11-11T09:02:14.143Z</time>
      </trkpt>
      <trkpt lat="47.45996" lon="6.80088">
        <ele>461</ele>
        <time>2013-11-11T09:02:19.064Z</time>
      </trkpt>
      <trkpt lat="47.46001" lon="6.80104">
        <ele>463</ele>
        <time>2013-11-11T09:02:24.142Z</time>
      </trkpt>
      <trkpt lat="47.46001" lon="6.8012">
        <ele>464</ele>
        <time>2013-11-11T09:02:29.064Z</time>
      </trkpt>
      <trkpt lat="47.46003" lon="6.80138">
        <ele>465</ele>
        <time>2013-11-11T09:02:34.122Z</time>
      </trkpt>
      <trkpt lat="47.4601" lon="6.80159">
        <ele>466</ele>
        <time>2013-11-11T09:02:39.065Z</time>
      </trkpt>
      <trkpt lat="47.46012" lon="6.80183">
        <ele>466</ele>
        <time>2013-11-11T09:02:44.146Z</time>
      </trkpt>
      <trkpt lat="47.46017" lon="6.80206">
        <ele>465</ele>
        <time>2013-11-11T09:02:49.061Z</time>
      </trkpt>
      <trkpt lat="47.4602" lon="6.80229">
        <ele>466</ele>
        <time>2013-11-11T09:02:54.143Z</time>
      </trkpt>
      <trkpt lat="47.46021" lon="6.80253">
        <ele>466</ele>
        <time>2013-11-11T09:02:59.066Z</time>
      </trkpt>
      <trkpt lat="47.46024" lon="6.80278">
        <ele>465</ele>
        <time>2013-11-11T09:03:04.141Z</time>
      </trkpt>
      <trkpt lat="47.4603" lon="6.80296">
        <ele>465</ele>
        <time>2013-11-11T09:03:09.067Z</time>
      </trkpt>
      <trkpt lat="47.46031" lon="6.80311">
        <ele>465</ele>
        <time>2013-11-11T09:03:14.142Z</time>
      </trkpt>
      <trkpt lat="47.46024" lon="6.80328">
        <ele>464</ele>
        <time>2013-11-11T09:03:19.061Z</time>
      </trkpt>
      <trkpt lat="47.46025" lon="6.80344">
        <ele>463</ele>
        <time>2013-11-11T09:03:24.142Z</time>
      </trkpt>
      <trkpt lat="47.46034" lon="6.80362">
        <ele>462</ele>
        <time>2013-11-11T09:03:29.063Z</time>
      </trkpt>
      <trkpt lat="47.46047" lon="6.80385">
        <ele>461</ele>
        <time>2013-11-11T09:03:34.143Z</time>
      </trkpt>
      <trkpt lat="47.46054" lon="6.80412">
        <ele>461</ele>
        <time>2013-11-11T09:03:39.064Z</time>
      </trkpt>
      <trkpt lat="47.46045" lon="6.80438">
        <ele>461</ele>
        <time>2013-11-11T09:03:44.122Z</time>
      </trkpt>
      <trkpt lat="47.4604" lon="6.8047">
        <ele>461</ele>
        <time>2013-11-11T09:03:49.058Z</time>
      </trkpt>
      <trkpt lat="47.46034" lon="6.80492">
        <ele>462</ele>
        <time>2013-11-11T09:03:54.065Z</time>
      </trkpt>
      <trkpt lat="47.4604" lon="6.80518">
        <ele>464</ele>
        <time>2013-11-11T09:03:59.136Z</time>
      </trkpt>
      <trkpt lat="47.46046" lon="6.8055">
        <ele>466</ele>
        <time>2013-11-11T09:04:04.074Z</time>
      </trkpt>
      <trkpt lat="47.46031" lon="6.80599">
        <ele>470</ele>
        <time>2013-11-11T09:04:14.072Z</time>
      </trkpt>
      <trkpt lat="47.46019" lon="6.80627">
        <ele>472</ele>
        <time>2013-11-11T09:04:19.144Z</time>
      </trkpt>
      <trkpt lat="47.46013" lon="6.8064">
        <ele>474</ele>
        <time>2013-11-11T09:04:24.065Z</time>
      </trkpt>
      <trkpt lat="47.46005" lon="6.80654">
        <ele>476</ele>
        <time>2013-11-11T09:04:29.143Z</time>
      </trkpt>
      <trkpt lat="47.45993" lon="6.8067">
        <ele>477</ele>
        <time>2013-11-11T09:04:34.061Z</time>
      </trkpt>
      <trkpt lat="47.45974" lon="6.80688">
        <ele>478</ele>
        <time>2013-11-11T09:04:39.142Z</time>
      </trkpt>
      <trkpt lat="47.45959" lon="6.80701">
        <ele>478</ele>
        <time>2013-11-11T09:04:44.061Z</time>
      </trkpt>
      <trkpt lat="47.45951" lon="6.80718">
        <ele>479</ele>
        <time>2013-11-11T09:04:49.259Z</time>
      </trkpt>
      <trkpt lat="47.45944" lon="6.80739">
        <ele>478</ele>
        <time>2013-11-11T09:04:54.050Z</time>
      </trkpt>
      <trkpt lat="47.45956" lon="6.80771">
        <ele>476</ele>
        <time>2013-11-11T09:04:59.141Z</time>
      </trkpt>
      <trkpt lat="47.45964" lon="6.80797">
        <ele>474</ele>
        <time>2013-11-11T09:05:04.065Z</time>
      </trkpt>
      <trkpt lat="47.45958" lon="6.80808">
        <ele>472</ele>
        <time>2013-11-11T09:05:09.143Z</time>
      </trkpt>
      <trkpt lat="47.45971" lon="6.80837">
        <ele>468</ele>
        <time>2013-11-11T09:05:14.062Z</time>
      </trkpt>
      <trkpt lat="47.45988" lon="6.80859">
        <ele>467</ele>
        <time>2013-11-11T09:05:19.142Z</time>
      </trkpt>
      <trkpt lat="47.45995" lon="6.80872">
        <ele>464</ele>
        <time>2013-11-11T09:05:24.066Z</time>
      </trkpt>
      <trkpt lat="47.4599" lon="6.80874">
        <ele>463</ele>
        <time>2013-11-11T09:05:29.142Z</time>
      </trkpt>
      <trkpt lat="47.4598" lon="6.80882">
        <ele>459</ele>
        <time>2013-11-11T09:05:34.060Z</time>
      </trkpt>
      <trkpt lat="47.45983" lon="6.80894">
        <ele>457</ele>
        <time>2013-11-11T09:05:39.151Z</time>
      </trkpt>
      <trkpt lat="47.45989" lon="6.80909">
        <ele>455</ele>
        <time>2013-11-11T09:05:44.063Z</time>
      </trkpt>
      <trkpt lat="47.45979" lon="6.8093">
        <ele>452</ele>
        <time>2013-11-11T09:05:49.142Z</time>
      </trkpt>
      <trkpt lat="47.45964" lon="6.80948">
        <ele>450</ele>
        <time>2013-11-11T09:05:54.373Z</time>
      </trkpt>
      <trkpt lat="47.45961" lon="6.80964">
        <ele>448</ele>
        <time>2013-11-11T09:05:59.061Z</time>
      </trkpt>
      <trkpt lat="47.45957" lon="6.80978">
        <ele>447</ele>
        <time>2013-11-11T09:06:04.098Z</time>
      </trkpt>
      <trkpt lat="47.45959" lon="6.80987">
        <ele>446</ele>
        <time>2013-11-11T09:06:09.065Z</time>
      </trkpt>
      <trkpt lat="47.45961" lon="6.80994">
        <ele>446</ele>
        <time>2013-11-11T09:06:14.136Z</time>
      </trkpt>
      <trkpt lat="47.4596" lon="6.80999">
        <ele>447</ele>
        <time>2013-11-11T09:06:19.068Z</time>
      </trkpt>
      <trkpt lat="47.45958" lon="6.81002">
        <ele>447</ele>
        <time>2013-11-11T09:06:24.141Z</time>
      </trkpt>
      <trkpt lat="47.4596" lon="6.81005">
        <ele>447</ele>
        <time>2013-11-11T09:06:29.065Z</time>
      </trkpt>
      <trkpt lat="47.45954" lon="6.81006">
        <ele>447</ele>
        <time>2013-11-11T09:06:34.107Z</time>
      </trkpt>
      <trkpt lat="47.45954" lon="6.8101">
        <ele>448</ele>
        <time>2013-11-11T09:06:39.066Z</time>
      </trkpt>
      <trkpt lat="47.4595" lon="6.8101">
        <ele>448</ele>
        <time>2013-11-11T09:06:44.142Z</time>
      </trkpt>
      <trkpt lat="47.4594" lon="6.81005">
        <ele>451</ele>
        <time>2013-11-11T09:06:49.060Z</time>
      </trkpt>
      <trkpt lat="47.45948" lon="6.81013">
        <ele>450</ele>
        <time>2013-11-11T09:06:54.141Z</time>
      </trkpt>
      <trkpt lat="47.45944" lon="6.81013">
        <ele>450</ele>
        <time>2013-11-11T09:06:59.045Z</time>
      </trkpt>
      <trkpt lat="47.45944" lon="6.81015">
        <ele>448</ele>
        <time>2013-11-11T09:07:04.139Z</time>
      </trkpt>
      <trkpt lat="47.4595" lon="6.81015">
        <ele>446</ele>
        <time>2013-11-11T09:07:09.060Z</time>
      </trkpt>
      <trkpt lat="47.45956" lon="6.81018">
        <ele>445</ele>
        <time>2013-11-11T09:07:14.141Z</time>
      </trkpt>
      <trkpt lat="47.45963" lon="6.81023">
        <ele>444</ele>
        <time>2013-11-11T09:07:19.060Z</time>
      </trkpt>
      <trkpt lat="47.4597" lon="6.81029">
        <ele>444</ele>
        <time>2013-11-11T09:07:24.143Z</time>
      </trkpt>
      <trkpt lat="47.45973" lon="6.81032">
        <ele>447</ele>
        <time>2013-11-11T09:07:29.060Z</time>
      </trkpt>
      <trkpt lat="47.45975" lon="6.81038">
        <ele>448</ele>
        <time>2013-11-11T09:07:34.144Z</time>
      </trkpt>
      <trkpt lat="47.45977" lon="6.81043">
        <ele>449</ele>
        <time>2013-11-11T09:07:39.061Z</time>
      </trkpt>
      <trkpt lat="47.45978" lon="6.81044">
        <ele>451</ele>
        <time>2013-11-11T09:07:44.141Z</time>
      </trkpt>
      <trkpt lat="47.45985" lon="6.8105">
        <ele>453</ele>
        <time>2013-11-11T09:07:49.061Z</time>
      </trkpt>
      <trkpt lat="47.45989" lon="6.81052">
        <ele>455</ele>
        <time>2013-11-11T09:07:54.104Z</time>
      </trkpt>
      <trkpt lat="47.45994" lon="6.81058">
        <ele>457</ele>
        <time>2013-11-11T09:07:59.048Z</time>
      </trkpt>
      <trkpt lat="47.45993" lon="6.81061">
        <ele>458</ele>
        <time>2013-11-11T09:08:04.130Z</time>
      </trkpt>
      <trkpt lat="47.46008" lon="6.8107">
        <ele>460</ele>
        <time>2013-11-11T09:08:14.131Z</time>
      </trkpt>
      <trkpt lat="47.46021" lon="6.81081">
        <ele>462</ele>
        <time>2013-11-11T09:08:19.060Z</time>
      </trkpt>
      <trkpt lat="47.46034" lon="6.81089">
        <ele>464</ele>
        <time>2013-11-11T09:08:24.141Z</time>
      </trkpt>
      <trkpt lat="47.46037" lon="6.8109">
        <ele>463</ele>
        <time>2013-11-11T09:08:29.060Z</time>
      </trkpt>
      <trkpt lat="47.46036" lon="6.81095">
        <ele>460</ele>
        <time>2013-11-11T09:08:34.141Z</time>
      </trkpt>
      <trkpt lat="47.46037" lon="6.81099">
        <ele>458</ele>
        <time>2013-11-11T09:08:39.059Z</time>
      </trkpt>
      <trkpt lat="47.4604" lon="6.81103">
        <ele>461</ele>
        <time>2013-11-11T09:08:44.141Z</time>
      </trkpt>
      <trkpt lat="47.46024" lon="6.81103">
        <ele>461</ele>
        <time>2013-11-11T09:08:49.067Z</time>
      </trkpt>
      <trkpt lat="47.46019" lon="6.81108">
        <ele>461</ele>
        <time>2013-11-11T09:08:54.142Z</time>
      </trkpt>
      <trkpt lat="47.46019" lon="6.81116">
        <ele>461</ele>
        <time>2013-11-11T09:08:59.048Z</time>
      </trkpt>
      <trkpt lat="47.46025" lon="6.81127">
        <ele>461</ele>
        <time>2013-11-11T09:09:04.146Z</time>
      </trkpt>
      <trkpt lat="47.46015" lon="6.81133">
        <ele>462</ele>
        <time>2013-11-11T09:09:09.061Z</time>
      </trkpt>
      <trkpt lat="47.46007" lon="6.81145">
        <ele>461</ele>
        <time>2013-11-11T09:09:14.109Z</time>
      </trkpt>
      <trkpt lat="47.46011" lon="6.81159">
        <ele>461</ele>
        <time>2013-11-11T09:09:19.061Z</time>
      </trkpt>
      <trkpt lat="47.46" lon="6.81168">
        <ele>462</ele>
        <time>2013-11-11T09:09:24.135Z</time>
      </trkpt>
      <trkpt lat="47.46" lon="6.81176">
        <ele>463</ele>
        <time>2013-11-11T09:09:29.060Z</time>
      </trkpt>
      <trkpt lat="47.46007" lon="6.81191">
        <ele>463</ele>
        <time>2013-11-11T09:09:34.142Z</time>
      </trkpt>
      <trkpt lat="47.46003" lon="6.81202">
        <ele>463</ele>
        <time>2013-11-11T09:09:39.061Z</time>
      </trkpt>
      <trkpt lat="47.46011" lon="6.81217">
        <ele>461</ele>
        <time>2013-11-11T09:09:44.142Z</time>
      </trkpt>
      <trkpt lat="47.46004" lon="6.81227">
        <ele>461</ele>
        <time>2013-11-11T09:09:49.060Z</time>
      </trkpt>
      <trkpt lat="47.45998" lon="6.81236">
        <ele>460</ele>
        <time>2013-11-11T09:09:54.141Z</time>
      </trkpt>
      <trkpt lat="47.4599" lon="6.81248">
        <ele>461</ele>
        <time>2013-11-11T09:09:59.060Z</time>
      </trkpt>
      <trkpt lat="47.45982" lon="6.81258">
        <ele>461</ele>
        <time>2013-11-11T09:10:04.146Z</time>
      </trkpt>
      <trkpt lat="47.45972" lon="6.81263">
        <ele>461</ele>
        <time>2013-11-11T09:10:09.060Z</time>
      </trkpt>
      <trkpt lat="47.4597" lon="6.81269">
        <ele>462</ele>
        <time>2013-11-11T09:10:14.147Z</time>
      </trkpt>
      <trkpt lat="47.45968" lon="6.81276">
        <ele>462</ele>
        <time>2013-11-11T09:10:19.067Z</time>
      </trkpt>
      <trkpt lat="47.45968" lon="6.81282">
        <ele>462</ele>
        <time>2013-11-11T09:10:24.145Z</time>
      </trkpt>
      <trkpt lat="47.45979" lon="6.81287">
        <ele>463</ele>
        <time>2013-11-11T09:10:29.064Z</time>
      </trkpt>
      <trkpt lat="47.45978" lon="6.8129">
        <ele>464</ele>
        <time>2013-11-11T09:10:34.110Z</time>
      </trkpt>
      <trkpt lat="47.45979" lon="6.81294">
        <ele>463</ele>
        <time>2013-11-11T09:10:39.065Z</time>
      </trkpt>
      <trkpt lat="47.45984" lon="6.81301">
        <ele>463</ele>
        <time>2013-11-11T09:10:44.112Z</time>
      </trkpt>
      <trkpt lat="47.45986" lon="6.813">
        <ele>463</ele>
        <time>2013-11-11T09:10:49.052Z</time>
      </trkpt>
      <trkpt lat="47.45977" lon="6.81289">
        <ele>466</ele>
        <time>2013-11-11T09:10:59.063Z</time>
      </trkpt>
      <trkpt lat="47.45977" lon="6.81289">
        <ele>466</ele>
        <time>2013-11-11T09:10:59.063Z</time>
      </trkpt>
      <trkpt lat="47.4598" lon="6.8129">
        <ele>466</ele>
        <time>2013-11-11T09:11:09.065Z</time>
      </trkpt>
      <trkpt lat="47.45984" lon="6.81295">
        <ele>465</ele>
        <time>2013-11-11T09:11:14.143Z</time>
      </trkpt>
      <trkpt lat="47.45986" lon="6.81297">
        <ele>465</ele>
        <time>2013-11-11T09:11:19.060Z</time>
      </trkpt>
      <trkpt lat="47.45982" lon="6.81295">
        <ele>465</ele>
        <time>2013-11-11T09:11:24.101Z</time>
      </trkpt>
      <trkpt lat="47.45981" lon="6.81297">
        <ele>465</ele>
        <time>2013-11-11T09:11:29.063Z</time>
      </trkpt>
      <trkpt lat="47.45983" lon="6.81301">
        <ele>465</ele>
        <time>2013-11-11T09:11:34.142Z</time>
      </trkpt>
      <trkpt lat="47.45983" lon="6.81301">
        <ele>465</ele>
        <time>2013-11-11T09:11:39.071Z</time>
      </trkpt>
      <trkpt lat="47.45983" lon="6.81301">
        <ele>465</ele>
        <time>2013-11-11T09:11:44.142Z</time>
      </trkpt>
      <trkpt lat="47.45981" lon="6.81302">
        <ele>464</ele>
        <time>2013-11-11T09:11:49.069Z</time>
      </trkpt>
      <trkpt lat="47.45983" lon="6.81308">
        <ele>465</ele>
        <time>2013-11-11T09:11:54.117Z</time>
      </trkpt>
      <trkpt lat="47.45982" lon="6.8131">
        <ele>466</ele>
        <time>2013-11-11T09:11:59.065Z</time>
      </trkpt>
      <trkpt lat="47.45982" lon="6.81307">
        <ele>467</ele>
        <time>2013-11-11T09:12:04.137Z</time>
      </trkpt>
      <trkpt lat="47.45984" lon="6.81306">
        <ele>467</ele>
        <time>2013-11-11T09:12:09.066Z</time>
      </trkpt>
      <trkpt lat="47.45985" lon="6.81303">
        <ele>468</ele>
        <time>2013-11-11T09:12:14.144Z</time>
      </trkpt>
      <trkpt lat="47.45985" lon="6.813">
        <ele>469</ele>
        <time>2013-11-11T09:12:19.065Z</time>
      </trkpt>
      <trkpt lat="47.45986" lon="6.81298">
        <ele>469</ele>
        <time>2013-11-11T09:12:24.144Z</time>
      </trkpt>
      <trkpt lat="47.45982" lon="6.81294">
        <ele>470</ele>
        <time>2013-11-11T09:12:29.065Z</time>
      </trkpt>
      <trkpt lat="47.45976" lon="6.81296">
        <ele>470</ele>
        <time>2013-11-11T09:12:34.145Z</time>
      </trkpt>
      <trkpt lat="47.45965" lon="6.81303">
        <ele>467</ele>
        <time>2013-11-11T09:12:39.065Z</time>
      </trkpt>
      <trkpt lat="47.4596" lon="6.8131">
        <ele>466</ele>
        <time>2013-11-11T09:12:44.143Z</time>
      </trkpt>
      <trkpt lat="47.4596" lon="6.81322">
        <ele>465</ele>
        <time>2013-11-11T09:12:49.065Z</time>
      </trkpt>
      <trkpt lat="47.45953" lon="6.81331">
        <ele>465</ele>
        <time>2013-11-11T09:12:54.143Z</time>
      </trkpt>
      <trkpt lat="47.45947" lon="6.81338">
        <ele>466</ele>
        <time>2013-11-11T09:12:59.068Z</time>
      </trkpt>
      <trkpt lat="47.45944" lon="6.81347">
        <ele>465</ele>
        <time>2013-11-11T09:13:04.143Z</time>
      </trkpt>
      <trkpt lat="47.45949" lon="6.81358">
        <ele>467</ele>
        <time>2013-11-11T09:13:09.070Z</time>
      </trkpt>
      <trkpt lat="47.45943" lon="6.81371">
        <ele>467</ele>
        <time>2013-11-11T09:13:14.064Z</time>
      </trkpt>
      <trkpt lat="47.45945" lon="6.81386">
        <ele>466</ele>
        <time>2013-11-11T09:13:19.146Z</time>
      </trkpt>
      <trkpt lat="47.45942" lon="6.81399">
        <ele>466</ele>
        <time>2013-11-11T09:13:24.065Z</time>
      </trkpt>
      <trkpt lat="47.45933" lon="6.81414">
        <ele>465</ele>
        <time>2013-11-11T09:13:29.149Z</time>
      </trkpt>
      <trkpt lat="47.45923" lon="6.81426">
        <ele>466</ele>
        <time>2013-11-11T09:13:34.065Z</time>
      </trkpt>
      <trkpt lat="47.4592" lon="6.81444">
        <ele>465</ele>
        <time>2013-11-11T09:13:39.101Z</time>
      </trkpt>
      <trkpt lat="47.45918" lon="6.81459">
        <ele>463</ele>
        <time>2013-11-11T09:13:44.065Z</time>
      </trkpt>
      <trkpt lat="47.45912" lon="6.81475">
        <ele>463</ele>
        <time>2013-11-11T09:13:49.144Z</time>
      </trkpt>
      <trkpt lat="47.45906" lon="6.81488">
        <ele>464</ele>
        <time>2013-11-11T09:13:54.065Z</time>
      </trkpt>
      <trkpt lat="47.45897" lon="6.81501">
        <ele>464</ele>
        <time>2013-11-11T09:13:59.140Z</time>
      </trkpt>
      <trkpt lat="47.45892" lon="6.81519">
        <ele>463</ele>
        <time>2013-11-11T09:14:04.144Z</time>
      </trkpt>
      <trkpt lat="47.45887" lon="6.81535">
        <ele>462</ele>
        <time>2013-11-11T09:14:09.161Z</time>
      </trkpt>
      <trkpt lat="47.45886" lon="6.81558">
        <ele>461</ele>
        <time>2013-11-11T09:14:14.142Z</time>
      </trkpt>
      <trkpt lat="47.45891" lon="6.81584">
        <ele>462</ele>
        <time>2013-11-11T09:14:19.141Z</time>
      </trkpt>
      <trkpt lat="47.45905" lon="6.81617">
        <ele>463</ele>
        <time>2013-11-11T09:14:24.065Z</time>
      </trkpt>
      <trkpt lat="47.45928" lon="6.8166">
        <ele>461</ele>
        <time>2013-11-11T09:14:29.159Z</time>
      </trkpt>
      <trkpt lat="47.4595" lon="6.81694">
        <ele>461</ele>
        <time>2013-11-11T09:14:34.064Z</time>
      </trkpt>
      <trkpt lat="47.45963" lon="6.81719">
        <ele>461</ele>
        <time>2013-11-11T09:14:39.145Z</time>
      </trkpt>
      <trkpt lat="47.45977" lon="6.81733">
        <ele>462</ele>
        <time>2013-11-11T09:14:44.068Z</time>
      </trkpt>
      <trkpt lat="47.45989" lon="6.81741">
        <ele>462</ele>
        <time>2013-11-11T09:14:49.146Z</time>
      </trkpt>
      <trkpt lat="47.45996" lon="6.81747">
        <ele>463</ele>
        <time>2013-11-11T09:14:54.065Z</time>
      </trkpt>
      <trkpt lat="47.46003" lon="6.81751">
        <ele>465</ele>
        <time>2013-11-11T09:14:59.143Z</time>
      </trkpt>
      <trkpt lat="47.46009" lon="6.81756">
        <ele>467</ele>
        <time>2013-11-11T09:15:04.066Z</time>
      </trkpt>
      <trkpt lat="47.46019" lon="6.8176">
        <ele>468</ele>
        <time>2013-11-11T09:15:09.135Z</time>
      </trkpt>
      <trkpt lat="47.46033" lon="6.81766">
        <ele>467</ele>
        <time>2013-11-11T09:15:14.050Z</time>
      </trkpt>
      <trkpt lat="47.46032" lon="6.81766">
        <ele>467</ele>
        <time>2013-11-11T09:15:19.142Z</time>
      </trkpt>
      <trkpt lat="47.46038" lon="6.81768">
        <ele>468</ele>
        <time>2013-11-11T09:15:24.064Z</time>
      </trkpt>
      <trkpt lat="47.46046" lon="6.81773">
        <ele>467</ele>
        <time>2013-11-11T09:15:29.140Z</time>
      </trkpt>
      <trkpt lat="47.46049" lon="6.81774">
        <ele>468</ele>
        <time>2013-11-11T09:15:34.071Z</time>
      </trkpt>
      <trkpt lat="47.46052" lon="6.81774">
        <ele>470</ele>
        <time>2013-11-11T09:15:39.144Z</time>
      </trkpt>
      <trkpt lat="47.46061" lon="6.81771">
        <ele>470</ele>
        <time>2013-11-11T09:15:44.067Z</time>
      </trkpt>
      <trkpt lat="47.4608" lon="6.81776">
        <ele>471</ele>
        <time>2013-11-11T09:15:49.144Z</time>
      </trkpt>
      <trkpt lat="47.46089" lon="6.81777">
        <ele>471</ele>
        <time>2013-11-11T09:15:54.068Z</time>
      </trkpt>
      <trkpt lat="47.46098" lon="6.81779">
        <ele>470</ele>
        <time>2013-11-11T09:15:59.144Z</time>
      </trkpt>
      <trkpt lat="47.46128" lon="6.8179">
        <ele>469</ele>
        <time>2013-11-11T09:16:09.069Z</time>
      </trkpt>
      <trkpt lat="47.46128" lon="6.8179">
        <ele>469</ele>
        <time>2013-11-11T09:16:09.069Z</time>
      </trkpt>
      <trkpt lat="47.46141" lon="6.81785">
        <ele>470</ele>
        <time>2013-11-11T09:16:19.112Z</time>
      </trkpt>
      <trkpt lat="47.46143" lon="6.81784">
        <ele>470</ele>
        <time>2013-11-11T09:16:24.069Z</time>
      </trkpt>
      <trkpt lat="47.4615" lon="6.81791">
        <ele>471</ele>
        <time>2013-11-11T09:16:29.143Z</time>
      </trkpt>
      <trkpt lat="47.46152" lon="6.81792">
        <ele>472</ele>
        <time>2013-11-11T09:16:34.067Z</time>
      </trkpt>
      <trkpt lat="47.46157" lon="6.81795">
        <ele>472</ele>
        <time>2013-11-11T09:16:39.130Z</time>
      </trkpt>
      <trkpt lat="47.46156" lon="6.81801">
        <ele>471</ele>
        <time>2013-11-11T09:16:44.070Z</time>
      </trkpt>
      <trkpt lat="47.46156" lon="6.81802">
        <ele>472</ele>
        <time>2013-11-11T09:16:49.146Z</time>
      </trkpt>
      <trkpt lat="47.46156" lon="6.81802">
        <ele>472</ele>
        <time>2013-11-11T09:16:54.072Z</time>
      </trkpt>
      <trkpt lat="47.46155" lon="6.81799">
        <ele>471</ele>
        <time>2013-11-11T09:16:59.145Z</time>
      </trkpt>
      <trkpt lat="47.46154" lon="6.81802">
        <ele>472</ele>
        <time>2013-11-11T09:17:04.074Z</time>
      </trkpt>
      <trkpt lat="47.46154" lon="6.81803">
        <ele>472</ele>
        <time>2013-11-11T09:17:09.153Z</time>
      </trkpt>
      <trkpt lat="47.46154" lon="6.81803">
        <ele>472</ele>
        <time>2013-11-11T09:17:14.061Z</time>
      </trkpt>
      <trkpt lat="47.46153" lon="6.81803">
        <ele>472</ele>
        <time>2013-11-11T09:17:19.262Z</time>
      </trkpt>
      <trkpt lat="47.46153" lon="6.81803">
        <ele>472</ele>
        <time>2013-11-11T09:17:24.234Z</time>
      </trkpt>
      <trkpt lat="47.46153" lon="6.81803">
        <ele>472</ele>
        <time>2013-11-11T09:17:29.128Z</time>
      </trkpt>
      <trkpt lat="47.46153" lon="6.81803">
        <ele>472</ele>
        <time>2013-11-11T09:17:34.072Z</time>
      </trkpt>
      <trkpt lat="47.46153" lon="6.81803">
        <ele>473</ele>
        <time>2013-11-11T09:17:39.147Z</time>
      </trkpt>
      <trkpt lat="47.46153" lon="6.81803">
        <ele>473</ele>
        <time>2013-11-11T09:17:44.075Z</time>
      </trkpt>
      <trkpt lat="47.46153" lon="6.81802">
        <ele>473</ele>
        <time>2013-11-11T09:17:49.147Z</time>
      </trkpt>
      <trkpt lat="47.46153" lon="6.81802">
        <ele>473</ele>
        <time>2013-11-11T09:17:54.074Z</time>
      </trkpt>
      <trkpt lat="47.46151" lon="6.81798">
        <ele>474</ele>
        <time>2013-11-11T09:17:59.145Z</time>
      </trkpt>
      <trkpt lat="47.46153" lon="6.818">
        <ele>474</ele>
        <time>2013-11-11T09:18:04.140Z</time>
      </trkpt>
      <trkpt lat="47.46148" lon="6.81794">
        <ele>473</ele>
        <time>2013-11-11T09:18:09.071Z</time>
      </trkpt>
      <trkpt lat="47.46148" lon="6.81792">
        <ele>473</ele>
        <time>2013-11-11T09:18:14.146Z</time>
      </trkpt>
      <trkpt lat="47.46148" lon="6.81792">
        <ele>473</ele>
        <time>2013-11-11T09:18:19.072Z</time>
      </trkpt>
      <trkpt lat="47.46146" lon="6.81792">
        <ele>472</ele>
        <time>2013-11-11T09:18:24.118Z</time>
      </trkpt>
      <trkpt lat="47.46147" lon="6.81793">
        <ele>471</ele>
        <time>2013-11-11T09:18:29.074Z</time>
      </trkpt>
      <trkpt lat="47.46146" lon="6.8179">
        <ele>471</ele>
        <time>2013-11-11T09:18:34.147Z</time>
      </trkpt>
      <trkpt lat="47.46145" lon="6.81787">
        <ele>469</ele>
        <time>2013-11-11T09:18:39.147Z</time>
      </trkpt>
      <trkpt lat="47.46145" lon="6.81785">
        <ele>469</ele>
        <time>2013-11-11T09:18:44.075Z</time>
      </trkpt>
      <trkpt lat="47.46144" lon="6.81783">
        <ele>468</ele>
        <time>2013-11-11T09:18:49.144Z</time>
      </trkpt>
      <trkpt lat="47.46145" lon="6.81783">
        <ele>468</ele>
        <time>2013-11-11T09:18:54.074Z</time>
      </trkpt>
      <trkpt lat="47.46145" lon="6.81783">
        <ele>468</ele>
        <time>2013-11-11T09:18:59.146Z</time>
      </trkpt>
      <trkpt lat="47.46145" lon="6.81783">
        <ele>468</ele>
        <time>2013-11-11T09:19:04.076Z</time>
      </trkpt>
      <trkpt lat="47.46144" lon="6.81782">
        <ele>467</ele>
        <time>2013-11-11T09:19:09.147Z</time>
      </trkpt>
      <trkpt lat="47.46146" lon="6.81784">
        <ele>467</ele>
        <time>2013-11-11T09:19:14.070Z</time>
      </trkpt>
      <trkpt lat="47.46147" lon="6.81781">
        <ele>468</ele>
        <time>2013-11-11T09:19:19.145Z</time>
      </trkpt>
      <trkpt lat="47.46154" lon="6.81789">
        <ele>468</ele>
        <time>2013-11-11T09:19:24.264Z</time>
      </trkpt>
      <trkpt lat="47.46165" lon="6.81796">
        <ele>467</ele>
        <time>2013-11-11T09:19:29.147Z</time>
      </trkpt>
      <trkpt lat="47.46178" lon="6.81802">
        <ele>470</ele>
        <time>2013-11-11T09:19:34.070Z</time>
      </trkpt>
      <trkpt lat="47.46193" lon="6.81805">
        <ele>472</ele>
        <time>2013-11-11T09:19:39.143Z</time>
      </trkpt>
      <trkpt lat="47.46214" lon="6.81814">
        <ele>474</ele>
        <time>2013-11-11T09:19:44.068Z</time>
      </trkpt>
      <trkpt lat="47.46245" lon="6.81827">
        <ele>474</ele>
        <time>2013-11-11T09:19:49.144Z</time>
      </trkpt>
      <trkpt lat="47.46279" lon="6.81847">
        <ele>475</ele>
        <time>2013-11-11T09:19:54.069Z</time>
      </trkpt>
      <trkpt lat="47.46316" lon="6.81862">
        <ele>474</ele>
        <time>2013-11-11T09:19:59.145Z</time>
      </trkpt>
      <trkpt lat="47.46349" lon="6.81878">
        <ele>473</ele>
        <time>2013-11-11T09:20:04.147Z</time>
      </trkpt>
      <trkpt lat="47.46378" lon="6.81898">
        <ele>472</ele>
        <time>2013-11-11T09:20:09.065Z</time>
      </trkpt>
      <trkpt lat="47.46402" lon="6.81912">
        <ele>471</ele>
        <time>2013-11-11T09:20:14.143Z</time>
      </trkpt>
      <trkpt lat="47.46428" lon="6.81926">
        <ele>471</ele>
        <time>2013-11-11T09:20:19.061Z</time>
      </trkpt>
      <trkpt lat="47.46459" lon="6.81946">
        <ele>470</ele>
        <time>2013-11-11T09:20:24.110Z</time>
      </trkpt>
      <trkpt lat="47.46488" lon="6.8196">
        <ele>469</ele>
        <time>2013-11-11T09:20:29.058Z</time>
      </trkpt>
      <trkpt lat="47.46539" lon="6.81991">
        <ele>467</ele>
        <time>2013-11-11T09:20:39.066Z</time>
      </trkpt>
      <trkpt lat="47.46539" lon="6.81991">
        <ele>467</ele>
        <time>2013-11-11T09:20:39.066Z</time>
      </trkpt>
      <trkpt lat="47.46589" lon="6.82028">
        <ele>465</ele>
        <time>2013-11-11T09:20:49.067Z</time>
      </trkpt>
      <trkpt lat="47.46612" lon="6.82046">
        <ele>464</ele>
        <time>2013-11-11T09:20:54.145Z</time>
      </trkpt>
      <trkpt lat="47.46632" lon="6.82056">
        <ele>465</ele>
        <time>2013-11-11T09:20:59.065Z</time>
      </trkpt>
      <trkpt lat="47.46647" lon="6.8206">
        <ele>465</ele>
        <time>2013-11-11T09:21:04.141Z</time>
      </trkpt>
      <trkpt lat="47.46662" lon="6.82063">
        <ele>465</ele>
        <time>2013-11-11T09:21:09.077Z</time>
      </trkpt>
      <trkpt lat="47.46674" lon="6.82056">
        <ele>466</ele>
        <time>2013-11-11T09:21:14.141Z</time>
      </trkpt>
      <trkpt lat="47.46684" lon="6.82045">
        <ele>467</ele>
        <time>2013-11-11T09:21:19.077Z</time>
      </trkpt>
      <trkpt lat="47.46697" lon="6.82039">
        <ele>467</ele>
        <time>2013-11-11T09:21:24.146Z</time>
      </trkpt>
      <trkpt lat="47.46705" lon="6.82035">
        <ele>467</ele>
        <time>2013-11-11T09:21:29.073Z</time>
      </trkpt>
      <trkpt lat="47.46717" lon="6.82038">
        <ele>467</ele>
        <time>2013-11-11T09:21:34.144Z</time>
      </trkpt>
      <trkpt lat="47.46729" lon="6.8204">
        <ele>466</ele>
        <time>2013-11-11T09:21:39.074Z</time>
      </trkpt>
      <trkpt lat="47.46739" lon="6.82042">
        <ele>466</ele>
        <time>2013-11-11T09:21:44.147Z</time>
      </trkpt>
      <trkpt lat="47.46752" lon="6.82047">
        <ele>466</ele>
        <time>2013-11-11T09:21:49.073Z</time>
      </trkpt>
      <trkpt lat="47.46761" lon="6.82052">
        <ele>466</ele>
        <time>2013-11-11T09:21:54.147Z</time>
      </trkpt>
      <trkpt lat="47.46771" lon="6.8206">
        <ele>466</ele>
        <time>2013-11-11T09:21:59.072Z</time>
      </trkpt>
      <trkpt lat="47.46786" lon="6.8207">
        <ele>465</ele>
        <time>2013-11-11T09:22:04.157Z</time>
      </trkpt>
      <trkpt lat="47.46808" lon="6.82087">
        <ele>464</ele>
        <time>2013-11-11T09:22:09.071Z</time>
      </trkpt>
      <trkpt lat="47.46825" lon="6.82101">
        <ele>462</ele>
        <time>2013-11-11T09:22:14.145Z</time>
      </trkpt>
      <trkpt lat="47.46848" lon="6.82118">
        <ele>459</ele>
        <time>2013-11-11T09:22:19.070Z</time>
      </trkpt>
      <trkpt lat="47.46882" lon="6.82147">
        <ele>456</ele>
        <time>2013-11-11T09:22:24.117Z</time>
      </trkpt>
      <trkpt lat="47.46921" lon="6.8218">
        <ele>455</ele>
        <time>2013-11-11T09:22:29.067Z</time>
      </trkpt>
      <trkpt lat="47.46957" lon="6.82193">
        <ele>456</ele>
        <time>2013-11-11T09:22:34.378Z</time>
      </trkpt>
      <trkpt lat="47.46991" lon="6.82204">
        <ele>456</ele>
        <time>2013-11-11T09:22:39.050Z</time>
      </trkpt>
      <trkpt lat="47.47018" lon="6.8221">
        <ele>455</ele>
        <time>2013-11-11T09:22:44.142Z</time>
      </trkpt>
      <trkpt lat="47.47043" lon="6.82221">
        <ele>455</ele>
        <time>2013-11-11T09:22:49.066Z</time>
      </trkpt>
      <trkpt lat="47.47065" lon="6.82219">
        <ele>457</ele>
        <time>2013-11-11T09:22:54.143Z</time>
      </trkpt>
      <trkpt lat="47.47085" lon="6.82213">
        <ele>458</ele>
        <time>2013-11-11T09:22:59.069Z</time>
      </trkpt>
      <trkpt lat="47.47103" lon="6.82204">
        <ele>460</ele>
        <time>2013-11-11T09:23:04.144Z</time>
      </trkpt>
      <trkpt lat="47.47117" lon="6.82202">
        <ele>461</ele>
        <time>2013-11-11T09:23:09.076Z</time>
      </trkpt>
      <trkpt lat="47.47138" lon="6.8222">
        <ele>462</ele>
        <time>2013-11-11T09:23:14.112Z</time>
      </trkpt>
      <trkpt lat="47.4716" lon="6.8223">
        <ele>463</ele>
        <time>2013-11-11T09:23:19.149Z</time>
      </trkpt>
      <trkpt lat="47.47182" lon="6.82233">
        <ele>465</ele>
        <time>2013-11-11T09:23:24.064Z</time>
      </trkpt>
      <trkpt lat="47.47205" lon="6.82237">
        <ele>463</ele>
        <time>2013-11-11T09:23:29.070Z</time>
      </trkpt>
      <trkpt lat="47.47227" lon="6.82251">
        <ele>461</ele>
        <time>2013-11-11T09:23:34.140Z</time>
      </trkpt>
      <trkpt lat="47.4724" lon="6.82253">
        <ele>461</ele>
        <time>2013-11-11T09:23:39.069Z</time>
      </trkpt>
      <trkpt lat="47.47251" lon="6.82237">
        <ele>459</ele>
        <time>2013-11-11T09:23:44.115Z</time>
      </trkpt>
      <trkpt lat="47.47261" lon="6.82218">
        <ele>458</ele>
        <time>2013-11-11T09:23:49.072Z</time>
      </trkpt>
      <trkpt lat="47.4727" lon="6.82195">
        <ele>458</ele>
        <time>2013-11-11T09:23:54.145Z</time>
      </trkpt>
      <trkpt lat="47.47275" lon="6.82176">
        <ele>459</ele>
        <time>2013-11-11T09:23:59.071Z</time>
      </trkpt>
      <trkpt lat="47.47276" lon="6.82172">
        <ele>456</ele>
        <time>2013-11-11T09:24:04.073Z</time>
      </trkpt>
      <trkpt lat="47.47281" lon="6.82161">
        <ele>456</ele>
        <time>2013-11-11T09:24:09.147Z</time>
      </trkpt>
      <trkpt lat="47.47287" lon="6.82139">
        <ele>454</ele>
        <time>2013-11-11T09:24:14.057Z</time>
      </trkpt>
      <trkpt lat="47.47311" lon="6.82071">
        <ele>453</ele>
        <time>2013-11-11T09:24:24.072Z</time>
      </trkpt>
      <trkpt lat="47.47311" lon="6.82071">
        <ele>453</ele>
        <time>2013-11-11T09:24:24.072Z</time>
      </trkpt>
      <trkpt lat="47.47363" lon="6.82017">
        <ele>447</ele>
        <time>2013-11-11T09:24:34.145Z</time>
      </trkpt>
      <trkpt lat="47.47383" lon="6.82022">
        <ele>445</ele>
        <time>2013-11-11T09:24:39.072Z</time>
      </trkpt>
      <trkpt lat="47.47395" lon="6.82031">
        <ele>444</ele>
        <time>2013-11-11T09:24:44.072Z</time>
      </trkpt>
      <trkpt lat="47.47403" lon="6.82039">
        <ele>442</ele>
        <time>2013-11-11T09:24:49.144Z</time>
      </trkpt>
      <trkpt lat="47.47411" lon="6.82043">
        <ele>442</ele>
        <time>2013-11-11T09:24:54.074Z</time>
      </trkpt>
      <trkpt lat="47.47422" lon="6.82054">
        <ele>442</ele>
        <time>2013-11-11T09:24:59.144Z</time>
      </trkpt>
      <trkpt lat="47.47433" lon="6.82062">
        <ele>442</ele>
        <time>2013-11-11T09:25:04.074Z</time>
      </trkpt>
      <trkpt lat="47.47441" lon="6.82064">
        <ele>444</ele>
        <time>2013-11-11T09:25:09.142Z</time>
      </trkpt>
      <trkpt lat="47.47448" lon="6.82057">
        <ele>446</ele>
        <time>2013-11-11T09:25:14.072Z</time>
      </trkpt>
      <trkpt lat="47.47455" lon="6.82056">
        <ele>447</ele>
        <time>2013-11-11T09:25:19.145Z</time>
      </trkpt>
      <trkpt lat="47.47465" lon="6.82054">
        <ele>448</ele>
        <time>2013-11-11T09:25:24.069Z</time>
      </trkpt>
      <trkpt lat="47.47473" lon="6.82054">
        <ele>449</ele>
        <time>2013-11-11T09:25:29.146Z</time>
      </trkpt>
      <trkpt lat="47.47481" lon="6.82049">
        <ele>450</ele>
        <time>2013-11-11T09:25:34.072Z</time>
      </trkpt>
      <trkpt lat="47.47493" lon="6.82049">
        <ele>451</ele>
        <time>2013-11-11T09:25:39.151Z</time>
      </trkpt>
      <trkpt lat="47.475" lon="6.82042">
        <ele>453</ele>
        <time>2013-11-11T09:25:44.062Z</time>
      </trkpt>
      <trkpt lat="47.47511" lon="6.82043">
        <ele>455</ele>
        <time>2013-11-11T09:25:49.145Z</time>
      </trkpt>
      <trkpt lat="47.47522" lon="6.82045">
        <ele>456</ele>
        <time>2013-11-11T09:25:54.069Z</time>
      </trkpt>
      <trkpt lat="47.47534" lon="6.82045">
        <ele>454</ele>
        <time>2013-11-11T09:25:59.110Z</time>
      </trkpt>
      <trkpt lat="47.47547" lon="6.8205">
        <ele>455</ele>
        <time>2013-11-11T09:26:04.064Z</time>
      </trkpt>
      <trkpt lat="47.47568" lon="6.82062">
        <ele>455</ele>
        <time>2013-11-11T09:26:09.127Z</time>
      </trkpt>
      <trkpt lat="47.47593" lon="6.82077">
        <ele>455</ele>
        <time>2013-11-11T09:26:14.061Z</time>
      </trkpt>
      <trkpt lat="47.47623" lon="6.82084">
        <ele>454</ele>
        <time>2013-11-11T09:26:19.144Z</time>
      </trkpt>
      <trkpt lat="47.47659" lon="6.82106">
        <ele>450</ele>
        <time>2013-11-11T09:26:24.069Z</time>
      </trkpt>
      <trkpt lat="47.4768" lon="6.82117">
        <ele>449</ele>
        <time>2013-11-11T09:26:29.149Z</time>
      </trkpt>
      <trkpt lat="47.47703" lon="6.82128">
        <ele>445</ele>
        <time>2013-11-11T09:26:34.069Z</time>
      </trkpt>
      <trkpt lat="47.47736" lon="6.82139">
        <ele>445</ele>
        <time>2013-11-11T09:26:39.145Z</time>
      </trkpt>
      <trkpt lat="47.47761" lon="6.82141">
        <ele>445</ele>
        <time>2013-11-11T09:26:44.068Z</time>
      </trkpt>
      <trkpt lat="47.47786" lon="6.82148">
        <ele>442</ele>
        <time>2013-11-11T09:26:49.092Z</time>
      </trkpt>
      <trkpt lat="47.47811" lon="6.82164">
        <ele>439</ele>
        <time>2013-11-11T09:26:54.069Z</time>
      </trkpt>
      <trkpt lat="47.47828" lon="6.8216">
        <ele>438</ele>
        <time>2013-11-11T09:26:59.148Z</time>
      </trkpt>
      <trkpt lat="47.4784" lon="6.82157">
        <ele>435</ele>
        <time>2013-11-11T09:27:04.069Z</time>
      </trkpt>
      <trkpt lat="47.47861" lon="6.82155">
        <ele>434</ele>
        <time>2013-11-11T09:27:09.123Z</time>
      </trkpt>
      <trkpt lat="47.47882" lon="6.8215">
        <ele>433</ele>
        <time>2013-11-11T09:27:14.069Z</time>
      </trkpt>
      <trkpt lat="47.47895" lon="6.82148">
        <ele>432</ele>
        <time>2013-11-11T09:27:19.147Z</time>
      </trkpt>
      <trkpt lat="47.47904" lon="6.82138">
        <ele>432</ele>
        <time>2013-11-11T09:27:24.069Z</time>
      </trkpt>
      <trkpt lat="47.47911" lon="6.82129">
        <ele>431</ele>
        <time>2013-11-11T09:27:29.144Z</time>
      </trkpt>
      <trkpt lat="47.4792" lon="6.82122">
        <ele>429</ele>
        <time>2013-11-11T09:27:34.068Z</time>
      </trkpt>
      <trkpt lat="47.47927" lon="6.82106">
        <ele>428</ele>
        <time>2013-11-11T09:27:39.144Z</time>
      </trkpt>
      <trkpt lat="47.47933" lon="6.82088">
        <ele>428</ele>
        <time>2013-11-11T09:27:44.131Z</time>
      </trkpt>
      <trkpt lat="47.47938" lon="6.82071">
        <ele>426</ele>
        <time>2013-11-11T09:27:49.068Z</time>
      </trkpt>
      <trkpt lat="47.47935" lon="6.82042">
        <ele>427</ele>
        <time>2013-11-11T09:27:54.074Z</time>
      </trkpt>
      <trkpt lat="47.47929" lon="6.82018">
        <ele>427</ele>
        <time>2013-11-11T09:27:59.140Z</time>
      </trkpt>
      <trkpt lat="47.47921" lon="6.81988">
        <ele>426</ele>
        <time>2013-11-11T09:28:04.126Z</time>
      </trkpt>
      <trkpt lat="47.47917" lon="6.81961">
        <ele>424</ele>
        <time>2013-11-11T09:28:09.068Z</time>
      </trkpt>
      <trkpt lat="47.47917" lon="6.81943">
        <ele>422</ele>
        <time>2013-11-11T09:28:14.150Z</time>
      </trkpt>
      <trkpt lat="47.47922" lon="6.8192">
        <ele>420</ele>
        <time>2013-11-11T09:28:19.065Z</time>
      </trkpt>
      <trkpt lat="47.47926" lon="6.81895">
        <ele>420</ele>
        <time>2013-11-11T09:28:24.145Z</time>
      </trkpt>
      <trkpt lat="47.47927" lon="6.81887">
        <ele>421</ele>
        <time>2013-11-11T09:28:29.065Z</time>
      </trkpt>
      <trkpt lat="47.47925" lon="6.81889">
        <ele>422</ele>
        <time>2013-11-11T09:28:34.144Z</time>
      </trkpt>
      <trkpt lat="47.47925" lon="6.81888">
        <ele>422</ele>
        <time>2013-11-11T09:28:39.066Z</time>
      </trkpt>
      <trkpt lat="47.47926" lon="6.81885">
        <ele>422</ele>
        <time>2013-11-11T09:28:44.144Z</time>
      </trkpt>
      <trkpt lat="47.47925" lon="6.8188">
        <ele>423</ele>
        <time>2013-11-11T09:28:49.066Z</time>
      </trkpt>
      <trkpt lat="47.47926" lon="6.8187">
        <ele>423</ele>
        <time>2013-11-11T09:28:54.122Z</time>
      </trkpt>
      <trkpt lat="47.47921" lon="6.8185">
        <ele>422</ele>
        <time>2013-11-11T09:28:59.053Z</time>
      </trkpt>
      <trkpt lat="47.47922" lon="6.81819">
        <ele>420</ele>
        <time>2013-11-11T09:29:09.053Z</time>
      </trkpt>
      <trkpt lat="47.47922" lon="6.81819">
        <ele>420</ele>
        <time>2013-11-11T09:29:09.053Z</time>
      </trkpt>
      <trkpt lat="47.47915" lon="6.81786">
        <ele>420</ele>
        <time>2013-11-11T09:29:19.066Z</time>
      </trkpt>
      <trkpt lat="47.47914" lon="6.8179">
        <ele>420</ele>
        <time>2013-11-11T09:29:24.139Z</time>
      </trkpt>
      <trkpt lat="47.47915" lon="6.81785">
        <ele>419</ele>
        <time>2013-11-11T09:29:29.066Z</time>
      </trkpt>
      <trkpt lat="47.47915" lon="6.81777">
        <ele>418</ele>
        <time>2013-11-11T09:29:34.145Z</time>
      </trkpt>
      <trkpt lat="47.47915" lon="6.81772">
        <ele>417</ele>
        <time>2013-11-11T09:29:39.065Z</time>
      </trkpt>
      <trkpt lat="47.47916" lon="6.81771">
        <ele>417</ele>
        <time>2013-11-11T09:29:44.144Z</time>
      </trkpt>
      <trkpt lat="47.47913" lon="6.8177">
        <ele>417</ele>
        <time>2013-11-11T09:29:49.066Z</time>
      </trkpt>
      <trkpt lat="47.47911" lon="6.81769">
        <ele>416</ele>
        <time>2013-11-11T09:29:54.141Z</time>
      </trkpt>
      <trkpt lat="47.4791" lon="6.81772">
        <ele>416</ele>
        <time>2013-11-11T09:29:59.066Z</time>
      </trkpt>
      <trkpt lat="47.47908" lon="6.81778">
        <ele>417</ele>
        <time>2013-11-11T09:30:04.143Z</time>
      </trkpt>
      <trkpt lat="47.47908" lon="6.81778">
        <ele>417</ele>
        <time>2013-11-11T09:30:09.066Z</time>
      </trkpt>
      <trkpt lat="47.4791" lon="6.81772">
        <ele>417</ele>
        <time>2013-11-11T09:30:14.136Z</time>
      </trkpt>
      <trkpt lat="47.47904" lon="6.81761">
        <ele>420</ele>
        <time>2013-11-11T09:30:19.066Z</time>
      </trkpt>
      <trkpt lat="47.47903" lon="6.81749">
        <ele>420</ele>
        <time>2013-11-11T09:30:24.147Z</time>
      </trkpt>
      <trkpt lat="47.47902" lon="6.81732">
        <ele>419</ele>
        <time>2013-11-11T09:30:29.066Z</time>
      </trkpt>
      <trkpt lat="47.47904" lon="6.81722">
        <ele>418</ele>
        <time>2013-11-11T09:30:34.145Z</time>
      </trkpt>
      <trkpt lat="47.47902" lon="6.81719">
        <ele>418</ele>
        <time>2013-11-11T09:30:39.064Z</time>
      </trkpt>
      <trkpt lat="47.47907" lon="6.8171">
        <ele>419</ele>
        <time>2013-11-11T09:30:44.144Z</time>
      </trkpt>
      <trkpt lat="47.47908" lon="6.81699">
        <ele>421</ele>
        <time>2013-11-11T09:30:49.066Z</time>
      </trkpt>
      <trkpt lat="47.47905" lon="6.81696">
        <ele>422</ele>
        <time>2013-11-11T09:30:54.126Z</time>
      </trkpt>
      <trkpt lat="47.47907" lon="6.81692">
        <ele>422</ele>
        <time>2013-11-11T09:30:59.064Z</time>
      </trkpt>
      <trkpt lat="47.4791" lon="6.81686">
        <ele>421</ele>
        <time>2013-11-11T09:31:04.145Z</time>
      </trkpt>
      <trkpt lat="47.47914" lon="6.81678">
        <ele>421</ele>
        <time>2013-11-11T09:31:09.066Z</time>
      </trkpt>
      <trkpt lat="47.47914" lon="6.81671">
        <ele>420</ele>
        <time>2013-11-11T09:31:14.138Z</time>
      </trkpt>
      <trkpt lat="47.47918" lon="6.81669">
        <ele>420</ele>
        <time>2013-11-11T09:31:19.066Z</time>
      </trkpt>
      <trkpt lat="47.47919" lon="6.81663">
        <ele>420</ele>
        <time>2013-11-11T09:31:24.150Z</time>
      </trkpt>
      <trkpt lat="47.47917" lon="6.81656">
        <ele>419</ele>
        <time>2013-11-11T09:31:29.069Z</time>
      </trkpt>
      <trkpt lat="47.47914" lon="6.81652">
        <ele>419</ele>
        <time>2013-11-11T09:31:34.115Z</time>
      </trkpt>
      <trkpt lat="47.47915" lon="6.8165">
        <ele>416</ele>
        <time>2013-11-11T09:31:39.070Z</time>
      </trkpt>
      <trkpt lat="47.4792" lon="6.81639">
        <ele>414</ele>
        <time>2013-11-11T09:31:44.145Z</time>
      </trkpt>
      <trkpt lat="47.47924" lon="6.81626">
        <ele>415</ele>
        <time>2013-11-11T09:31:49.070Z</time>
      </trkpt>
      <trkpt lat="47.47926" lon="6.81617">
        <ele>416</ele>
        <time>2013-11-11T09:31:54.070Z</time>
      </trkpt>
      <trkpt lat="47.47929" lon="6.81605">
        <ele>416</ele>
        <time>2013-11-11T09:31:59.146Z</time>
      </trkpt>
      <trkpt lat="47.47934" lon="6.81588">
        <ele>416</ele>
        <time>2013-11-11T09:32:04.070Z</time>
      </trkpt>
      <trkpt lat="47.47934" lon="6.81572">
        <ele>417</ele>
        <time>2013-11-11T09:32:09.147Z</time>
      </trkpt>
      <trkpt lat="47.47934" lon="6.81558">
        <ele>417</ele>
        <time>2013-11-11T09:32:14.068Z</time>
      </trkpt>
      <trkpt lat="47.47937" lon="6.81545">
        <ele>418</ele>
        <time>2013-11-11T09:32:19.146Z</time>
      </trkpt>
      <trkpt lat="47.47939" lon="6.81535">
        <ele>417</ele>
        <time>2013-11-11T09:32:24.069Z</time>
      </trkpt>
      <trkpt lat="47.47944" lon="6.81525">
        <ele>417</ele>
        <time>2013-11-11T09:32:29.106Z</time>
      </trkpt>
      <trkpt lat="47.47947" lon="6.81516">
        <ele>417</ele>
        <time>2013-11-11T09:32:34.123Z</time>
      </trkpt>
      <trkpt lat="47.47948" lon="6.81508">
        <ele>416</ele>
        <time>2013-11-11T09:32:39.152Z</time>
      </trkpt>
      <trkpt lat="47.47952" lon="6.815">
        <ele>416</ele>
        <time>2013-11-11T09:32:44.068Z</time>
      </trkpt>
      <trkpt lat="47.47958" lon="6.81494">
        <ele>415</ele>
        <time>2013-11-11T09:32:49.146Z</time>
      </trkpt>
      <trkpt lat="47.47961" lon="6.81486">
        <ele>414</ele>
        <time>2013-11-11T09:32:54.070Z</time>
      </trkpt>
      <trkpt lat="47.48001" lon="6.81479">
        <ele>414</ele>
        <time>2013-11-11T09:33:14.053Z</time>
      </trkpt>
      <trkpt lat="47.48015" lon="6.81479">
        <ele>413</ele>
        <time>2013-11-11T09:33:19.145Z</time>
      </trkpt>
      <trkpt lat="47.48036" lon="6.81486">
        <ele>412</ele>
        <time>2013-11-11T09:33:24.166Z</time>
      </trkpt>
      <trkpt lat="47.48047" lon="6.81476">
        <ele>411</ele>
        <time>2013-11-11T09:33:29.063Z</time>
      </trkpt>
      <trkpt lat="47.48057" lon="6.81459">
        <ele>410</ele>
        <time>2013-11-11T09:33:34.063Z</time>
      </trkpt>
      <trkpt lat="47.48065" lon="6.81446">
        <ele>411</ele>
        <time>2013-11-11T09:33:39.244Z</time>
      </trkpt>
      <trkpt lat="47.48066" lon="6.81442">
        <ele>411</ele>
        <time>2013-11-11T09:33:44.166Z</time>
      </trkpt>
      <trkpt lat="47.48074" lon="6.81446">
        <ele>413</ele>
        <time>2013-11-11T09:33:49.244Z</time>
      </trkpt>
      <trkpt lat="47.48085" lon="6.81454">
        <ele>413</ele>
        <time>2013-11-11T09:33:54.164Z</time>
      </trkpt>
      <trkpt lat="47.48104" lon="6.81453">
        <ele>413</ele>
        <time>2013-11-11T09:33:59.397Z</time>
      </trkpt>
      <trkpt lat="47.48128" lon="6.81459">
        <ele>414</ele>
        <time>2013-11-11T09:34:04.167Z</time>
      </trkpt>
      <trkpt lat="47.48153" lon="6.81462">
        <ele>413</ele>
        <time>2013-11-11T09:34:09.218Z</time>
      </trkpt>
      <trkpt lat="47.48185" lon="6.81462">
        <ele>413</ele>
        <time>2013-11-11T09:34:14.156Z</time>
      </trkpt>
      <trkpt lat="47.48252" lon="6.81423">
        <ele>410</ele>
        <time>2013-11-11T09:34:24.170Z</time>
      </trkpt>
      <trkpt lat="47.48252" lon="6.81423">
        <ele>410</ele>
        <time>2013-11-11T09:34:24.170Z</time>
      </trkpt>
      <trkpt lat="47.4827" lon="6.81399">
        <ele>400</ele>
        <time>2013-11-11T09:34:34.172Z</time>
      </trkpt>
      <trkpt lat="47.48283" lon="6.81407">
        <ele>394</ele>
        <time>2013-11-11T09:34:39.246Z</time>
      </trkpt>
      <trkpt lat="47.48294" lon="6.81428">
        <ele>387</ele>
        <time>2013-11-11T09:34:44.169Z</time>
      </trkpt>
      <trkpt lat="47.48295" lon="6.81454">
        <ele>385</ele>
        <time>2013-11-11T09:34:49.209Z</time>
      </trkpt>
      <trkpt lat="47.48299" lon="6.8148">
        <ele>384</ele>
        <time>2013-11-11T09:34:54.168Z</time>
      </trkpt>
      <trkpt lat="47.48304" lon="6.81506">
        <ele>383</ele>
        <time>2013-11-11T09:34:59.246Z</time>
      </trkpt>
      <trkpt lat="47.48308" lon="6.81534">
        <ele>382</ele>
        <time>2013-11-11T09:35:04.170Z</time>
      </trkpt>
      <trkpt lat="47.48312" lon="6.81561">
        <ele>380</ele>
        <time>2013-11-11T09:35:09.245Z</time>
      </trkpt>
      <trkpt lat="47.48318" lon="6.81589">
        <ele>378</ele>
        <time>2013-11-11T09:35:14.168Z</time>
      </trkpt>
      <trkpt lat="47.48327" lon="6.81609">
        <ele>377</ele>
        <time>2013-11-11T09:35:19.232Z</time>
      </trkpt>
      <trkpt lat="47.48341" lon="6.81627">
        <ele>377</ele>
        <time>2013-11-11T09:35:24.172Z</time>
      </trkpt>
      <trkpt lat="47.48354" lon="6.81633">
        <ele>377</ele>
        <time>2013-11-11T09:35:29.240Z</time>
      </trkpt>
      <trkpt lat="47.48368" lon="6.81628">
        <ele>376</ele>
        <time>2013-11-11T09:35:34.171Z</time>
      </trkpt>
      <trkpt lat="47.48384" lon="6.81624">
        <ele>373</ele>
        <time>2013-11-11T09:35:39.247Z</time>
      </trkpt>
      <trkpt lat="47.48402" lon="6.81616">
        <ele>373</ele>
        <time>2013-11-11T09:35:44.172Z</time>
      </trkpt>
      <trkpt lat="47.48419" lon="6.81608">
        <ele>373</ele>
        <time>2013-11-11T09:35:49.247Z</time>
      </trkpt>
      <trkpt lat="47.4842" lon="6.81605">
        <ele>373</ele>
        <time>2013-11-11T09:35:54.172Z</time>
      </trkpt>
      <trkpt lat="47.48421" lon="6.81606">
        <ele>373</ele>
        <time>2013-11-11T09:35:59.246Z</time>
      </trkpt>
      <trkpt lat="47.48421" lon="6.81606">
        <ele>373</ele>
        <time>2013-11-11T09:36:04.161Z</time>
      </trkpt>
      <trkpt lat="47.48421" lon="6.81606">
        <ele>373</ele>
        <time>2013-11-11T09:36:09.217Z</time>
      </trkpt>
      <trkpt lat="47.48421" lon="6.81606">
        <ele>373</ele>
        <time>2013-11-11T09:36:14.178Z</time>
      </trkpt>
      <trkpt lat="47.48421" lon="6.81606">
        <ele>373</ele>
        <time>2013-11-11T09:36:19.249Z</time>
      </trkpt>
      <trkpt lat="47.48421" lon="6.81606">
        <ele>373</ele>
        <time>2013-11-11T09:36:24.178Z</time>
      </trkpt>
      <trkpt lat="47.48421" lon="6.81606">
        <ele>373</ele>
        <time>2013-11-11T09:36:29.242Z</time>
      </trkpt>
      <trkpt lat="47.48421" lon="6.81606">
        <ele>373</ele>
        <time>2013-11-11T09:36:34.174Z</time>
      </trkpt>
      <trkpt lat="47.48421" lon="6.81606">
        <ele>373</ele>
        <time>2013-11-11T09:36:39.246Z</time>
      </trkpt>
      <trkpt lat="47.48421" lon="6.81606">
        <ele>373</ele>
        <time>2013-11-11T09:36:44.169Z</time>
      </trkpt>
      <trkpt lat="47.48421" lon="6.81606">
        <ele>373</ele>
        <time>2013-11-11T09:36:49.203Z</time>
      </trkpt>
      <trkpt lat="47.48415" lon="6.81598">
        <ele>373</ele>
        <time>2013-11-11T09:36:54.170Z</time>
      </trkpt>
      <trkpt lat="47.48407" lon="6.81574">
        <ele>372</ele>
        <time>2013-11-11T09:36:59.244Z</time>
      </trkpt>
      <trkpt lat="47.48405" lon="6.81545">
        <ele>372</ele>
        <time>2013-11-11T09:37:04.168Z</time>
      </trkpt>
      <trkpt lat="47.48402" lon="6.81514">
        <ele>372</ele>
        <time>2013-11-11T09:37:09.242Z</time>
      </trkpt>
      <trkpt lat="47.48399" lon="6.81484">
        <ele>371</ele>
        <time>2013-11-11T09:37:14.169Z</time>
      </trkpt>
      <trkpt lat="47.48396" lon="6.81454">
        <ele>371</ele>
        <time>2013-11-11T09:37:19.247Z</time>
      </trkpt>
      <trkpt lat="47.48393" lon="6.81424">
        <ele>370</ele>
        <time>2013-11-11T09:37:24.170Z</time>
      </trkpt>
      <trkpt lat="47.48389" lon="6.81394">
        <ele>370</ele>
        <time>2013-11-11T09:37:29.170Z</time>
      </trkpt>
      <trkpt lat="47.48386" lon="6.81364">
        <ele>370</ele>
        <time>2013-11-11T09:37:34.246Z</time>
      </trkpt>
      <trkpt lat="47.48384" lon="6.81333">
        <ele>370</ele>
        <time>2013-11-11T09:37:39.170Z</time>
      </trkpt>
      <trkpt lat="47.48385" lon="6.81301">
        <ele>370</ele>
        <time>2013-11-11T09:37:44.227Z</time>
      </trkpt>
      <trkpt lat="47.4839" lon="6.81268">
        <ele>370</ele>
        <time>2013-11-11T09:37:49.170Z</time>
      </trkpt>
      <trkpt lat="47.48395" lon="6.81236">
        <ele>370</ele>
        <time>2013-11-11T09:37:54.251Z</time>
      </trkpt>
      <trkpt lat="47.484" lon="6.81207">
        <ele>371</ele>
        <time>2013-11-11T09:37:59.169Z</time>
      </trkpt>
      <trkpt lat="47.48407" lon="6.81172">
        <ele>371</ele>
        <time>2013-11-11T09:38:04.248Z</time>
      </trkpt>
      <trkpt lat="47.48414" lon="6.81134">
        <ele>370</ele>
        <time>2013-11-11T09:38:09.169Z</time>
      </trkpt>
      <trkpt lat="47.48421" lon="6.81098">
        <ele>370</ele>
        <time>2013-11-11T09:38:14.252Z</time>
      </trkpt>
      <trkpt lat="47.48428" lon="6.81062">
        <ele>370</ele>
        <time>2013-11-11T09:38:19.170Z</time>
      </trkpt>
      <trkpt lat="47.48434" lon="6.81029">
        <ele>369</ele>
        <time>2013-11-11T09:38:24.210Z</time>
      </trkpt>
      <trkpt lat="47.4844" lon="6.80998">
        <ele>370</ele>
        <time>2013-11-11T09:38:29.170Z</time>
      </trkpt>
      <trkpt lat="47.48446" lon="6.80964">
        <ele>370</ele>
        <time>2013-11-11T09:38:34.248Z</time>
      </trkpt>
      <trkpt lat="47.48453" lon="6.8093">
        <ele>370</ele>
        <time>2013-11-11T09:38:39.174Z</time>
      </trkpt>
      <trkpt lat="47.4846" lon="6.80897">
        <ele>370</ele>
        <time>2013-11-11T09:38:44.247Z</time>
      </trkpt>
      <trkpt lat="47.48467" lon="6.80864">
        <ele>371</ele>
        <time>2013-11-11T09:38:49.169Z</time>
      </trkpt>
      <trkpt lat="47.48476" lon="6.80834">
        <ele>372</ele>
        <time>2013-11-11T09:38:54.251Z</time>
      </trkpt>
      <trkpt lat="47.4848" lon="6.80796">
        <ele>373</ele>
        <time>2013-11-11T09:38:59.170Z</time>
      </trkpt>
      <trkpt lat="47.4848" lon="6.80762">
        <ele>373</ele>
        <time>2013-11-11T09:39:04.225Z</time>
      </trkpt>
      <trkpt lat="47.48477" lon="6.80733">
        <ele>373</ele>
        <time>2013-11-11T09:39:09.157Z</time>
      </trkpt>
      <trkpt lat="47.48479" lon="6.80698">
        <ele>373</ele>
        <time>2013-11-11T09:39:19.170Z</time>
      </trkpt>
      <trkpt lat="47.48479" lon="6.80698">
        <ele>373</ele>
        <time>2013-11-11T09:39:19.170Z</time>
      </trkpt>
      <trkpt lat="47.48486" lon="6.80682">
        <ele>373</ele>
        <time>2013-11-11T09:39:29.152Z</time>
      </trkpt>
      <trkpt lat="47.48511" lon="6.8066">
        <ele>378</ele>
        <time>2013-11-11T09:39:34.230Z</time>
      </trkpt>
      <trkpt lat="47.48518" lon="6.80638">
        <ele>378</ele>
        <time>2013-11-11T09:39:39.173Z</time>
      </trkpt>
      <trkpt lat="47.48526" lon="6.80618">
        <ele>378</ele>
        <time>2013-11-11T09:39:44.233Z</time>
      </trkpt>
      <trkpt lat="47.48531" lon="6.80601">
        <ele>380</ele>
        <time>2013-11-11T09:39:49.175Z</time>
      </trkpt>
      <trkpt lat="47.48537" lon="6.8057">
        <ele>379</ele>
        <time>2013-11-11T09:39:54.247Z</time>
      </trkpt>
      <trkpt lat="47.48544" lon="6.80539">
        <ele>378</ele>
        <time>2013-11-11T09:39:59.174Z</time>
      </trkpt>
      <trkpt lat="47.48552" lon="6.80508">
        <ele>377</ele>
        <time>2013-11-11T09:40:04.248Z</time>
      </trkpt>
      <trkpt lat="47.48559" lon="6.80478">
        <ele>376</ele>
        <time>2013-11-11T09:40:09.262Z</time>
      </trkpt>
      <trkpt lat="47.48568" lon="6.80448">
        <ele>376</ele>
        <time>2013-11-11T09:40:14.243Z</time>
      </trkpt>
      <trkpt lat="47.48576" lon="6.80427">
        <ele>376</ele>
        <time>2013-11-11T09:40:19.173Z</time>
      </trkpt>
      <trkpt lat="47.48586" lon="6.80413">
        <ele>377</ele>
        <time>2013-11-11T09:40:24.246Z</time>
      </trkpt>
      <trkpt lat="47.48596" lon="6.80391">
        <ele>377</ele>
        <time>2013-11-11T09:40:29.320Z</time>
      </trkpt>
      <trkpt lat="47.48605" lon="6.80375">
        <ele>378</ele>
        <time>2013-11-11T09:40:34.246Z</time>
      </trkpt>
      <trkpt lat="47.48619" lon="6.80352">
        <ele>380</ele>
        <time>2013-11-11T09:40:39.180Z</time>
      </trkpt>
      <trkpt lat="47.48631" lon="6.80329">
        <ele>381</ele>
        <time>2013-11-11T09:40:44.248Z</time>
      </trkpt>
      <trkpt lat="47.48645" lon="6.80305">
        <ele>382</ele>
        <time>2013-11-11T09:40:49.178Z</time>
      </trkpt>
      <trkpt lat="47.48656" lon="6.80279">
        <ele>383</ele>
        <time>2013-11-11T09:40:54.230Z</time>
      </trkpt>
      <trkpt lat="47.48693" lon="6.80215">
        <ele>386</ele>
        <time>2013-11-11T09:41:09.231Z</time>
      </trkpt>
      <trkpt lat="47.48702" lon="6.80191">
        <ele>383</ele>
        <time>2013-11-11T09:41:14.329Z</time>
      </trkpt>
      <trkpt lat="47.48706" lon="6.80165">
        <ele>383</ele>
        <time>2013-11-11T09:41:19.177Z</time>
      </trkpt>
      <trkpt lat="47.48706" lon="6.80138">
        <ele>383</ele>
        <time>2013-11-11T09:41:24.249Z</time>
      </trkpt>
      <trkpt lat="47.48707" lon="6.80111">
        <ele>382</ele>
        <time>2013-11-11T09:41:29.175Z</time>
      </trkpt>
      <trkpt lat="47.48705" lon="6.80082">
        <ele>382</ele>
        <time>2013-11-11T09:41:34.174Z</time>
      </trkpt>
      <trkpt lat="47.48705" lon="6.80049">
        <ele>381</ele>
        <time>2013-11-11T09:41:39.246Z</time>
      </trkpt>
      <trkpt lat="47.48707" lon="6.80015">
        <ele>381</ele>
        <time>2013-11-11T09:41:44.178Z</time>
      </trkpt>
      <trkpt lat="47.48704" lon="6.79949">
        <ele>381</ele>
        <time>2013-11-11T09:41:54.169Z</time>
      </trkpt>
      <trkpt lat="47.48702" lon="6.79915">
        <ele>381</ele>
        <time>2013-11-11T09:41:59.245Z</time>
      </trkpt>
      <trkpt lat="47.487" lon="6.79878">
        <ele>379</ele>
        <time>2013-11-11T09:42:04.174Z</time>
      </trkpt>
      <trkpt lat="47.48697" lon="6.79842">
        <ele>378</ele>
        <time>2013-11-11T09:42:09.218Z</time>
      </trkpt>
      <trkpt lat="47.48693" lon="6.79806">
        <ele>378</ele>
        <time>2013-11-11T09:42:14.172Z</time>
      </trkpt>
      <trkpt lat="47.48688" lon="6.79771">
        <ele>379</ele>
        <time>2013-11-11T09:42:19.253Z</time>
      </trkpt>
      <trkpt lat="47.48683" lon="6.79737">
        <ele>379</ele>
        <time>2013-11-11T09:42:24.173Z</time>
      </trkpt>
      <trkpt lat="47.48676" lon="6.79701">
        <ele>379</ele>
        <time>2013-11-11T09:42:29.247Z</time>
      </trkpt>
      <trkpt lat="47.48668" lon="6.79665">
        <ele>379</ele>
        <time>2013-11-11T09:42:34.174Z</time>
      </trkpt>
      <trkpt lat="47.4866" lon="6.79631">
        <ele>380</ele>
        <time>2013-11-11T09:42:39.252Z</time>
      </trkpt>
      <trkpt lat="47.48649" lon="6.79599">
        <ele>380</ele>
        <time>2013-11-11T09:42:44.175Z</time>
      </trkpt>
      <trkpt lat="47.48636" lon="6.79568">
        <ele>380</ele>
        <time>2013-11-11T09:42:49.248Z</time>
      </trkpt>
      <trkpt lat="47.48624" lon="6.79538">
        <ele>381</ele>
        <time>2013-11-11T09:42:54.172Z</time>
      </trkpt>
      <trkpt lat="47.4861" lon="6.7951">
        <ele>381</ele>
        <time>2013-11-11T09:42:59.246Z</time>
      </trkpt>
      <trkpt lat="47.48597" lon="6.79479">
        <ele>381</ele>
        <time>2013-11-11T09:43:04.177Z</time>
      </trkpt>
      <trkpt lat="47.48581" lon="6.79447">
        <ele>380</ele>
        <time>2013-11-11T09:43:09.237Z</time>
      </trkpt>
      <trkpt lat="47.48566" lon="6.79416">
        <ele>381</ele>
        <time>2013-11-11T09:43:14.179Z</time>
      </trkpt>
      <trkpt lat="47.48551" lon="6.79386">
        <ele>381</ele>
        <time>2013-11-11T09:43:19.239Z</time>
      </trkpt>
      <trkpt lat="47.48536" lon="6.79356">
        <ele>382</ele>
        <time>2013-11-11T09:43:24.172Z</time>
      </trkpt>
      <trkpt lat="47.48521" lon="6.79326">
        <ele>383</ele>
        <time>2013-11-11T09:43:29.246Z</time>
      </trkpt>
      <trkpt lat="47.48506" lon="6.79295">
        <ele>383</ele>
        <time>2013-11-11T09:43:34.176Z</time>
      </trkpt>
      <trkpt lat="47.4849" lon="6.79264">
        <ele>383</ele>
        <time>2013-11-11T09:43:39.329Z</time>
      </trkpt>
      <trkpt lat="47.48475" lon="6.79232">
        <ele>383</ele>
        <time>2013-11-11T09:43:44.247Z</time>
      </trkpt>
      <trkpt lat="47.48459" lon="6.792">
        <ele>383</ele>
        <time>2013-11-11T09:43:49.175Z</time>
      </trkpt>
      <trkpt lat="47.48446" lon="6.79169">
        <ele>383</ele>
        <time>2013-11-11T09:43:54.246Z</time>
      </trkpt>
      <trkpt lat="47.48433" lon="6.7914">
        <ele>384</ele>
        <time>2013-11-11T09:43:59.173Z</time>
      </trkpt>
      <trkpt lat="47.48422" lon="6.79114">
        <ele>384</ele>
        <time>2013-11-11T09:44:04.248Z</time>
      </trkpt>
      <trkpt lat="47.48416" lon="6.79092">
        <ele>385</ele>
        <time>2013-11-11T09:44:09.174Z</time>
      </trkpt>
      <trkpt lat="47.48419" lon="6.79068">
        <ele>385</ele>
        <time>2013-11-11T09:44:14.245Z</time>
      </trkpt>
      <trkpt lat="47.48423" lon="6.79038">
        <ele>384</ele>
        <time>2013-11-11T09:44:19.248Z</time>
      </trkpt>
      <trkpt lat="47.48428" lon="6.79006">
        <ele>383</ele>
        <time>2013-11-11T09:44:24.173Z</time>
      </trkpt>
      <trkpt lat="47.48433" lon="6.78973">
        <ele>383</ele>
        <time>2013-11-11T09:44:29.217Z</time>
      </trkpt>
      <trkpt lat="47.48438" lon="6.7894">
        <ele>382</ele>
        <time>2013-11-11T09:44:34.174Z</time>
      </trkpt>
      <trkpt lat="47.48444" lon="6.78907">
        <ele>382</ele>
        <time>2013-11-11T09:44:39.250Z</time>
      </trkpt>
      <trkpt lat="47.4845" lon="6.78874">
        <ele>382</ele>
        <time>2013-11-11T09:44:44.173Z</time>
      </trkpt>
      <trkpt lat="47.48454" lon="6.7884">
        <ele>381</ele>
        <time>2013-11-11T09:44:49.248Z</time>
      </trkpt>
      <trkpt lat="47.4846" lon="6.78807">
        <ele>382</ele>
        <time>2013-11-11T09:44:54.173Z</time>
      </trkpt>
      <trkpt lat="47.48466" lon="6.78775">
        <ele>382</ele>
        <time>2013-11-11T09:44:59.254Z</time>
      </trkpt>
      <trkpt lat="47.48473" lon="6.78745">
        <ele>382</ele>
        <time>2013-11-11T09:45:04.277Z</time>
      </trkpt>
      <trkpt lat="47.4848" lon="6.78713">
        <ele>382</ele>
        <time>2013-11-11T09:45:09.175Z</time>
      </trkpt>
      <trkpt lat="47.48483" lon="6.7868">
        <ele>382</ele>
        <time>2013-11-11T09:45:14.249Z</time>
      </trkpt>
      <trkpt lat="47.48491" lon="6.78646">
        <ele>381</ele>
        <time>2013-11-11T09:45:19.175Z</time>
      </trkpt>
      <trkpt lat="47.48499" lon="6.78614">
        <ele>382</ele>
        <time>2013-11-11T09:45:24.174Z</time>
      </trkpt>
      <trkpt lat="47.48505" lon="6.78581">
        <ele>382</ele>
        <time>2013-11-11T09:45:29.248Z</time>
      </trkpt>
      <trkpt lat="47.48504" lon="6.78547">
        <ele>383</ele>
        <time>2013-11-11T09:45:34.175Z</time>
      </trkpt>
      <trkpt lat="47.48495" lon="6.78513">
        <ele>384</ele>
        <time>2013-11-11T09:45:39.249Z</time>
      </trkpt>
      <trkpt lat="47.48489" lon="6.78478">
        <ele>384</ele>
        <time>2013-11-11T09:45:44.472Z</time>
      </trkpt>
      <trkpt lat="47.48482" lon="6.78444">
        <ele>384</ele>
        <time>2013-11-11T09:45:49.174Z</time>
      </trkpt>
      <trkpt lat="47.48478" lon="6.78409">
        <ele>385</ele>
        <time>2013-11-11T09:45:54.248Z</time>
      </trkpt>
      <trkpt lat="47.48475" lon="6.78374">
        <ele>386</ele>
        <time>2013-11-11T09:45:59.174Z</time>
      </trkpt>
      <trkpt lat="47.48471" lon="6.78339">
        <ele>386</ele>
        <time>2013-11-11T09:46:04.227Z</time>
      </trkpt>
      <trkpt lat="47.48467" lon="6.78303">
        <ele>386</ele>
        <time>2013-11-11T09:46:09.160Z</time>
      </trkpt>
      <trkpt lat="47.48461" lon="6.78236">
        <ele>386</ele>
        <time>2013-11-11T09:46:19.174Z</time>
      </trkpt>
      <trkpt lat="47.48461" lon="6.78236">
        <ele>386</ele>
        <time>2013-11-11T09:46:19.174Z</time>
      </trkpt>
      <trkpt lat="47.48455" lon="6.78166">
        <ele>387</ele>
        <time>2013-11-11T09:46:29.182Z</time>
      </trkpt>
      <trkpt lat="47.48459" lon="6.78132">
        <ele>386</ele>
        <time>2013-11-11T09:46:34.250Z</time>
      </trkpt>
      <trkpt lat="47.48467" lon="6.78099">
        <ele>386</ele>
        <time>2013-11-11T09:46:39.175Z</time>
      </trkpt>
      <trkpt lat="47.48475" lon="6.78066">
        <ele>387</ele>
        <time>2013-11-11T09:46:44.234Z</time>
      </trkpt>
      <trkpt lat="47.48483" lon="6.78034">
        <ele>387</ele>
        <time>2013-11-11T09:46:49.159Z</time>
      </trkpt>
      <trkpt lat="47.48492" lon="6.78002">
        <ele>387</ele>
        <time>2013-11-11T09:46:54.247Z</time>
      </trkpt>
      <trkpt lat="47.48509" lon="6.7798">
        <ele>387</ele>
        <time>2013-11-11T09:46:59.176Z</time>
      </trkpt>
      <trkpt lat="47.48547" lon="6.77918">
        <ele>385</ele>
        <time>2013-11-11T09:47:14.248Z</time>
      </trkpt>
      <trkpt lat="47.48555" lon="6.77884">
        <ele>384</ele>
        <time>2013-11-11T09:47:19.172Z</time>
      </trkpt>
      <trkpt lat="47.48562" lon="6.7785">
        <ele>382</ele>
        <time>2013-11-11T09:47:24.215Z</time>
      </trkpt>
      <trkpt lat="47.48569" lon="6.77817">
        <ele>382</ele>
        <time>2013-11-11T09:47:29.172Z</time>
      </trkpt>
      <trkpt lat="47.48575" lon="6.77784">
        <ele>382</ele>
        <time>2013-11-11T09:47:34.219Z</time>
      </trkpt>
      <trkpt lat="47.48582" lon="6.77752">
        <ele>382</ele>
        <time>2013-11-11T09:47:39.172Z</time>
      </trkpt>
      <trkpt lat="47.48583" lon="6.77719">
        <ele>384</ele>
        <time>2013-11-11T09:47:44.249Z</time>
      </trkpt>
      <trkpt lat="47.4859" lon="6.77687">
        <ele>386</ele>
        <time>2013-11-11T09:47:49.172Z</time>
      </trkpt>
      <trkpt lat="47.48598" lon="6.77656">
        <ele>386</ele>
        <time>2013-11-11T09:47:54.252Z</time>
      </trkpt>
      <trkpt lat="47.48606" lon="6.77624">
        <ele>385</ele>
        <time>2013-11-11T09:47:59.172Z</time>
      </trkpt>
      <trkpt lat="47.48607" lon="6.77593">
        <ele>386</ele>
        <time>2013-11-11T09:48:04.242Z</time>
      </trkpt>
      <trkpt lat="47.48596" lon="6.77566">
        <ele>386</ele>
        <time>2013-11-11T09:48:09.167Z</time>
      </trkpt>
      <trkpt lat="47.48584" lon="6.77542">
        <ele>387</ele>
        <time>2013-11-11T09:48:14.247Z</time>
      </trkpt>
      <trkpt lat="47.4857" lon="6.77521">
        <ele>386</ele>
        <time>2013-11-11T09:48:19.167Z</time>
      </trkpt>
      <trkpt lat="47.48562" lon="6.77495">
        <ele>388</ele>
        <time>2013-11-11T09:48:24.224Z</time>
      </trkpt>
      <trkpt lat="47.4855" lon="6.77476">
        <ele>391</ele>
        <time>2013-11-11T09:48:29.164Z</time>
      </trkpt>
      <trkpt lat="47.48536" lon="6.77458">
        <ele>393</ele>
        <time>2013-11-11T09:48:34.247Z</time>
      </trkpt>
      <trkpt lat="47.48517" lon="6.77439">
        <ele>394</ele>
        <time>2013-11-11T09:48:39.164Z</time>
      </trkpt>
      <trkpt lat="47.48498" lon="6.77418">
        <ele>396</ele>
        <time>2013-11-11T09:48:44.246Z</time>
      </trkpt>
      <trkpt lat="47.48477" lon="6.77396">
        <ele>397</ele>
        <time>2013-11-11T09:48:49.164Z</time>
      </trkpt>
      <trkpt lat="47.48456" lon="6.77374">
        <ele>398</ele>
        <time>2013-11-11T09:48:54.211Z</time>
      </trkpt>
      <trkpt lat="47.48435" lon="6.77353">
        <ele>399</ele>
        <time>2013-11-11T09:48:59.164Z</time>
      </trkpt>
      <trkpt lat="47.48415" lon="6.77332">
        <ele>400</ele>
        <time>2013-11-11T09:49:04.165Z</time>
      </trkpt>
      <trkpt lat="47.48394" lon="6.77314">
        <ele>401</ele>
        <time>2013-11-11T09:49:09.246Z</time>
      </trkpt>
      <trkpt lat="47.48374" lon="6.77296">
        <ele>402</ele>
        <time>2013-11-11T09:49:14.164Z</time>
      </trkpt>
      <trkpt lat="47.48353" lon="6.7728">
        <ele>403</ele>
        <time>2013-11-11T09:49:19.243Z</time>
      </trkpt>
      <trkpt lat="47.48331" lon="6.77264">
        <ele>404</ele>
        <time>2013-11-11T09:49:24.162Z</time>
      </trkpt>
      <trkpt lat="47.48286" lon="6.7724">
        <ele>405</ele>
        <time>2013-11-11T09:49:34.163Z</time>
      </trkpt>
      <trkpt lat="47.48286" lon="6.7724">
        <ele>405</ele>
        <time>2013-11-11T09:49:34.163Z</time>
      </trkpt>
      <trkpt lat="47.48244" lon="6.77212">
        <ele>404</ele>
        <time>2013-11-11T09:49:44.170Z</time>
      </trkpt>
      <trkpt lat="47.48244" lon="6.77179">
        <ele>401</ele>
        <time>2013-11-11T09:49:49.247Z</time>
      </trkpt>
      <trkpt lat="47.48252" lon="6.77145">
        <ele>397</ele>
        <time>2013-11-11T09:49:54.168Z</time>
      </trkpt>
      <trkpt lat="47.48258" lon="6.77119">
        <ele>394</ele>
        <time>2013-11-11T09:49:59.248Z</time>
      </trkpt>
      <trkpt lat="47.48263" lon="6.77117">
        <ele>393</ele>
        <time>2013-11-11T09:50:04.172Z</time>
      </trkpt>
      <trkpt lat="47.48269" lon="6.77105">
        <ele>392</ele>
        <time>2013-11-11T09:50:09.247Z</time>
      </trkpt>
      <trkpt lat="47.48278" lon="6.771">
        <ele>389</ele>
        <time>2013-11-11T09:50:14.166Z</time>
      </trkpt>
      <trkpt lat="47.48284" lon="6.77093">
        <ele>387</ele>
        <time>2013-11-11T09:50:19.207Z</time>
      </trkpt>
      <trkpt lat="47.4829" lon="6.77091">
        <ele>387</ele>
        <time>2013-11-11T09:50:24.167Z</time>
      </trkpt>
      <trkpt lat="47.48296" lon="6.77093">
        <ele>385</ele>
        <time>2013-11-11T09:50:29.255Z</time>
      </trkpt>
      <trkpt lat="47.48299" lon="6.77096">
        <ele>383</ele>
        <time>2013-11-11T09:50:34.175Z</time>
      </trkpt>
      <trkpt lat="47.48305" lon="6.77102">
        <ele>382</ele>
        <time>2013-11-11T09:50:39.218Z</time>
      </trkpt>
      <trkpt lat="47.48308" lon="6.77106">
        <ele>383</ele>
        <time>2013-11-11T09:50:44.168Z</time>
      </trkpt>
      <trkpt lat="47.48311" lon="6.7711">
        <ele>383</ele>
        <time>2013-11-11T09:50:49.246Z</time>
      </trkpt>
      <trkpt lat="47.48315" lon="6.77114">
        <ele>383</ele>
        <time>2013-11-11T09:50:54.170Z</time>
      </trkpt>
      <trkpt lat="47.48324" lon="6.77125">
        <ele>381</ele>
        <time>2013-11-11T09:50:59.169Z</time>
      </trkpt>
      <trkpt lat="47.48331" lon="6.77132">
        <ele>380</ele>
        <time>2013-11-11T09:51:04.247Z</time>
      </trkpt>
      <trkpt lat="47.48335" lon="6.77138">
        <ele>380</ele>
        <time>2013-11-11T09:51:09.171Z</time>
      </trkpt>
      <trkpt lat="47.48337" lon="6.77145">
        <ele>381</ele>
        <time>2013-11-11T09:51:14.225Z</time>
      </trkpt>
      <trkpt lat="47.48333" lon="6.77148">
        <ele>381</ele>
        <time>2013-11-11T09:51:19.172Z</time>
      </trkpt>
      <trkpt lat="47.48333" lon="6.77153">
        <ele>382</ele>
        <time>2013-11-11T09:51:24.248Z</time>
      </trkpt>
      <trkpt lat="47.48334" lon="6.77156">
        <ele>383</ele>
        <time>2013-11-11T09:51:29.172Z</time>
      </trkpt>
      <trkpt lat="47.48334" lon="6.77156">
        <ele>383</ele>
        <time>2013-11-11T09:51:34.216Z</time>
      </trkpt>
      <trkpt lat="47.48333" lon="6.77159">
        <ele>383</ele>
        <time>2013-11-11T09:51:39.246Z</time>
      </trkpt>
      <trkpt lat="47.48333" lon="6.77167">
        <ele>383</ele>
        <time>2013-11-11T09:51:44.170Z</time>
      </trkpt>
      <trkpt lat="47.48331" lon="6.77174">
        <ele>385</ele>
        <time>2013-11-11T09:51:49.247Z</time>
      </trkpt>
      <trkpt lat="47.48331" lon="6.7718">
        <ele>386</ele>
        <time>2013-11-11T09:51:54.171Z</time>
      </trkpt>
      <trkpt lat="47.48336" lon="6.77192">
        <ele>386</ele>
        <time>2013-11-11T09:51:59.232Z</time>
      </trkpt>
      <trkpt lat="47.48335" lon="6.77199">
        <ele>387</ele>
        <time>2013-11-11T09:52:04.247Z</time>
      </trkpt>
      <trkpt lat="47.48337" lon="6.77208">
        <ele>389</ele>
        <time>2013-11-11T09:52:09.171Z</time>
      </trkpt>
      <trkpt lat="47.48343" lon="6.77221">
        <ele>389</ele>
        <time>2013-11-11T09:52:14.246Z</time>
      </trkpt>
      <trkpt lat="47.4835" lon="6.77229">
        <ele>388</ele>
        <time>2013-11-11T09:52:19.178Z</time>
      </trkpt>
      <trkpt lat="47.48355" lon="6.77233">
        <ele>390</ele>
        <time>2013-11-11T09:52:24.248Z</time>
      </trkpt>
      <trkpt lat="47.48361" lon="6.77236">
        <ele>391</ele>
        <time>2013-11-11T09:52:29.172Z</time>
      </trkpt>
      <trkpt lat="47.48368" lon="6.77241">
        <ele>392</ele>
        <time>2013-11-11T09:52:34.207Z</time>
      </trkpt>
      <trkpt lat="47.48379" lon="6.77253">
        <ele>394</ele>
        <time>2013-11-11T09:52:39.229Z</time>
      </trkpt>
      <trkpt lat="47.48387" lon="6.77262">
        <ele>395</ele>
        <time>2013-11-11T09:52:44.171Z</time>
      </trkpt>
      <trkpt lat="47.48397" lon="6.77271">
        <ele>395</ele>
        <time>2013-11-11T09:52:49.229Z</time>
      </trkpt>
      <trkpt lat="47.48401" lon="6.77274">
        <ele>395</ele>
        <time>2013-11-11T09:52:54.172Z</time>
      </trkpt>
      <trkpt lat="47.48402" lon="6.77274">
        <ele>395</ele>
        <time>2013-11-11T09:52:59.243Z</time>
      </trkpt>
      <trkpt lat="47.48405" lon="6.77275">
        <ele>396</ele>
        <time>2013-11-11T09:53:04.174Z</time>
      </trkpt>
      <trkpt lat="47.48409" lon="6.77278">
        <ele>397</ele>
        <time>2013-11-11T09:53:09.249Z</time>
      </trkpt>
      <trkpt lat="47.48415" lon="6.77283">
        <ele>398</ele>
        <time>2013-11-11T09:53:14.171Z</time>
      </trkpt>
      <trkpt lat="47.48423" lon="6.77293">
        <ele>399</ele>
        <time>2013-11-11T09:53:19.220Z</time>
      </trkpt>
      <trkpt lat="47.48429" lon="6.77301">
        <ele>400</ele>
        <time>2013-11-11T09:53:24.172Z</time>
      </trkpt>
      <trkpt lat="47.48437" lon="6.77313">
        <ele>401</ele>
        <time>2013-11-11T09:53:29.219Z</time>
      </trkpt>
      <trkpt lat="47.48444" lon="6.77322">
        <ele>402</ele>
        <time>2013-11-11T09:53:34.176Z</time>
      </trkpt>
      <trkpt lat="47.48451" lon="6.77332">
        <ele>403</ele>
        <time>2013-11-11T09:53:39.247Z</time>
      </trkpt>
      <trkpt lat="47.48461" lon="6.77342">
        <ele>403</ele>
        <time>2013-11-11T09:53:44.176Z</time>
      </trkpt>
      <trkpt lat="47.48471" lon="6.77354">
        <ele>403</ele>
        <time>2013-11-11T09:53:49.247Z</time>
      </trkpt>
      <trkpt lat="47.48479" lon="6.77362">
        <ele>403</ele>
        <time>2013-11-11T09:53:54.177Z</time>
      </trkpt>
      <trkpt lat="47.48488" lon="6.77372">
        <ele>404</ele>
        <time>2013-11-11T09:53:59.247Z</time>
      </trkpt>
      <trkpt lat="47.48497" lon="6.77381">
        <ele>405</ele>
        <time>2013-11-11T09:54:04.176Z</time>
      </trkpt>
      <trkpt lat="47.48506" lon="6.7739">
        <ele>405</ele>
        <time>2013-11-11T09:54:09.224Z</time>
      </trkpt>
      <trkpt lat="47.48514" lon="6.77398">
        <ele>404</ele>
        <time>2013-11-11T09:54:14.174Z</time>
      </trkpt>
      <trkpt lat="47.48525" lon="6.77408">
        <ele>404</ele>
        <time>2013-11-11T09:54:19.222Z</time>
      </trkpt>
      <trkpt lat="47.48534" lon="6.77418">
        <ele>404</ele>
        <time>2013-11-11T09:54:24.162Z</time>
      </trkpt>
      <trkpt lat="47.48551" lon="6.77437">
        <ele>405</ele>
        <time>2013-11-11T09:54:34.171Z</time>
      </trkpt>
      <trkpt lat="47.48551" lon="6.77437">
        <ele>405</ele>
        <time>2013-11-11T09:54:34.171Z</time>
      </trkpt>
      <trkpt lat="47.48569" lon="6.77452">
        <ele>405</ele>
        <time>2013-11-11T09:54:44.170Z</time>
      </trkpt>
      <trkpt lat="47.48576" lon="6.77464">
        <ele>405</ele>
        <time>2013-11-11T09:54:49.247Z</time>
      </trkpt>
      <trkpt lat="47.48583" lon="6.77469">
        <ele>404</ele>
        <time>2013-11-11T09:54:54.171Z</time>
      </trkpt>
      <trkpt lat="47.48587" lon="6.77476">
        <ele>404</ele>
        <time>2013-11-11T09:54:59.246Z</time>
      </trkpt>
      <trkpt lat="47.48595" lon="6.77486">
        <ele>405</ele>
        <time>2013-11-11T09:55:04.226Z</time>
      </trkpt>
      <trkpt lat="47.48605" lon="6.77497">
        <ele>405</ele>
        <time>2013-11-11T09:55:09.170Z</time>
      </trkpt>
      <trkpt lat="47.48615" lon="6.77502">
        <ele>405</ele>
        <time>2013-11-11T09:55:14.246Z</time>
      </trkpt>
      <trkpt lat="47.48617" lon="6.77503">
        <ele>407</ele>
        <time>2013-11-11T09:55:19.179Z</time>
      </trkpt>
      <trkpt lat="47.48619" lon="6.77505">
        <ele>407</ele>
        <time>2013-11-11T09:55:24.247Z</time>
      </trkpt>
      <trkpt lat="47.48624" lon="6.77509">
        <ele>407</ele>
        <time>2013-11-11T09:55:29.173Z</time>
      </trkpt>
      <trkpt lat="47.48634" lon="6.7752">
        <ele>406</ele>
        <time>2013-11-11T09:55:34.230Z</time>
      </trkpt>
      <trkpt lat="47.48638" lon="6.77532">
        <ele>405</ele>
        <time>2013-11-11T09:55:39.171Z</time>
      </trkpt>
      <trkpt lat="47.4865" lon="6.77545">
        <ele>405</ele>
        <time>2013-11-11T09:55:44.248Z</time>
      </trkpt>
      <trkpt lat="47.48657" lon="6.77558">
        <ele>406</ele>
        <time>2013-11-11T09:55:49.171Z</time>
      </trkpt>
      <trkpt lat="47.48663" lon="6.77567">
        <ele>405</ele>
        <time>2013-11-11T09:55:54.247Z</time>
      </trkpt>
      <trkpt lat="47.48672" lon="6.7758">
        <ele>405</ele>
        <time>2013-11-11T09:55:59.171Z</time>
      </trkpt>
      <trkpt lat="47.4868" lon="6.77596">
        <ele>404</ele>
        <time>2013-11-11T09:56:04.247Z</time>
      </trkpt>
      <trkpt lat="47.48687" lon="6.77612">
        <ele>404</ele>
        <time>2013-11-11T09:56:09.171Z</time>
      </trkpt>
      <trkpt lat="47.48698" lon="6.77625">
        <ele>404</ele>
        <time>2013-11-11T09:56:14.171Z</time>
      </trkpt>
      <trkpt lat="47.4871" lon="6.77639">
        <ele>405</ele>
        <time>2013-11-11T09:56:19.247Z</time>
      </trkpt>
      <trkpt lat="47.48717" lon="6.77648">
        <ele>404</ele>
        <time>2013-11-11T09:56:24.170Z</time>
      </trkpt>
      <trkpt lat="47.48725" lon="6.77659">
        <ele>404</ele>
        <time>2013-11-11T09:56:29.246Z</time>
      </trkpt>
      <trkpt lat="47.48734" lon="6.77666">
        <ele>404</ele>
        <time>2013-11-11T09:56:34.180Z</time>
      </trkpt>
      <trkpt lat="47.48742" lon="6.77676">
        <ele>402</ele>
        <time>2013-11-11T09:56:39.241Z</time>
      </trkpt>
      <trkpt lat="47.48748" lon="6.77682">
        <ele>398</ele>
        <time>2013-11-11T09:56:44.182Z</time>
      </trkpt>
      <trkpt lat="47.48749" lon="6.77681">
        <ele>396</ele>
        <time>2013-11-11T09:56:49.249Z</time>
      </trkpt>
      <trkpt lat="47.48752" lon="6.77685">
        <ele>394</ele>
        <time>2013-11-11T09:56:54.177Z</time>
      </trkpt>
      <trkpt lat="47.4876" lon="6.77694">
        <ele>392</ele>
        <time>2013-11-11T09:56:59.244Z</time>
      </trkpt>
      <trkpt lat="47.48765" lon="6.77705">
        <ele>392</ele>
        <time>2013-11-11T09:57:04.178Z</time>
      </trkpt>
      <trkpt lat="47.48772" lon="6.77717">
        <ele>391</ele>
        <time>2013-11-11T09:57:09.249Z</time>
      </trkpt>
      <trkpt lat="47.48779" lon="6.7773">
        <ele>390</ele>
        <time>2013-11-11T09:57:14.173Z</time>
      </trkpt>
      <trkpt lat="47.48786" lon="6.77744">
        <ele>390</ele>
        <time>2013-11-11T09:57:19.231Z</time>
      </trkpt>
      <trkpt lat="47.48791" lon="6.77755">
        <ele>391</ele>
        <time>2013-11-11T09:57:24.175Z</time>
      </trkpt>
      <trkpt lat="47.48796" lon="6.77765">
        <ele>391</ele>
        <time>2013-11-11T09:57:29.249Z</time>
      </trkpt>
      <trkpt lat="47.48804" lon="6.77779">
        <ele>392</ele>
        <time>2013-11-11T09:57:34.176Z</time>
      </trkpt>
      <trkpt lat="47.48812" lon="6.77793">
        <ele>392</ele>
        <time>2013-11-11T09:57:39.248Z</time>
      </trkpt>
      <trkpt lat="47.48819" lon="6.77805">
        <ele>393</ele>
        <time>2013-11-11T09:57:44.174Z</time>
      </trkpt>
      <trkpt lat="47.48825" lon="6.7782">
        <ele>393</ele>
        <time>2013-11-11T09:57:49.240Z</time>
      </trkpt>
      <trkpt lat="47.48827" lon="6.77829">
        <ele>394</ele>
        <time>2013-11-11T09:57:54.176Z</time>
      </trkpt>
      <trkpt lat="47.48833" lon="6.77837">
        <ele>394</ele>
        <time>2013-11-11T09:57:59.246Z</time>
      </trkpt>
      <trkpt lat="47.48839" lon="6.77851">
        <ele>395</ele>
        <time>2013-11-11T09:58:04.171Z</time>
      </trkpt>
      <trkpt lat="47.48844" lon="6.77863">
        <ele>395</ele>
        <time>2013-11-11T09:58:09.248Z</time>
      </trkpt>
      <trkpt lat="47.48851" lon="6.77879">
        <ele>396</ele>
        <time>2013-11-11T09:58:14.171Z</time>
      </trkpt>
      <trkpt lat="47.48855" lon="6.77889">
        <ele>396</ele>
        <time>2013-11-11T09:58:19.247Z</time>
      </trkpt>
      <trkpt lat="47.48864" lon="6.77913">
        <ele>393</ele>
        <time>2013-11-11T09:58:29.177Z</time>
      </trkpt>
      <trkpt lat="47.48872" lon="6.77927">
        <ele>393</ele>
        <time>2013-11-11T09:58:34.243Z</time>
      </trkpt>
      <trkpt lat="47.4888" lon="6.77939">
        <ele>392</ele>
        <time>2013-11-11T09:58:39.182Z</time>
      </trkpt>
      <trkpt lat="47.4889" lon="6.77953">
        <ele>393</ele>
        <time>2013-11-11T09:58:44.247Z</time>
      </trkpt>
      <trkpt lat="47.489" lon="6.77972">
        <ele>394</ele>
        <time>2013-11-11T09:58:49.184Z</time>
      </trkpt>
      <trkpt lat="47.48903" lon="6.77986">
        <ele>395</ele>
        <time>2013-11-11T09:58:54.247Z</time>
      </trkpt>
      <trkpt lat="47.48908" lon="6.78004">
        <ele>395</ele>
        <time>2013-11-11T09:58:59.182Z</time>
      </trkpt>
      <trkpt lat="47.48915" lon="6.78022">
        <ele>395</ele>
        <time>2013-11-11T09:59:04.249Z</time>
      </trkpt>
      <trkpt lat="47.48919" lon="6.78041">
        <ele>394</ele>
        <time>2013-11-11T09:59:09.181Z</time>
      </trkpt>
      <trkpt lat="47.48924" lon="6.78056">
        <ele>394</ele>
        <time>2013-11-11T09:59:14.250Z</time>
      </trkpt>
      <trkpt lat="47.48928" lon="6.78065">
        <ele>395</ele>
        <time>2013-11-11T09:59:19.164Z</time>
      </trkpt>
      <trkpt lat="47.48935" lon="6.7808">
        <ele>395</ele>
        <time>2013-11-11T09:59:24.250Z</time>
      </trkpt>
      <trkpt lat="47.48942" lon="6.78097">
        <ele>394</ele>
        <time>2013-11-11T09:59:29.175Z</time>
      </trkpt>
      <trkpt lat="47.48952" lon="6.78113">
        <ele>395</ele>
        <time>2013-11-11T09:59:34.233Z</time>
      </trkpt>
      <trkpt lat="47.4896" lon="6.78129">
        <ele>395</ele>
        <time>2013-11-11T09:59:39.175Z</time>
      </trkpt>
      <trkpt lat="47.48967" lon="6.7814">
        <ele>395</ele>
        <time>2013-11-11T09:59:44.250Z</time>
      </trkpt>
      <trkpt lat="47.48974" lon="6.78152">
        <ele>395</ele>
        <time>2013-11-11T09:59:49.176Z</time>
      </trkpt>
      <trkpt lat="47.48981" lon="6.78166">
        <ele>396</ele>
        <time>2013-11-11T09:59:54.233Z</time>
      </trkpt>
      <trkpt lat="47.48989" lon="6.78185">
        <ele>396</ele>
        <time>2013-11-11T09:59:59.178Z</time>
      </trkpt>
      <trkpt lat="47.49001" lon="6.78204">
        <ele>397</ele>
        <time>2013-11-11T10:00:04.249Z</time>
      </trkpt>
      <trkpt lat="47.49005" lon="6.7822">
        <ele>397</ele>
        <time>2013-11-11T10:00:09.177Z</time>
      </trkpt>
      <trkpt lat="47.49014" lon="6.78236">
        <ele>397</ele>
        <time>2013-11-11T10:00:14.228Z</time>
      </trkpt>
      <trkpt lat="47.49023" lon="6.78243">
        <ele>397</ele>
        <time>2013-11-11T10:00:19.177Z</time>
      </trkpt>
      <trkpt lat="47.49028" lon="6.7825">
        <ele>396</ele>
        <time>2013-11-11T10:00:24.248Z</time>
      </trkpt>
      <trkpt lat="47.49038" lon="6.7826">
        <ele>395</ele>
        <time>2013-11-11T10:00:29.176Z</time>
      </trkpt>
      <trkpt lat="47.49048" lon="6.78272">
        <ele>395</ele>
        <time>2013-11-11T10:00:34.251Z</time>
      </trkpt>
      <trkpt lat="47.49055" lon="6.78286">
        <ele>395</ele>
        <time>2013-11-11T10:00:39.182Z</time>
      </trkpt>
      <trkpt lat="47.49059" lon="6.78298">
        <ele>394</ele>
        <time>2013-11-11T10:00:44.250Z</time>
      </trkpt>
      <trkpt lat="47.49066" lon="6.78314">
        <ele>396</ele>
        <time>2013-11-11T10:00:49.179Z</time>
      </trkpt>
      <trkpt lat="47.49072" lon="6.78334">
        <ele>395</ele>
        <time>2013-11-11T10:00:54.220Z</time>
      </trkpt>
      <trkpt lat="47.4908" lon="6.78353">
        <ele>395</ele>
        <time>2013-11-11T10:00:59.179Z</time>
      </trkpt>
      <trkpt lat="47.49086" lon="6.78366">
        <ele>394</ele>
        <time>2013-11-11T10:01:04.250Z</time>
      </trkpt>
      <trkpt lat="47.49092" lon="6.78382">
        <ele>393</ele>
        <time>2013-11-11T10:01:09.176Z</time>
      </trkpt>
      <trkpt lat="47.49101" lon="6.78404">
        <ele>392</ele>
        <time>2013-11-11T10:01:14.250Z</time>
      </trkpt>
      <trkpt lat="47.49109" lon="6.78424">
        <ele>391</ele>
        <time>2013-11-11T10:01:19.172Z</time>
      </trkpt>
      <trkpt lat="47.49113" lon="6.78436">
        <ele>391</ele>
        <time>2013-11-11T10:01:24.247Z</time>
      </trkpt>
      <trkpt lat="47.49117" lon="6.78447">
        <ele>392</ele>
        <time>2013-11-11T10:01:29.171Z</time>
      </trkpt>
      <trkpt lat="47.49124" lon="6.78457">
        <ele>391</ele>
        <time>2013-11-11T10:01:34.247Z</time>
      </trkpt>
      <trkpt lat="47.49133" lon="6.7847">
        <ele>392</ele>
        <time>2013-11-11T10:01:39.177Z</time>
      </trkpt>
      <trkpt lat="47.4914" lon="6.78479">
        <ele>393</ele>
        <time>2013-11-11T10:01:44.247Z</time>
      </trkpt>
      <trkpt lat="47.49141" lon="6.7848">
        <ele>393</ele>
        <time>2013-11-11T10:01:49.178Z</time>
      </trkpt>
      <trkpt lat="47.49154" lon="6.78482">
        <ele>394</ele>
        <time>2013-11-11T10:01:54.247Z</time>
      </trkpt>
      <trkpt lat="47.49163" lon="6.78484">
        <ele>396</ele>
        <time>2013-11-11T10:01:59.171Z</time>
      </trkpt>
      <trkpt lat="47.49174" lon="6.78487">
        <ele>397</ele>
        <time>2013-11-11T10:02:04.247Z</time>
      </trkpt>
      <trkpt lat="47.49176" lon="6.78488">
        <ele>398</ele>
        <time>2013-11-11T10:02:09.178Z</time>
      </trkpt>
      <trkpt lat="47.49177" lon="6.78489">
        <ele>399</ele>
        <time>2013-11-11T10:02:14.236Z</time>
      </trkpt>
      <trkpt lat="47.49176" lon="6.78494">
        <ele>400</ele>
        <time>2013-11-11T10:02:19.172Z</time>
      </trkpt>
      <trkpt lat="47.49173" lon="6.78501">
        <ele>400</ele>
        <time>2013-11-11T10:02:24.248Z</time>
      </trkpt>
      <trkpt lat="47.49171" lon="6.78513">
        <ele>401</ele>
        <time>2013-11-11T10:02:29.165Z</time>
      </trkpt>
      <trkpt lat="47.49175" lon="6.78532">
        <ele>401</ele>
        <time>2013-11-11T10:02:34.248Z</time>
      </trkpt>
      <trkpt lat="47.49181" lon="6.78552">
        <ele>402</ele>
        <time>2013-11-11T10:02:39.158Z</time>
      </trkpt>
      <trkpt lat="47.49187" lon="6.78569">
        <ele>402</ele>
        <time>2013-11-11T10:02:44.248Z</time>
      </trkpt>
      <trkpt lat="47.49194" lon="6.78589">
        <ele>401</ele>
        <time>2013-11-11T10:02:49.176Z</time>
      </trkpt>
      <trkpt lat="47.49217" lon="6.78626">
        <ele>401</ele>
        <time>2013-11-11T10:02:59.168Z</time>
      </trkpt>
      <trkpt lat="47.49226" lon="6.78645">
        <ele>400</ele>
        <time>2013-11-11T10:03:04.168Z</time>
      </trkpt>
      <trkpt lat="47.4923" lon="6.78659">
        <ele>399</ele>
        <time>2013-11-11T10:03:09.246Z</time>
      </trkpt>
      <trkpt lat="47.4924" lon="6.78678">
        <ele>399</ele>
        <time>2013-11-11T10:03:14.167Z</time>
      </trkpt>
      <trkpt lat="47.49252" lon="6.78698">
        <ele>399</ele>
        <time>2013-11-11T10:03:19.246Z</time>
      </trkpt>
      <trkpt lat="47.49267" lon="6.78724">
        <ele>398</ele>
        <time>2013-11-11T10:03:24.174Z</time>
      </trkpt>
      <trkpt lat="47.4928" lon="6.78739">
        <ele>400</ele>
        <time>2013-11-11T10:03:29.234Z</time>
      </trkpt>
      <trkpt lat="47.49283" lon="6.78739">
        <ele>401</ele>
        <time>2013-11-11T10:03:34.169Z</time>
      </trkpt>
      <trkpt lat="47.49282" lon="6.78739">
        <ele>400</ele>
        <time>2013-11-11T10:03:39.250Z</time>
      </trkpt>
      <trkpt lat="47.49287" lon="6.78744">
        <ele>400</ele>
        <time>2013-11-11T10:03:44.169Z</time>
      </trkpt>
      <trkpt lat="47.49296" lon="6.78754">
        <ele>401</ele>
        <time>2013-11-11T10:03:49.247Z</time>
      </trkpt>
      <trkpt lat="47.49307" lon="6.78765">
        <ele>399</ele>
        <time>2013-11-11T10:03:54.173Z</time>
      </trkpt>
      <trkpt lat="47.49314" lon="6.78774">
        <ele>397</ele>
        <time>2013-11-11T10:03:59.250Z</time>
      </trkpt>
      <trkpt lat="47.49319" lon="6.78782">
        <ele>396</ele>
        <time>2013-11-11T10:04:04.174Z</time>
      </trkpt>
      <trkpt lat="47.49325" lon="6.78791">
        <ele>397</ele>
        <time>2013-11-11T10:04:09.218Z</time>
      </trkpt>
      <trkpt lat="47.4933" lon="6.78801">
        <ele>397</ele>
        <time>2013-11-11T10:04:14.167Z</time>
      </trkpt>
      <trkpt lat="47.4934" lon="6.78807">
        <ele>396</ele>
        <time>2013-11-11T10:04:19.248Z</time>
      </trkpt>
      <trkpt lat="47.49353" lon="6.78816">
        <ele>396</ele>
        <time>2013-11-11T10:04:24.172Z</time>
      </trkpt>
      <trkpt lat="47.49365" lon="6.78828">
        <ele>397</ele>
        <time>2013-11-11T10:04:29.254Z</time>
      </trkpt>
      <trkpt lat="47.49364" lon="6.78835">
        <ele>396</ele>
        <time>2013-11-11T10:04:34.171Z</time>
      </trkpt>
      <trkpt lat="47.49362" lon="6.78852">
        <ele>396</ele>
        <time>2013-11-11T10:04:39.254Z</time>
      </trkpt>
      <trkpt lat="47.49365" lon="6.78871">
        <ele>396</ele>
        <time>2013-11-11T10:04:44.170Z</time>
      </trkpt>
      <trkpt lat="47.49373" lon="6.78895">
        <ele>396</ele>
        <time>2013-11-11T10:04:49.254Z</time>
      </trkpt>
      <trkpt lat="47.49385" lon="6.7892">
        <ele>396</ele>
        <time>2013-11-11T10:04:54.172Z</time>
      </trkpt>
      <trkpt lat="47.49394" lon="6.78946">
        <ele>395</ele>
        <time>2013-11-11T10:04:59.248Z</time>
      </trkpt>
      <trkpt lat="47.49397" lon="6.78962">
        <ele>395</ele>
        <time>2013-11-11T10:05:04.172Z</time>
      </trkpt>
      <trkpt lat="47.49398" lon="6.78973">
        <ele>394</ele>
        <time>2013-11-11T10:05:09.241Z</time>
      </trkpt>
      <trkpt lat="47.49398" lon="6.78976">
        <ele>394</ele>
        <time>2013-11-11T10:05:14.176Z</time>
      </trkpt>
      <trkpt lat="47.49398" lon="6.78993">
        <ele>393</ele>
        <time>2013-11-11T10:05:19.256Z</time>
      </trkpt>
      <trkpt lat="47.49411" lon="6.7901">
        <ele>392</ele>
        <time>2013-11-11T10:05:24.172Z</time>
      </trkpt>
      <trkpt lat="47.49425" lon="6.79034">
        <ele>391</ele>
        <time>2013-11-11T10:05:29.228Z</time>
      </trkpt>
      <trkpt lat="47.49436" lon="6.79058">
        <ele>390</ele>
        <time>2013-11-11T10:05:34.243Z</time>
      </trkpt>
      <trkpt lat="47.49443" lon="6.79067">
        <ele>389</ele>
        <time>2013-11-11T10:05:39.170Z</time>
      </trkpt>
      <trkpt lat="47.49443" lon="6.79068">
        <ele>388</ele>
        <time>2013-11-11T10:05:44.248Z</time>
      </trkpt>
      <trkpt lat="47.49442" lon="6.79067">
        <ele>387</ele>
        <time>2013-11-11T10:05:49.169Z</time>
      </trkpt>
      <trkpt lat="47.49442" lon="6.79067">
        <ele>387</ele>
        <time>2013-11-11T10:05:54.247Z</time>
      </trkpt>
      <trkpt lat="47.49442" lon="6.79067">
        <ele>387</ele>
        <time>2013-11-11T10:05:59.153Z</time>
      </trkpt>
      <trkpt lat="47.49441" lon="6.79065">
        <ele>386</ele>
        <time>2013-11-11T10:06:09.170Z</time>
      </trkpt>
      <trkpt lat="47.49441" lon="6.79065">
        <ele>386</ele>
        <time>2013-11-11T10:06:09.170Z</time>
      </trkpt>
      <trkpt lat="47.49441" lon="6.79065">
        <ele>386</ele>
        <time>2013-11-11T10:06:19.166Z</time>
      </trkpt>
      <trkpt lat="47.49445" lon="6.79066">
        <ele>385</ele>
        <time>2013-11-11T10:06:24.249Z</time>
      </trkpt>
      <trkpt lat="47.49445" lon="6.7905">
        <ele>385</ele>
        <time>2013-11-11T10:06:29.169Z</time>
      </trkpt>
      <trkpt lat="47.49446" lon="6.79033">
        <ele>386</ele>
        <time>2013-11-11T10:06:34.577Z</time>
      </trkpt>
      <trkpt lat="47.49445" lon="6.79016">
        <ele>387</ele>
        <time>2013-11-11T10:06:39.169Z</time>
      </trkpt>
      <trkpt lat="47.49444" lon="6.79002">
        <ele>388</ele>
        <time>2013-11-11T10:06:44.254Z</time>
      </trkpt>
      <trkpt lat="47.49443" lon="6.78988">
        <ele>389</ele>
        <time>2013-11-11T10:06:49.168Z</time>
      </trkpt>
      <trkpt lat="47.49442" lon="6.78973">
        <ele>390</ele>
        <time>2013-11-11T10:06:54.245Z</time>
      </trkpt>
      <trkpt lat="47.49441" lon="6.78959">
        <ele>391</ele>
        <time>2013-11-11T10:06:59.168Z</time>
      </trkpt>
      <trkpt lat="47.4944" lon="6.78945">
        <ele>393</ele>
        <time>2013-11-11T10:07:04.247Z</time>
      </trkpt>
      <trkpt lat="47.49439" lon="6.7893">
        <ele>396</ele>
        <time>2013-11-11T10:07:09.176Z</time>
      </trkpt>
      <trkpt lat="47.49438" lon="6.78916">
        <ele>398</ele>
        <time>2013-11-11T10:07:14.206Z</time>
      </trkpt>
      <trkpt lat="47.49437" lon="6.789">
        <ele>399</ele>
        <time>2013-11-11T10:07:19.171Z</time>
      </trkpt>
      <trkpt lat="47.49437" lon="6.78884">
        <ele>399</ele>
        <time>2013-11-11T10:07:24.248Z</time>
      </trkpt>
      <trkpt lat="47.49437" lon="6.78867">
        <ele>400</ele>
        <time>2013-11-11T10:07:29.162Z</time>
      </trkpt>
      <trkpt lat="47.49437" lon="6.78851">
        <ele>400</ele>
        <time>2013-11-11T10:07:34.248Z</time>
      </trkpt>
      <trkpt lat="47.49439" lon="6.78835">
        <ele>401</ele>
        <time>2013-11-11T10:07:39.230Z</time>
      </trkpt>
      <trkpt lat="47.49438" lon="6.78818">
        <ele>401</ele>
        <time>2013-11-11T10:07:44.170Z</time>
      </trkpt>
      <trkpt lat="47.49442" lon="6.78802">
        <ele>402</ele>
        <time>2013-11-11T10:07:49.250Z</time>
      </trkpt>
      <trkpt lat="47.49444" lon="6.78788">
        <ele>403</ele>
        <time>2013-11-11T10:07:54.172Z</time>
      </trkpt>
      <trkpt lat="47.49451" lon="6.78771">
        <ele>404</ele>
        <time>2013-11-11T10:07:59.244Z</time>
      </trkpt>
      <trkpt lat="47.49457" lon="6.78754">
        <ele>404</ele>
        <time>2013-11-11T10:08:04.172Z</time>
      </trkpt>
      <trkpt lat="47.4946" lon="6.78734">
        <ele>404</ele>
        <time>2013-11-11T10:08:09.232Z</time>
      </trkpt>
      <trkpt lat="47.49465" lon="6.78716">
        <ele>406</ele>
        <time>2013-11-11T10:08:14.172Z</time>
      </trkpt>
      <trkpt lat="47.49471" lon="6.78694">
        <ele>407</ele>
        <time>2013-11-11T10:08:19.254Z</time>
      </trkpt>
      <trkpt lat="47.4948" lon="6.78667">
        <ele>406</ele>
        <time>2013-11-11T10:08:24.176Z</time>
      </trkpt>
      <trkpt lat="47.49493" lon="6.78641">
        <ele>409</ele>
        <time>2013-11-11T10:08:29.250Z</time>
      </trkpt>
      <trkpt lat="47.49508" lon="6.78609">
        <ele>409</ele>
        <time>2013-11-11T10:08:34.170Z</time>
      </trkpt>
      <trkpt lat="47.49522" lon="6.78577">
        <ele>410</ele>
        <time>2013-11-11T10:08:39.234Z</time>
      </trkpt>
      <trkpt lat="47.49539" lon="6.78545">
        <ele>407</ele>
        <time>2013-11-11T10:08:44.235Z</time>
      </trkpt>
      <trkpt lat="47.49558" lon="6.78509">
        <ele>404</ele>
        <time>2013-11-11T10:08:49.175Z</time>
      </trkpt>
      <trkpt lat="47.49578" lon="6.7847">
        <ele>401</ele>
        <time>2013-11-11T10:08:54.254Z</time>
      </trkpt>
      <trkpt lat="47.49596" lon="6.78436">
        <ele>400</ele>
        <time>2013-11-11T10:08:59.172Z</time>
      </trkpt>
      <trkpt lat="47.49614" lon="6.78403">
        <ele>400</ele>
        <time>2013-11-11T10:09:04.248Z</time>
      </trkpt>
      <trkpt lat="47.49631" lon="6.78367">
        <ele>400</ele>
        <time>2013-11-11T10:09:09.173Z</time>
      </trkpt>
      <trkpt lat="47.49648" lon="6.78339">
        <ele>402</ele>
        <time>2013-11-11T10:09:14.249Z</time>
      </trkpt>
      <trkpt lat="47.49666" lon="6.78316">
        <ele>403</ele>
        <time>2013-11-11T10:09:19.163Z</time>
      </trkpt>
      <trkpt lat="47.49686" lon="6.78294">
        <ele>405</ele>
        <time>2013-11-11T10:09:24.246Z</time>
      </trkpt>
      <trkpt lat="47.49709" lon="6.78269">
        <ele>405</ele>
        <time>2013-11-11T10:09:29.171Z</time>
      </trkpt>
      <trkpt lat="47.4973" lon="6.78239">
        <ele>402</ele>
        <time>2013-11-11T10:09:34.277Z</time>
      </trkpt>
      <trkpt lat="47.49735" lon="6.78222">
        <ele>399</ele>
        <time>2013-11-11T10:09:39.179Z</time>
      </trkpt>
      <trkpt lat="47.49716" lon="6.78208">
        <ele>397</ele>
        <time>2013-11-11T10:09:44.224Z</time>
      </trkpt>
      <trkpt lat="47.49695" lon="6.78191">
        <ele>397</ele>
        <time>2013-11-11T10:09:49.179Z</time>
      </trkpt>
      <trkpt lat="47.49677" lon="6.78172">
        <ele>397</ele>
        <time>2013-11-11T10:09:54.226Z</time>
      </trkpt>
      <trkpt lat="47.49657" lon="6.78151">
        <ele>397</ele>
        <time>2013-11-11T10:09:59.163Z</time>
      </trkpt>
      <trkpt lat="47.49615" lon="6.78101">
        <ele>396</ele>
        <time>2013-11-11T10:10:09.251Z</time>
      </trkpt>
      <trkpt lat="47.49591" lon="6.78073">
        <ele>395</ele>
        <time>2013-11-11T10:10:14.181Z</time>
      </trkpt>
      <trkpt lat="47.49567" lon="6.78044">
        <ele>394</ele>
        <time>2013-11-11T10:10:19.250Z</time>
      </trkpt>
      <trkpt lat="47.49545" lon="6.78024">
        <ele>391</ele>
        <time>2013-11-11T10:10:24.182Z</time>
      </trkpt>
      <trkpt lat="47.49519" lon="6.78011">
        <ele>387</ele>
        <time>2013-11-11T10:10:29.250Z</time>
      </trkpt>
      <trkpt lat="47.4951" lon="6.78003">
        <ele>385</ele>
        <time>2013-11-11T10:10:34.178Z</time>
      </trkpt>
      <trkpt lat="47.4951" lon="6.78003">
        <ele>385</ele>
        <time>2013-11-11T10:10:39.250Z</time>
      </trkpt>
      <trkpt lat="47.4951" lon="6.78003">
        <ele>385</ele>
        <time>2013-11-11T10:10:44.177Z</time>
      </trkpt>
      <trkpt lat="47.4951" lon="6.78001">
        <ele>384</ele>
        <time>2013-11-11T10:10:49.177Z</time>
      </trkpt>
      <trkpt lat="47.49511" lon="6.78001">
        <ele>383</ele>
        <time>2013-11-11T10:10:54.251Z</time>
      </trkpt>
      <trkpt lat="47.49511" lon="6.78001">
        <ele>382</ele>
        <time>2013-11-11T10:10:59.177Z</time>
      </trkpt>
      <trkpt lat="47.49512" lon="6.77999">
        <ele>382</ele>
        <time>2013-11-11T10:11:04.251Z</time>
      </trkpt>
      <trkpt lat="47.49505" lon="6.77984">
        <ele>381</ele>
        <time>2013-11-11T10:11:09.174Z</time>
      </trkpt>
      <trkpt lat="47.4948" lon="6.77967">
        <ele>379</ele>
        <time>2013-11-11T10:11:14.247Z</time>
      </trkpt>
      <trkpt lat="47.49447" lon="6.77948">
        <ele>377</ele>
        <time>2013-11-11T10:11:19.178Z</time>
      </trkpt>
      <trkpt lat="47.49409" lon="6.77935">
        <ele>377</ele>
        <time>2013-11-11T10:11:24.178Z</time>
      </trkpt>
      <trkpt lat="47.49366" lon="6.77923">
        <ele>377</ele>
        <time>2013-11-11T10:11:29.253Z</time>
      </trkpt>
      <trkpt lat="47.49321" lon="6.77913">
        <ele>374</ele>
        <time>2013-11-11T10:11:34.179Z</time>
      </trkpt>
      <trkpt lat="47.4928" lon="6.779">
        <ele>372</ele>
        <time>2013-11-11T10:11:39.251Z</time>
      </trkpt>
      <trkpt lat="47.49243" lon="6.77882">
        <ele>371</ele>
        <time>2013-11-11T10:11:44.176Z</time>
      </trkpt>
      <trkpt lat="47.49209" lon="6.7786">
        <ele>371</ele>
        <time>2013-11-11T10:11:49.177Z</time>
      </trkpt>
      <trkpt lat="47.49175" lon="6.77835">
        <ele>371</ele>
        <time>2013-11-11T10:11:54.260Z</time>
      </trkpt>
      <trkpt lat="47.49141" lon="6.77811">
        <ele>370</ele>
        <time>2013-11-11T10:11:59.176Z</time>
      </trkpt>
      <trkpt lat="47.49107" lon="6.77788">
        <ele>370</ele>
        <time>2013-11-11T10:12:04.251Z</time>
      </trkpt>
      <trkpt lat="47.49074" lon="6.77766">
        <ele>370</ele>
        <time>2013-11-11T10:12:09.177Z</time>
      </trkpt>
      <trkpt lat="47.4904" lon="6.77743">
        <ele>372</ele>
        <time>2013-11-11T10:12:14.250Z</time>
      </trkpt>
      <trkpt lat="47.49008" lon="6.77718">
        <ele>373</ele>
        <time>2013-11-11T10:12:19.177Z</time>
      </trkpt>
      <trkpt lat="47.48977" lon="6.77695">
        <ele>374</ele>
        <time>2013-11-11T10:12:24.251Z</time>
      </trkpt>
      <trkpt lat="47.48947" lon="6.77673">
        <ele>375</ele>
        <time>2013-11-11T10:12:29.173Z</time>
      </trkpt>
      <trkpt lat="47.48921" lon="6.77652">
        <ele>372</ele>
        <time>2013-11-11T10:12:34.248Z</time>
      </trkpt>
      <trkpt lat="47.48897" lon="6.77628">
        <ele>372</ele>
        <time>2013-11-11T10:12:39.175Z</time>
      </trkpt>
      <trkpt lat="47.48876" lon="6.77601">
        <ele>375</ele>
        <time>2013-11-11T10:12:44.249Z</time>
      </trkpt>
      <trkpt lat="47.48853" lon="6.77575">
        <ele>375</ele>
        <time>2013-11-11T10:12:49.257Z</time>
      </trkpt>
      <trkpt lat="47.48828" lon="6.77549">
        <ele>376</ele>
        <time>2013-11-11T10:12:54.248Z</time>
      </trkpt>
      <trkpt lat="47.48803" lon="6.77521">
        <ele>377</ele>
        <time>2013-11-11T10:12:59.180Z</time>
      </trkpt>
      <trkpt lat="47.48778" lon="6.77491">
        <ele>378</ele>
        <time>2013-11-11T10:13:04.250Z</time>
      </trkpt>
      <trkpt lat="47.48754" lon="6.7746">
        <ele>376</ele>
        <time>2013-11-11T10:13:09.177Z</time>
      </trkpt>
      <trkpt lat="47.4873" lon="6.77431">
        <ele>375</ele>
        <time>2013-11-11T10:13:14.250Z</time>
      </trkpt>
      <trkpt lat="47.48706" lon="6.77404">
        <ele>377</ele>
        <time>2013-11-11T10:13:19.176Z</time>
      </trkpt>
      <trkpt lat="47.48683" lon="6.77374">
        <ele>374</ele>
        <time>2013-11-11T10:13:24.236Z</time>
      </trkpt>
      <trkpt lat="47.48662" lon="6.77347">
        <ele>372</ele>
        <time>2013-11-11T10:13:29.175Z</time>
      </trkpt>
      <trkpt lat="47.48638" lon="6.77321">
        <ele>373</ele>
        <time>2013-11-11T10:13:34.250Z</time>
      </trkpt>
      <trkpt lat="47.48615" lon="6.77294">
        <ele>373</ele>
        <time>2013-11-11T10:13:39.177Z</time>
      </trkpt>
      <trkpt lat="47.48592" lon="6.77268">
        <ele>374</ele>
        <time>2013-11-11T10:13:44.250Z</time>
      </trkpt>
      <trkpt lat="47.48567" lon="6.77243">
        <ele>375</ele>
        <time>2013-11-11T10:13:49.177Z</time>
      </trkpt>
      <trkpt lat="47.48545" lon="6.77215">
        <ele>372</ele>
        <time>2013-11-11T10:13:54.250Z</time>
      </trkpt>
      <trkpt lat="47.48521" lon="6.7719">
        <ele>372</ele>
        <time>2013-11-11T10:13:59.178Z</time>
      </trkpt>
      <trkpt lat="47.48494" lon="6.77168">
        <ele>372</ele>
        <time>2013-11-11T10:14:04.224Z</time>
      </trkpt>
      <trkpt lat="47.48466" lon="6.77144">
        <ele>373</ele>
        <time>2013-11-11T10:14:09.175Z</time>
      </trkpt>
      <trkpt lat="47.48436" lon="6.77118">
        <ele>375</ele>
        <time>2013-11-11T10:14:14.256Z</time>
      </trkpt>
      <trkpt lat="47.48406" lon="6.77096">
        <ele>375</ele>
        <time>2013-11-11T10:14:19.180Z</time>
      </trkpt>
      <trkpt lat="47.48376" lon="6.77074">
        <ele>376</ele>
        <time>2013-11-11T10:14:24.251Z</time>
      </trkpt>
      <trkpt lat="47.48344" lon="6.77052">
        <ele>377</ele>
        <time>2013-11-11T10:14:29.229Z</time>
      </trkpt>
      <trkpt lat="47.48312" lon="6.7703">
        <ele>379</ele>
        <time>2013-11-11T10:14:34.165Z</time>
      </trkpt>
      <trkpt lat="47.48247" lon="6.76998">
        <ele>376</ele>
        <time>2013-11-11T10:14:44.176Z</time>
      </trkpt>
      <trkpt lat="47.48215" lon="6.76983">
        <ele>375</ele>
        <time>2013-11-11T10:14:49.228Z</time>
      </trkpt>
      <trkpt lat="47.48184" lon="6.76972">
        <ele>374</ele>
        <time>2013-11-11T10:14:54.178Z</time>
      </trkpt>
      <trkpt lat="47.48153" lon="6.76961">
        <ele>373</ele>
        <time>2013-11-11T10:14:59.248Z</time>
      </trkpt>
      <trkpt lat="47.48123" lon="6.7695">
        <ele>372</ele>
        <time>2013-11-11T10:15:04.250Z</time>
      </trkpt>
      <trkpt lat="47.48092" lon="6.76939">
        <ele>373</ele>
        <time>2013-11-11T10:15:09.170Z</time>
      </trkpt>
      <trkpt lat="47.48063" lon="6.76926">
        <ele>372</ele>
        <time>2013-11-11T10:15:14.247Z</time>
      </trkpt>
      <trkpt lat="47.48035" lon="6.76915">
        <ele>370</ele>
        <time>2013-11-11T10:15:19.173Z</time>
      </trkpt>
      <trkpt lat="47.48006" lon="6.76903">
        <ele>368</ele>
        <time>2013-11-11T10:15:24.255Z</time>
      </trkpt>
      <trkpt lat="47.47976" lon="6.76892">
        <ele>368</ele>
        <time>2013-11-11T10:15:29.173Z</time>
      </trkpt>
      <trkpt lat="47.47946" lon="6.7688">
        <ele>368</ele>
        <time>2013-11-11T10:15:34.250Z</time>
      </trkpt>
      <trkpt lat="47.47917" lon="6.76868">
        <ele>369</ele>
        <time>2013-11-11T10:15:39.175Z</time>
      </trkpt>
      <trkpt lat="47.4789" lon="6.76854">
        <ele>370</ele>
        <time>2013-11-11T10:15:44.245Z</time>
      </trkpt>
      <trkpt lat="47.47863" lon="6.76842">
        <ele>371</ele>
        <time>2013-11-11T10:15:49.173Z</time>
      </trkpt>
      <trkpt lat="47.4784" lon="6.76835">
        <ele>372</ele>
        <time>2013-11-11T10:15:54.220Z</time>
      </trkpt>
      <trkpt lat="47.4782" lon="6.76819">
        <ele>370</ele>
        <time>2013-11-11T10:15:59.176Z</time>
      </trkpt>
      <trkpt lat="47.47796" lon="6.76808">
        <ele>368</ele>
        <time>2013-11-11T10:16:04.234Z</time>
      </trkpt>
      <trkpt lat="47.47774" lon="6.76798">
        <ele>369</ele>
        <time>2013-11-11T10:16:09.176Z</time>
      </trkpt>
      <trkpt lat="47.47756" lon="6.76793">
        <ele>369</ele>
        <time>2013-11-11T10:16:14.247Z</time>
      </trkpt>
      <trkpt lat="47.47737" lon="6.76794">
        <ele>368</ele>
        <time>2013-11-11T10:16:19.162Z</time>
      </trkpt>
      <trkpt lat="47.47717" lon="6.76821">
        <ele>365</ele>
        <time>2013-11-11T10:16:24.208Z</time>
      </trkpt>
      <trkpt lat="47.47704" lon="6.76857">
        <ele>363</ele>
        <time>2013-11-11T10:16:29.173Z</time>
      </trkpt>
      <trkpt lat="47.47691" lon="6.76896">
        <ele>362</ele>
        <time>2013-11-11T10:16:34.242Z</time>
      </trkpt>
      <trkpt lat="47.47677" lon="6.76931">
        <ele>362</ele>
        <time>2013-11-11T10:16:39.182Z</time>
      </trkpt>
      <trkpt lat="47.47664" lon="6.76964">
        <ele>363</ele>
        <time>2013-11-11T10:16:44.250Z</time>
      </trkpt>
      <trkpt lat="47.47653" lon="6.76985">
        <ele>363</ele>
        <time>2013-11-11T10:16:49.183Z</time>
      </trkpt>
      <trkpt lat="47.47647" lon="6.77007">
        <ele>363</ele>
        <time>2013-11-11T10:16:54.242Z</time>
      </trkpt>
      <trkpt lat="47.47644" lon="6.77032">
        <ele>364</ele>
        <time>2013-11-11T10:16:59.179Z</time>
      </trkpt>
      <trkpt lat="47.47641" lon="6.77056">
        <ele>364</ele>
        <time>2013-11-11T10:17:04.481Z</time>
      </trkpt>
      <trkpt lat="47.47638" lon="6.77085">
        <ele>365</ele>
        <time>2013-11-11T10:17:09.251Z</time>
      </trkpt>
      <trkpt lat="47.47631" lon="6.77124">
        <ele>364</ele>
        <time>2013-11-11T10:17:14.179Z</time>
      </trkpt>
      <trkpt lat="47.47619" lon="6.77168">
        <ele>362</ele>
        <time>2013-11-11T10:17:19.238Z</time>
      </trkpt>
      <trkpt lat="47.47599" lon="6.77183">
        <ele>362</ele>
        <time>2013-11-11T10:17:24.177Z</time>
      </trkpt>
      <trkpt lat="47.47574" lon="6.77168">
        <ele>362</ele>
        <time>2013-11-11T10:17:29.250Z</time>
      </trkpt>
      <trkpt lat="47.47549" lon="6.77147">
        <ele>363</ele>
        <time>2013-11-11T10:17:34.177Z</time>
      </trkpt>
      <trkpt lat="47.47527" lon="6.77138">
        <ele>363</ele>
        <time>2013-11-11T10:17:39.177Z</time>
      </trkpt>
      <trkpt lat="47.47514" lon="6.77163">
        <ele>362</ele>
        <time>2013-11-11T10:17:44.253Z</time>
      </trkpt>
      <trkpt lat="47.47509" lon="6.772">
        <ele>362</ele>
        <time>2013-11-11T10:17:49.184Z</time>
      </trkpt>
      <trkpt lat="47.47493" lon="6.77233">
        <ele>362</ele>
        <time>2013-11-11T10:17:54.249Z</time>
      </trkpt>
      <trkpt lat="47.47478" lon="6.77257">
        <ele>362</ele>
        <time>2013-11-11T10:17:59.178Z</time>
      </trkpt>
      <trkpt lat="47.47469" lon="6.77271">
        <ele>362</ele>
        <time>2013-11-11T10:18:04.254Z</time>
      </trkpt>
      <trkpt lat="47.47454" lon="6.77258">
        <ele>363</ele>
        <time>2013-11-11T10:18:09.159Z</time>
      </trkpt>
      <trkpt lat="47.47433" lon="6.77237">
        <ele>363</ele>
        <time>2013-11-11T10:18:14.214Z</time>
      </trkpt>
      <trkpt lat="47.47411" lon="6.77216">
        <ele>364</ele>
        <time>2013-11-11T10:18:19.177Z</time>
      </trkpt>
      <trkpt lat="47.47386" lon="6.77212">
        <ele>365</ele>
        <time>2013-11-11T10:18:24.251Z</time>
      </trkpt>
      <trkpt lat="47.47368" lon="6.77223">
        <ele>366</ele>
        <time>2013-11-11T10:18:29.178Z</time>
      </trkpt>
      <trkpt lat="47.47363" lon="6.77227">
        <ele>367</ele>
        <time>2013-11-11T10:18:34.251Z</time>
      </trkpt>
      <trkpt lat="47.47364" lon="6.77227">
        <ele>367</ele>
        <time>2013-11-11T10:18:39.177Z</time>
      </trkpt>
      <trkpt lat="47.47362" lon="6.77227">
        <ele>366</ele>
        <time>2013-11-11T10:18:44.254Z</time>
      </trkpt>
      <trkpt lat="47.47362" lon="6.77227">
        <ele>366</ele>
        <time>2013-11-11T10:18:49.178Z</time>
      </trkpt>
      <trkpt lat="47.47362" lon="6.77227">
        <ele>366</ele>
        <time>2013-11-11T10:18:54.251Z</time>
      </trkpt>
      <trkpt lat="47.47362" lon="6.77227">
        <ele>366</ele>
        <time>2013-11-11T10:18:59.178Z</time>
      </trkpt>
      <trkpt lat="47.47362" lon="6.77225">
        <ele>366</ele>
        <time>2013-11-11T10:19:04.251Z</time>
      </trkpt>
      <trkpt lat="47.47362" lon="6.77225">
        <ele>366</ele>
        <time>2013-11-11T10:19:09.429Z</time>
      </trkpt>
      <trkpt lat="47.47362" lon="6.77225">
        <ele>366</ele>
        <time>2013-11-11T10:19:14.247Z</time>
      </trkpt>
      <trkpt lat="47.47362" lon="6.77225">
        <ele>366</ele>
        <time>2013-11-11T10:19:19.180Z</time>
      </trkpt>
      <trkpt lat="47.47362" lon="6.77225">
        <ele>366</ele>
        <time>2013-11-11T10:19:24.251Z</time>
      </trkpt>
      <trkpt lat="47.47362" lon="6.77225">
        <ele>366</ele>
        <time>2013-11-11T10:19:29.173Z</time>
      </trkpt>
      <trkpt lat="47.47363" lon="6.77225">
        <ele>366</ele>
        <time>2013-11-11T10:19:34.249Z</time>
      </trkpt>
      <trkpt lat="47.47363" lon="6.77225">
        <ele>366</ele>
        <time>2013-11-11T10:19:39.175Z</time>
      </trkpt>
      <trkpt lat="47.47363" lon="6.77225">
        <ele>366</ele>
        <time>2013-11-11T10:19:44.249Z</time>
      </trkpt>
      <trkpt lat="47.47363" lon="6.77225">
        <ele>366</ele>
        <time>2013-11-11T10:19:49.174Z</time>
      </trkpt>
      <trkpt lat="47.47363" lon="6.77225">
        <ele>366</ele>
        <time>2013-11-11T10:19:54.248Z</time>
      </trkpt>
      <trkpt lat="47.47364" lon="6.77225">
        <ele>364</ele>
        <time>2013-11-11T10:19:59.187Z</time>
      </trkpt>
      <trkpt lat="47.47364" lon="6.77227">
        <ele>364</ele>
        <time>2013-11-11T10:20:09.175Z</time>
      </trkpt>
      <trkpt lat="47.47365" lon="6.77226">
        <ele>364</ele>
        <time>2013-11-11T10:20:14.249Z</time>
      </trkpt>
      <trkpt lat="47.47366" lon="6.77224">
        <ele>365</ele>
        <time>2013-11-11T10:20:19.173Z</time>
      </trkpt>
      <trkpt lat="47.47365" lon="6.77224">
        <ele>365</ele>
        <time>2013-11-11T10:20:24.250Z</time>
      </trkpt>
      <trkpt lat="47.47367" lon="6.77223">
        <ele>365</ele>
        <time>2013-11-11T10:20:29.173Z</time>
      </trkpt>
      <trkpt lat="47.47367" lon="6.77222">
        <ele>365</ele>
        <time>2013-11-11T10:20:34.249Z</time>
      </trkpt>
      <trkpt lat="47.47366" lon="6.77222">
        <ele>365</ele>
        <time>2013-11-11T10:20:39.171Z</time>
      </trkpt>
      <trkpt lat="47.47366" lon="6.77222">
        <ele>366</ele>
        <time>2013-11-11T10:20:44.249Z</time>
      </trkpt>
      <trkpt lat="47.47366" lon="6.77222">
        <ele>366</ele>
        <time>2013-11-11T10:20:49.179Z</time>
      </trkpt>
      <trkpt lat="47.47366" lon="6.77222">
        <ele>366</ele>
        <time>2013-11-11T10:20:54.252Z</time>
      </trkpt>
      <trkpt lat="47.47368" lon="6.77222">
        <ele>366</ele>
        <time>2013-11-11T10:20:59.181Z</time>
      </trkpt>
      <trkpt lat="47.47369" lon="6.77223">
        <ele>366</ele>
        <time>2013-11-11T10:21:04.252Z</time>
      </trkpt>
      <trkpt lat="47.47369" lon="6.77223">
        <ele>366</ele>
        <time>2013-11-11T10:21:09.181Z</time>
      </trkpt>
      <trkpt lat="47.47369" lon="6.77223">
        <ele>366</ele>
        <time>2013-11-11T10:21:14.253Z</time>
      </trkpt>
      <trkpt lat="47.47369" lon="6.77223">
        <ele>366</ele>
        <time>2013-11-11T10:21:19.180Z</time>
      </trkpt>
      <trkpt lat="47.47369" lon="6.77223">
        <ele>367</ele>
        <time>2013-11-11T10:21:24.240Z</time>
      </trkpt>
      <trkpt lat="47.47369" lon="6.77223">
        <ele>367</ele>
        <time>2013-11-11T10:21:29.176Z</time>
      </trkpt>
      <trkpt lat="47.47369" lon="6.77223">
        <ele>367</ele>
        <time>2013-11-11T10:21:34.250Z</time>
      </trkpt>
      <trkpt lat="47.47369" lon="6.77223">
        <ele>367</ele>
        <time>2013-11-11T10:21:39.177Z</time>
      </trkpt>
      <trkpt lat="47.47369" lon="6.77223">
        <ele>367</ele>
        <time>2013-11-11T10:21:44.257Z</time>
      </trkpt>
      <trkpt lat="47.47368" lon="6.77224">
        <ele>367</ele>
        <time>2013-11-11T10:21:49.173Z</time>
      </trkpt>
      <trkpt lat="47.4737" lon="6.77224">
        <ele>368</ele>
        <time>2013-11-11T10:21:54.246Z</time>
      </trkpt>
      <trkpt lat="47.47369" lon="6.77222">
        <ele>368</ele>
        <time>2013-11-11T10:21:59.172Z</time>
      </trkpt>
      <trkpt lat="47.47367" lon="6.77223">
        <ele>367</ele>
        <time>2013-11-11T10:22:04.224Z</time>
      </trkpt>
      <trkpt lat="47.47368" lon="6.77223">
        <ele>367</ele>
        <time>2013-11-11T10:22:09.173Z</time>
      </trkpt>
      <trkpt lat="47.47367" lon="6.77222">
        <ele>368</ele>
        <time>2013-11-11T10:22:14.255Z</time>
      </trkpt>
      <trkpt lat="47.47367" lon="6.77224">
        <ele>367</ele>
        <time>2013-11-11T10:22:19.172Z</time>
      </trkpt>
      <trkpt lat="47.47368" lon="6.77224">
        <ele>367</ele>
        <time>2013-11-11T10:22:24.255Z</time>
      </trkpt>
      <trkpt lat="47.47371" lon="6.77224">
        <ele>367</ele>
        <time>2013-11-11T10:22:29.172Z</time>
      </trkpt>
      <trkpt lat="47.47368" lon="6.77226">
        <ele>367</ele>
        <time>2013-11-11T10:22:34.249Z</time>
      </trkpt>
      <trkpt lat="47.47366" lon="6.77228">
        <ele>366</ele>
        <time>2013-11-11T10:22:39.173Z</time>
      </trkpt>
      <trkpt lat="47.47366" lon="6.77224">
        <ele>366</ele>
        <time>2013-11-11T10:22:44.208Z</time>
      </trkpt>
      <trkpt lat="47.47368" lon="6.77222">
        <ele>366</ele>
        <time>2013-11-11T10:22:49.173Z</time>
      </trkpt>
    </trkseg>
  </trk>
</gpx>